<?xml version="1.0" encoding="UTF-8" standalone="no" ?>
<gpx xmlns="http://www.topografix.com/GPX/1/1" xmlns:xsi="http://www.w3.org/2001/XMLSchema-instance" xsi:schemaLocation="http://www.topografix.com/GPX/1/1 http://www.topografix.com/GPX/1/1/gpx.xsd" version="1.1" creator="VisuGPX - https://www.visugpx.com">
  <metadata>
    <name>Aubert - ST maure</name>
  </metadata>
  <trk>
    <name><![CDATA[Aubert - ST maure]]></name>
    <trkseg>
      <trkpt lat="50.50318" lon="3.45393">
        <ele>17.933137</ele>
        <time>2020-06-22T10:08:53.967Z</time>
      </trkpt>
      <trkpt lat="50.50341" lon="3.45413">
        <ele>17.933137</ele>
        <time>2020-06-22T10:08:58.952Z</time>
      </trkpt>
      <trkpt lat="50.50355" lon="3.45425">
        <ele>17.933137</ele>
        <time>2020-06-22T10:09:01.778Z</time>
      </trkpt>
      <trkpt lat="50.50407" lon="3.45459">
        <ele>17.892649</ele>
        <time>2020-06-22T10:09:11.642Z</time>
      </trkpt>
      <trkpt lat="50.50416" lon="3.45464">
        <ele>17.845629</ele>
        <time>2020-06-22T10:09:13.343Z</time>
      </trkpt>
      <trkpt lat="50.50444" lon="3.45482">
        <ele>17.705392</ele>
        <time>2020-06-22T10:09:18.252Z</time>
      </trkpt>
      <trkpt lat="50.50448" lon="3.4547">
        <ele>17.664897</ele>
        <time>2020-06-22T10:09:19.577Z</time>
      </trkpt>
      <trkpt lat="50.50458" lon="3.45443">
        <ele>17.570497</ele>
        <time>2020-06-22T10:09:22.742Z</time>
      </trkpt>
      <trkpt lat="50.50468" lon="3.45372">
        <ele>17.352705</ele>
        <time>2020-06-22T10:09:30.175Z</time>
      </trkpt>
      <trkpt lat="50.50471" lon="3.45343">
        <ele>17.264185</ele>
        <time>2020-06-22T10:09:33.118Z</time>
      </trkpt>
      <trkpt lat="50.50473" lon="3.45332">
        <ele>17.232196</ele>
        <time>2020-06-22T10:09:34.108Z</time>
      </trkpt>
      <trkpt lat="50.50477" lon="3.45312">
        <ele>17.167544</ele>
        <time>2020-06-22T10:09:36.316Z</time>
      </trkpt>
      <trkpt lat="50.50513" lon="3.45201">
        <ele>16.712854</ele>
        <time>2020-06-22T10:09:48.277Z</time>
      </trkpt>
      <trkpt lat="50.50531" lon="3.45152">
        <ele>16.495361</ele>
        <time>2020-06-22T10:09:53.760Z</time>
      </trkpt>
      <trkpt lat="50.50539" lon="3.45133">
        <ele>16.406441</ele>
        <time>2020-06-22T10:09:55.932Z</time>
      </trkpt>
      <trkpt lat="50.50551" lon="3.45111">
        <ele>16.296769</ele>
        <time>2020-06-22T10:09:58.858Z</time>
      </trkpt>
      <trkpt lat="50.50599" lon="3.45026">
        <ele>15.96462</ele>
        <time>2020-06-22T10:10:10.831Z</time>
      </trkpt>
      <trkpt lat="50.50652" lon="3.44916">
        <ele>15.835275</ele>
        <time>2020-06-22T10:10:26.246Z</time>
      </trkpt>
      <trkpt lat="50.50661" lon="3.44894">
        <ele>15.811114</ele>
        <time>2020-06-22T10:10:28.964Z</time>
      </trkpt>
      <trkpt lat="50.50673" lon="3.44871">
        <ele>15.7828</ele>
        <time>2020-06-22T10:10:32.445Z</time>
      </trkpt>
      <trkpt lat="50.50707" lon="3.44823">
        <ele>15.72515</ele>
        <time>2020-06-22T10:10:40.217Z</time>
      </trkpt>
      <trkpt lat="50.51095" lon="3.44486">
        <ele>15.522562</ele>
        <time>2020-06-22T10:11:57.509Z</time>
      </trkpt>
      <trkpt lat="50.51116" lon="3.44468">
        <ele>15.537232</ele>
        <time>2020-06-22T10:12:02.082Z</time>
      </trkpt>
      <trkpt lat="50.51187" lon="3.44406">
        <ele>15.654022</ele>
        <time>2020-06-22T10:12:17.241Z</time>
      </trkpt>
      <trkpt lat="50.5119" lon="3.44403">
        <ele>15.670799</ele>
        <time>2020-06-22T10:12:18.193Z</time>
      </trkpt>
      <trkpt lat="50.51322" lon="3.4435">
        <ele>16.193824</ele>
        <time>2020-06-22T10:12:45.066Z</time>
      </trkpt>
      <trkpt lat="50.5134" lon="3.44349">
        <ele>16.265723</ele>
        <time>2020-06-22T10:12:48.901Z</time>
      </trkpt>
      <trkpt lat="50.51346" lon="3.4435">
        <ele>16.278364</ele>
        <time>2020-06-22T10:12:50.036Z</time>
      </trkpt>
      <trkpt lat="50.5139" lon="3.44363">
        <ele>16.367045</ele>
        <time>2020-06-22T10:12:58.781Z</time>
      </trkpt>
      <trkpt lat="50.51573" lon="3.44428">
        <ele>16.469385</ele>
        <time>2020-06-22T10:13:33.397Z</time>
      </trkpt>
      <trkpt lat="50.51599" lon="3.44445">
        <ele>16.39402</ele>
        <time>2020-06-22T10:13:37.937Z</time>
      </trkpt>
      <trkpt lat="50.51714" lon="3.44519">
        <ele>16.059312</ele>
        <time>2020-06-22T10:13:57.707Z</time>
      </trkpt>
      <trkpt lat="50.51727" lon="3.44527">
        <ele>16.022848</ele>
        <time>2020-06-22T10:13:59.797Z</time>
      </trkpt>
      <trkpt lat="50.51818" lon="3.44585">
        <ele>15.757364</ele>
        <time>2020-06-22T10:14:15.901Z</time>
      </trkpt>
      <trkpt lat="50.51845" lon="3.44602">
        <ele>15.680165</ele>
        <time>2020-06-22T10:14:21.089Z</time>
      </trkpt>
      <trkpt lat="50.5192" lon="3.44671">
        <ele>15.952755</ele>
        <time>2020-06-22T10:14:37.624Z</time>
      </trkpt>
      <trkpt lat="50.51925" lon="3.44675">
        <ele>15.974707</ele>
        <time>2020-06-22T10:14:38.839Z</time>
      </trkpt>
      <trkpt lat="50.51933" lon="3.44684">
        <ele>16.013394</ele>
        <time>2020-06-22T10:14:41.231Z</time>
      </trkpt>
      <trkpt lat="50.51953" lon="3.44702">
        <ele>16.098673</ele>
        <time>2020-06-22T10:14:45.486Z</time>
      </trkpt>
      <trkpt lat="50.51991" lon="3.44724">
        <ele>16.253715</ele>
        <time>2020-06-22T10:14:53.817Z</time>
      </trkpt>
      <trkpt lat="50.52029" lon="3.44725">
        <ele>16.377871</ele>
        <time>2020-06-22T10:15:01.519Z</time>
      </trkpt>
      <trkpt lat="50.52034" lon="3.44722">
        <ele>16.390232</ele>
        <time>2020-06-22T10:15:02.771Z</time>
      </trkpt>
      <trkpt lat="50.52072" lon="3.44707">
        <ele>16.488408</ele>
        <time>2020-06-22T10:15:10.696Z</time>
      </trkpt>
      <trkpt lat="50.52089" lon="3.44693">
        <ele>16.537792</ele>
        <time>2020-06-22T10:15:14.355Z</time>
      </trkpt>
      <trkpt lat="50.52092" lon="3.44691">
        <ele>16.544471</ele>
        <time>2020-06-22T10:15:14.857Z</time>
      </trkpt>
      <trkpt lat="50.52105" lon="3.44679">
        <ele>16.582242</ele>
        <time>2020-06-22T10:15:17.828Z</time>
      </trkpt>
      <trkpt lat="50.52116" lon="3.44669">
        <ele>16.615554</ele>
        <time>2020-06-22T10:15:20.265Z</time>
      </trkpt>
      <trkpt lat="50.52143" lon="3.44666">
        <ele>16.682201</ele>
        <time>2020-06-22T10:15:25.273Z</time>
      </trkpt>
      <trkpt lat="50.52154" lon="3.44675">
        <ele>16.71409</ele>
        <time>2020-06-22T10:15:27.510Z</time>
      </trkpt>
      <trkpt lat="50.52189" lon="3.44712">
        <ele>16.778712</ele>
        <time>2020-06-22T10:15:34.917Z</time>
      </trkpt>
      <trkpt lat="50.52222" lon="3.44745">
        <ele>16.740785</ele>
        <time>2020-06-22T10:15:41.619Z</time>
      </trkpt>
      <trkpt lat="50.52251" lon="3.448">
        <ele>16.697085</ele>
        <time>2020-06-22T10:15:49.434Z</time>
      </trkpt>
      <trkpt lat="50.52281" lon="3.44844">
        <ele>16.657358</ele>
        <time>2020-06-22T10:15:56.524Z</time>
      </trkpt>
      <trkpt lat="50.52311" lon="3.44887">
        <ele>16.618764</ele>
        <time>2020-06-22T10:16:03.533Z</time>
      </trkpt>
      <trkpt lat="50.52348" lon="3.44962">
        <ele>16.694529</ele>
        <time>2020-06-22T10:16:14.399Z</time>
      </trkpt>
      <trkpt lat="50.52354" lon="3.44967">
        <ele>16.704185</ele>
        <time>2020-06-22T10:16:15.697Z</time>
      </trkpt>
      <trkpt lat="50.52364" lon="3.44971">
        <ele>16.71755</ele>
        <time>2020-06-22T10:16:17.583Z</time>
      </trkpt>
      <trkpt lat="50.52397" lon="3.4497">
        <ele>16.761387</ele>
        <time>2020-06-22T10:16:23.870Z</time>
      </trkpt>
      <trkpt lat="50.52465" lon="3.44966">
        <ele>16.851228</ele>
        <time>2020-06-22T10:16:36.604Z</time>
      </trkpt>
      <trkpt lat="50.52496" lon="3.44968">
        <ele>16.89853</ele>
        <time>2020-06-22T10:16:42.496Z</time>
      </trkpt>
      <trkpt lat="50.52556" lon="3.44992">
        <ele>16.992531</ele>
        <time>2020-06-22T10:16:54.014Z</time>
      </trkpt>
      <trkpt lat="50.52569" lon="3.45007">
        <ele>17.017964</ele>
        <time>2020-06-22T10:16:56.885Z</time>
      </trkpt>
      <trkpt lat="50.52594" lon="3.45088">
        <ele>17.104988</ele>
        <time>2020-06-22T10:17:07.323Z</time>
      </trkpt>
      <trkpt lat="50.52608" lon="3.45115">
        <ele>17.155616</ele>
        <time>2020-06-22T10:17:11.203Z</time>
      </trkpt>
      <trkpt lat="50.52695" lon="3.45217">
        <ele>17.688664</ele>
        <time>2020-06-22T10:17:32.215Z</time>
      </trkpt>
      <trkpt lat="50.52698" lon="3.45225">
        <ele>17.720089</ele>
        <time>2020-06-22T10:17:33.617Z</time>
      </trkpt>
      <trkpt lat="50.52707" lon="3.45261">
        <ele>17.839867</ele>
        <time>2020-06-22T10:17:38.722Z</time>
      </trkpt>
      <trkpt lat="50.52719" lon="3.45338">
        <ele>18.142656</ele>
        <time>2020-06-22T10:17:49.743Z</time>
      </trkpt>
      <trkpt lat="50.52726" lon="3.45386">
        <ele>18.417218</ele>
        <time>2020-06-22T10:17:56.761Z</time>
      </trkpt>
      <trkpt lat="50.52741" lon="3.45438">
        <ele>18.735278</ele>
        <time>2020-06-22T10:18:05.065Z</time>
      </trkpt>
      <trkpt lat="50.52758" lon="3.45546">
        <ele>19.352949</ele>
        <time>2020-06-22T10:18:20.881Z</time>
      </trkpt>
      <trkpt lat="50.52769" lon="3.45601">
        <ele>19.653747</ele>
        <time>2020-06-22T10:18:28.716Z</time>
      </trkpt>
      <trkpt lat="50.52802" lon="3.4571">
        <ele>20.190473</ele>
        <time>2020-06-22T10:18:44.975Z</time>
      </trkpt>
      <trkpt lat="50.52899" lon="3.46191">
        <ele>22.666088</ele>
        <time>2020-06-22T10:19:52.452Z</time>
      </trkpt>
      <trkpt lat="50.52939" lon="3.46351">
        <ele>23.955198</ele>
        <time>2020-06-22T10:20:19.275Z</time>
      </trkpt>
      <trkpt lat="50.52951" lon="3.46484">
        <ele>25.071546</ele>
        <time>2020-06-22T10:20:40.436Z</time>
      </trkpt>
      <trkpt lat="50.53003" lon="3.46805">
        <ele>27.610887</ele>
        <time>2020-06-22T10:21:31.398Z</time>
      </trkpt>
      <trkpt lat="50.53008" lon="3.46817">
        <ele>27.701816</ele>
        <time>2020-06-22T10:21:33.445Z</time>
      </trkpt>
      <trkpt lat="50.53012" lon="3.46822">
        <ele>27.749967</ele>
        <time>2020-06-22T10:21:34.595Z</time>
      </trkpt>
      <trkpt lat="50.53018" lon="3.46828">
        <ele>27.828455</ele>
        <time>2020-06-22T10:21:36.377Z</time>
      </trkpt>
      <trkpt lat="50.53025" lon="3.46829">
        <ele>27.898319</ele>
        <time>2020-06-22T10:21:38.493Z</time>
      </trkpt>
      <trkpt lat="50.53175" lon="3.46773">
        <ele>27.957018</ele>
        <time>2020-06-22T10:22:08.478Z</time>
      </trkpt>
      <trkpt lat="50.53195" lon="3.46763">
        <ele>27.841643</ele>
        <time>2020-06-22T10:22:11.959Z</time>
      </trkpt>
      <trkpt lat="50.532" lon="3.46759">
        <ele>27.811426</ele>
        <time>2020-06-22T10:22:12.565Z</time>
      </trkpt>
      <trkpt lat="50.53267" lon="3.46704">
        <ele>27.23563</ele>
        <time>2020-06-22T10:22:22.755Z</time>
      </trkpt>
      <trkpt lat="50.53356" lon="3.46634">
        <ele>25.817344</ele>
        <time>2020-06-22T10:22:36.048Z</time>
      </trkpt>
      <trkpt lat="50.5341" lon="3.46593">
        <ele>24.966464</ele>
        <time>2020-06-22T10:22:44.824Z</time>
      </trkpt>
      <trkpt lat="50.53601" lon="3.4645">
        <ele>24.308715</ele>
        <time>2020-06-22T10:23:22.544Z</time>
      </trkpt>
      <trkpt lat="50.53712" lon="3.46368">
        <ele>23.125649</ele>
        <time>2020-06-22T10:23:40.456Z</time>
      </trkpt>
      <trkpt lat="50.53812" lon="3.46292">
        <ele>21.712525</ele>
        <time>2020-06-22T10:23:55.482Z</time>
      </trkpt>
      <trkpt lat="50.53844" lon="3.46263">
        <ele>21.215231</ele>
        <time>2020-06-22T10:24:00.526Z</time>
      </trkpt>
      <trkpt lat="50.53856" lon="3.46244">
        <ele>20.977672</ele>
        <time>2020-06-22T10:24:03.026Z</time>
      </trkpt>
      <trkpt lat="50.53878" lon="3.46181">
        <ele>20.388879</ele>
        <time>2020-06-22T10:24:09.587Z</time>
      </trkpt>
      <trkpt lat="50.5388" lon="3.46164">
        <ele>20.347085</ele>
        <time>2020-06-22T10:24:11.194Z</time>
      </trkpt>
      <trkpt lat="50.53949" lon="3.45679">
        <ele>19.382234</ele>
        <time>2020-06-22T10:25:04.692Z</time>
      </trkpt>
      <trkpt lat="50.54021" lon="3.45177">
        <ele>18.521819</ele>
        <time>2020-06-22T10:25:59.236Z</time>
      </trkpt>
      <trkpt lat="50.5404" lon="3.45071">
        <ele>18.339237</ele>
        <time>2020-06-22T10:26:10.826Z</time>
      </trkpt>
      <trkpt lat="50.54079" lon="3.44862">
        <ele>17.927721</ele>
        <time>2020-06-22T10:26:35.077Z</time>
      </trkpt>
      <trkpt lat="50.54083" lon="3.44841">
        <ele>17.88626</ele>
        <time>2020-06-22T10:26:37.143Z</time>
      </trkpt>
      <trkpt lat="50.54086" lon="3.44827">
        <ele>17.857696</ele>
        <time>2020-06-22T10:26:38.579Z</time>
      </trkpt>
      <trkpt lat="50.54086" lon="3.44823">
        <ele>17.850293</ele>
        <time>2020-06-22T10:26:39.165Z</time>
      </trkpt>
      <trkpt lat="50.5411" lon="3.4468">
        <ele>17.279479</ele>
        <time>2020-06-22T10:26:52.951Z</time>
      </trkpt>
      <trkpt lat="50.54123" lon="3.44691">
        <ele>17.185167</ele>
        <time>2020-06-22T10:26:55.305Z</time>
      </trkpt>
      <trkpt lat="50.54138" lon="3.44698">
        <ele>17.087762</ele>
        <time>2020-06-22T10:26:57.692Z</time>
      </trkpt>
      <trkpt lat="50.54141" lon="3.447">
        <ele>17.066646</ele>
        <time>2020-06-22T10:26:58.129Z</time>
      </trkpt>
      <trkpt lat="50.5416" lon="3.44707">
        <ele>16.941078</ele>
        <time>2020-06-22T10:27:01.560Z</time>
      </trkpt>
      <trkpt lat="50.5417" lon="3.44711">
        <ele>16.877827</ele>
        <time>2020-06-22T10:27:03.181Z</time>
      </trkpt>
      <trkpt lat="50.54179" lon="3.44715">
        <ele>16.817154</ele>
        <time>2020-06-22T10:27:04.649Z</time>
      </trkpt>
      <trkpt lat="50.54192" lon="3.4472">
        <ele>16.731244</ele>
        <time>2020-06-22T10:27:06.953Z</time>
      </trkpt>
      <trkpt lat="50.54222" lon="3.44731">
        <ele>16.751207</ele>
        <time>2020-06-22T10:27:12.014Z</time>
      </trkpt>
      <trkpt lat="50.54249" lon="3.44741">
        <ele>16.842275</ele>
        <time>2020-06-22T10:27:16.497Z</time>
      </trkpt>
      <trkpt lat="50.54262" lon="3.44741">
        <ele>16.885177</ele>
        <time>2020-06-22T10:27:18.691Z</time>
      </trkpt>
      <trkpt lat="50.5428" lon="3.44728">
        <ele>16.951581</ele>
        <time>2020-06-22T10:27:21.875Z</time>
      </trkpt>
      <trkpt lat="50.54288" lon="3.44721">
        <ele>16.98173</ele>
        <time>2020-06-22T10:27:23.799Z</time>
      </trkpt>
      <trkpt lat="50.54333" lon="3.44658">
        <ele>17.179158</ele>
        <time>2020-06-22T10:27:36.916Z</time>
      </trkpt>
      <trkpt lat="50.54389" lon="3.44586">
        <ele>17.573861</ele>
        <time>2020-06-22T10:27:53.946Z</time>
      </trkpt>
      <trkpt lat="50.54403" lon="3.4458">
        <ele>17.668021</ele>
        <time>2020-06-22T10:27:57.343Z</time>
      </trkpt>
      <trkpt lat="50.54414" lon="3.4458">
        <ele>17.740606</ele>
        <time>2020-06-22T10:27:59.650Z</time>
      </trkpt>
      <trkpt lat="50.54423" lon="3.4458">
        <ele>17.799801</ele>
        <time>2020-06-22T10:28:01.483Z</time>
      </trkpt>
      <trkpt lat="50.54433" lon="3.44583">
        <ele>17.867658</ele>
        <time>2020-06-22T10:28:03.644Z</time>
      </trkpt>
      <trkpt lat="50.54444" lon="3.44586">
        <ele>17.949347</ele>
        <time>2020-06-22T10:28:06.216Z</time>
      </trkpt>
      <trkpt lat="50.54443" lon="3.44602">
        <ele>18.018152</ele>
        <time>2020-06-22T10:28:08.941Z</time>
      </trkpt>
      <trkpt lat="50.54438" lon="3.44687">
        <ele>18.379613</ele>
        <time>2020-06-22T10:28:23.048Z</time>
      </trkpt>
      <trkpt lat="50.54433" lon="3.44779">
        <ele>18.53081</ele>
        <time>2020-06-22T10:28:37.828Z</time>
      </trkpt>
      <trkpt lat="50.54443" lon="3.44924">
        <ele>18.640832</ele>
        <time>2020-06-22T10:28:59.949Z</time>
      </trkpt>
      <trkpt lat="50.54452" lon="3.44978">
        <ele>18.682238</ele>
        <time>2020-06-22T10:29:08.532Z</time>
      </trkpt>
      <trkpt lat="50.54568" lon="3.45465">
        <ele>20.90337</ele>
        <time>2020-06-22T10:30:39.997Z</time>
      </trkpt>
      <trkpt lat="50.54574" lon="3.45481">
        <ele>20.991257</ele>
        <time>2020-06-22T10:30:43.450Z</time>
      </trkpt>
      <trkpt lat="50.5458" lon="3.45499">
        <ele>21.093454</ele>
        <time>2020-06-22T10:30:47.379Z</time>
      </trkpt>
      <trkpt lat="50.54669" lon="3.45863">
        <ele>22.939771</ele>
        <time>2020-06-22T10:31:57.547Z</time>
      </trkpt>
      <trkpt lat="50.54755" lon="3.46215">
        <ele>23.326209</ele>
        <time>2020-06-22T10:32:58.449Z</time>
      </trkpt>
      <trkpt lat="50.54762" lon="3.4624">
        <ele>23.306286</ele>
        <time>2020-06-22T10:33:02.189Z</time>
      </trkpt>
      <trkpt lat="50.54767" lon="3.46264">
        <ele>23.287358</ele>
        <time>2020-06-22T10:33:06.096Z</time>
      </trkpt>
      <trkpt lat="50.54814" lon="3.46462">
        <ele>22.790731</ele>
        <time>2020-06-22T10:33:34.605Z</time>
      </trkpt>
      <trkpt lat="50.5482" lon="3.46483">
        <ele>22.725813</ele>
        <time>2020-06-22T10:33:37.868Z</time>
      </trkpt>
      <trkpt lat="50.54832" lon="3.46526">
        <ele>22.591129</ele>
        <time>2020-06-22T10:33:44.828Z</time>
      </trkpt>
      <trkpt lat="50.5492" lon="3.46884">
        <ele>23.081373</ele>
        <time>2020-06-22T10:34:47.793Z</time>
      </trkpt>
      <trkpt lat="50.54994" lon="3.47188">
        <ele>24.020618</ele>
        <time>2020-06-22T10:35:43.179Z</time>
      </trkpt>
      <trkpt lat="50.55009" lon="3.47249">
        <ele>24.190298</ele>
        <time>2020-06-22T10:35:53.810Z</time>
      </trkpt>
      <trkpt lat="50.55022" lon="3.47297">
        <ele>24.324904</ele>
        <time>2020-06-22T10:36:02.265Z</time>
      </trkpt>
      <trkpt lat="50.55199" lon="3.4802">
        <ele>26.636103</ele>
        <time>2020-06-22T10:38:12.700Z</time>
      </trkpt>
      <trkpt lat="50.55201" lon="3.48028">
        <ele>26.667999</ele>
        <time>2020-06-22T10:38:14.260Z</time>
      </trkpt>
      <trkpt lat="50.55205" lon="3.4802">
        <ele>26.705241</ele>
        <time>2020-06-22T10:38:15.518Z</time>
      </trkpt>
      <trkpt lat="50.5521" lon="3.48008">
        <ele>26.759624</ele>
        <time>2020-06-22T10:38:17.355Z</time>
      </trkpt>
      <trkpt lat="50.55261" lon="3.47984">
        <ele>27.084761</ele>
        <time>2020-06-22T10:38:28.482Z</time>
      </trkpt>
      <trkpt lat="50.55426" lon="3.47881">
        <ele>28.766484</ele>
        <time>2020-06-22T10:39:07.847Z</time>
      </trkpt>
      <trkpt lat="50.5553" lon="3.47818">
        <ele>30.274128</ele>
        <time>2020-06-22T10:39:35.256Z</time>
      </trkpt>
      <trkpt lat="50.55556" lon="3.47802">
        <ele>30.670057</ele>
        <time>2020-06-22T10:39:42.403Z</time>
      </trkpt>
      <trkpt lat="50.55584" lon="3.47785">
        <ele>31.115281</ele>
        <time>2020-06-22T10:39:50.332Z</time>
      </trkpt>
      <trkpt lat="50.55636" lon="3.47763">
        <ele>31.729836</ele>
        <time>2020-06-22T10:40:03.937Z</time>
      </trkpt>
      <trkpt lat="50.55658" lon="3.47761">
        <ele>31.884803</ele>
        <time>2020-06-22T10:40:09.461Z</time>
      </trkpt>
      <trkpt lat="50.55681" lon="3.4776">
        <ele>32.048021</ele>
        <time>2020-06-22T10:40:14.575Z</time>
      </trkpt>
      <trkpt lat="50.55701" lon="3.47748">
        <ele>32.203194</ele>
        <time>2020-06-22T10:40:19.135Z</time>
      </trkpt>
      <trkpt lat="50.55728" lon="3.47699">
        <ele>32.496466</ele>
        <time>2020-06-22T10:40:27.071Z</time>
      </trkpt>
      <trkpt lat="50.55744" lon="3.47681">
        <ele>32.635664</ele>
        <time>2020-06-22T10:40:30.697Z</time>
      </trkpt>
      <trkpt lat="50.55747" lon="3.47679">
        <ele>32.656487</ele>
        <time>2020-06-22T10:40:31.498Z</time>
      </trkpt>
      <trkpt lat="50.55752" lon="3.47676">
        <ele>32.699848</ele>
        <time>2020-06-22T10:40:32.539Z</time>
      </trkpt>
      <trkpt lat="50.55759" lon="3.47674">
        <ele>32.747575</ele>
        <time>2020-06-22T10:40:33.731Z</time>
      </trkpt>
      <trkpt lat="50.55776" lon="3.47674">
        <ele>32.857976</ele>
        <time>2020-06-22T10:40:36.875Z</time>
      </trkpt>
      <trkpt lat="50.55831" lon="3.47675">
        <ele>32.93614</ele>
        <time>2020-06-22T10:40:46.755Z</time>
      </trkpt>
      <trkpt lat="50.55848" lon="3.47676">
        <ele>32.96106</ele>
        <time>2020-06-22T10:40:49.703Z</time>
      </trkpt>
      <trkpt lat="50.55876" lon="3.47695">
        <ele>33.003991</ele>
        <time>2020-06-22T10:40:54.941Z</time>
      </trkpt>
      <trkpt lat="50.55915" lon="3.47765">
        <ele>33.088236</ele>
        <time>2020-06-22T10:41:05.254Z</time>
      </trkpt>
      <trkpt lat="50.56024" lon="3.47769">
        <ele>33.905393</ele>
        <time>2020-06-22T10:41:29.314Z</time>
      </trkpt>
      <trkpt lat="50.56079" lon="3.47789">
        <ele>34.386409</ele>
        <time>2020-06-22T10:41:42.033Z</time>
      </trkpt>
      <trkpt lat="50.56092" lon="3.47804">
        <ele>34.517658</ele>
        <time>2020-06-22T10:41:45.850Z</time>
      </trkpt>
      <trkpt lat="50.56104" lon="3.47783">
        <ele>34.667934</ele>
        <time>2020-06-22T10:41:49.682Z</time>
      </trkpt>
      <trkpt lat="50.56138" lon="3.47691">
        <ele>35.18576</ele>
        <time>2020-06-22T10:42:04.776Z</time>
      </trkpt>
      <trkpt lat="50.56142" lon="3.47684">
        <ele>35.231429</ele>
        <time>2020-06-22T10:42:06.006Z</time>
      </trkpt>
      <trkpt lat="50.5615" lon="3.4768">
        <ele>35.297013</ele>
        <time>2020-06-22T10:42:08.071Z</time>
      </trkpt>
      <trkpt lat="50.56158" lon="3.47679">
        <ele>35.352306</ele>
        <time>2020-06-22T10:42:09.742Z</time>
      </trkpt>
      <trkpt lat="50.56187" lon="3.47692">
        <ele>35.584109</ele>
        <time>2020-06-22T10:42:16.174Z</time>
      </trkpt>
      <trkpt lat="50.56193" lon="3.47696">
        <ele>35.639224</ele>
        <time>2020-06-22T10:42:17.785Z</time>
      </trkpt>
      <trkpt lat="50.5623" lon="3.47745">
        <ele>36.004586</ele>
        <time>2020-06-22T10:42:27.180Z</time>
      </trkpt>
      <trkpt lat="50.56236" lon="3.47754">
        <ele>36.064059</ele>
        <time>2020-06-22T10:42:28.982Z</time>
      </trkpt>
      <trkpt lat="50.5624" lon="3.47748">
        <ele>36.095097</ele>
        <time>2020-06-22T10:42:30.038Z</time>
      </trkpt>
      <trkpt lat="50.56298" lon="3.47689">
        <ele>36.522971</ele>
        <time>2020-06-22T10:42:44.108Z</time>
      </trkpt>
      <trkpt lat="50.56326" lon="3.47642">
        <ele>36.773114</ele>
        <time>2020-06-22T10:42:52.639Z</time>
      </trkpt>
      <trkpt lat="50.5639" lon="3.47615">
        <ele>37.217736</ele>
        <time>2020-06-22T10:43:06.660Z</time>
      </trkpt>
      <trkpt lat="50.56432" lon="3.47581">
        <ele>37.732677</ele>
        <time>2020-06-22T10:43:16.766Z</time>
      </trkpt>
      <trkpt lat="50.56483" lon="3.4754">
        <ele>38.358668</ele>
        <time>2020-06-22T10:43:29.907Z</time>
      </trkpt>
      <trkpt lat="50.56562" lon="3.47477">
        <ele>39.4069</ele>
        <time>2020-06-22T10:43:51.325Z</time>
      </trkpt>
      <trkpt lat="50.56576" lon="3.47466">
        <ele>39.657188</ele>
        <time>2020-06-22T10:43:55.954Z</time>
      </trkpt>
      <trkpt lat="50.56619" lon="3.47432">
        <ele>40.382829</ele>
        <time>2020-06-22T10:44:07.867Z</time>
      </trkpt>
      <trkpt lat="50.56634" lon="3.47422">
        <ele>40.642994</ele>
        <time>2020-06-22T10:44:12.059Z</time>
      </trkpt>
      <trkpt lat="50.56641" lon="3.47421">
        <ele>40.737636</ele>
        <time>2020-06-22T10:44:13.767Z</time>
      </trkpt>
      <trkpt lat="50.56648" lon="3.47418">
        <ele>40.848188</ele>
        <time>2020-06-22T10:44:15.658Z</time>
      </trkpt>
      <trkpt lat="50.56697" lon="3.47412">
        <ele>41.597604</ele>
        <time>2020-06-22T10:44:27.384Z</time>
      </trkpt>
      <trkpt lat="50.56701" lon="3.47411">
        <ele>41.665108</ele>
        <time>2020-06-22T10:44:28.703Z</time>
      </trkpt>
      <trkpt lat="50.56705" lon="3.47409">
        <ele>41.735589</ele>
        <time>2020-06-22T10:44:29.872Z</time>
      </trkpt>
      <trkpt lat="50.56717" lon="3.47403">
        <ele>41.912048</ele>
        <time>2020-06-22T10:44:33.118Z</time>
      </trkpt>
      <trkpt lat="50.56774" lon="3.47365">
        <ele>42.774869</ele>
        <time>2020-06-22T10:44:48.599Z</time>
      </trkpt>
      <trkpt lat="50.56807" lon="3.47489">
        <ele>43.959858</ele>
        <time>2020-06-22T10:45:09.638Z</time>
      </trkpt>
      <trkpt lat="50.56812" lon="3.47507">
        <ele>44.131595</ele>
        <time>2020-06-22T10:45:12.397Z</time>
      </trkpt>
      <trkpt lat="50.56815" lon="3.47518">
        <ele>44.243772</ele>
        <time>2020-06-22T10:45:14.088Z</time>
      </trkpt>
      <trkpt lat="50.5682" lon="3.47528">
        <ele>44.34896</ele>
        <time>2020-06-22T10:45:16.293Z</time>
      </trkpt>
      <trkpt lat="50.56838" lon="3.47544">
        <ele>44.544571</ele>
        <time>2020-06-22T10:45:20.904Z</time>
      </trkpt>
      <trkpt lat="50.56882" lon="3.47565">
        <ele>44.976665</ele>
        <time>2020-06-22T10:45:31.330Z</time>
      </trkpt>
      <trkpt lat="50.569" lon="3.47571">
        <ele>45.151233</ele>
        <time>2020-06-22T10:45:35.756Z</time>
      </trkpt>
      <trkpt lat="50.56943" lon="3.476">
        <ele>45.589562</ele>
        <time>2020-06-22T10:45:46.108Z</time>
      </trkpt>
      <trkpt lat="50.56963" lon="3.47614">
        <ele>45.795141</ele>
        <time>2020-06-22T10:45:51.213Z</time>
      </trkpt>
      <trkpt lat="50.57008" lon="3.47669">
        <ele>46.119627</ele>
        <time>2020-06-22T10:46:02.840Z</time>
      </trkpt>
      <trkpt lat="50.57079" lon="3.47757">
        <ele>46.371502</ele>
        <time>2020-06-22T10:46:19.891Z</time>
      </trkpt>
      <trkpt lat="50.57106" lon="3.47799">
        <ele>46.478845</ele>
        <time>2020-06-22T10:46:26.745Z</time>
      </trkpt>
      <trkpt lat="50.57133" lon="3.47873">
        <ele>46.693032</ele>
        <time>2020-06-22T10:46:36.290Z</time>
      </trkpt>
      <trkpt lat="50.57171" lon="3.48065">
        <ele>47.27299</ele>
        <time>2020-06-22T10:47:02.070Z</time>
      </trkpt>
      <trkpt lat="50.57175" lon="3.4809">
        <ele>47.34621</ele>
        <time>2020-06-22T10:47:05.307Z</time>
      </trkpt>
      <trkpt lat="50.57179" lon="3.48099">
        <ele>47.421517</ele>
        <time>2020-06-22T10:47:07.307Z</time>
      </trkpt>
      <trkpt lat="50.57191" lon="3.48156">
        <ele>47.84793</ele>
        <time>2020-06-22T10:47:16.006Z</time>
      </trkpt>
      <trkpt lat="50.57235" lon="3.48362">
        <ele>49.353516</ele>
        <time>2020-06-22T10:47:49.314Z</time>
      </trkpt>
      <trkpt lat="50.5724" lon="3.48391">
        <ele>49.423932</ele>
        <time>2020-06-22T10:47:53.548Z</time>
      </trkpt>
      <trkpt lat="50.57246" lon="3.48417">
        <ele>49.488091</ele>
        <time>2020-06-22T10:47:57.114Z</time>
      </trkpt>
      <trkpt lat="50.57252" lon="3.48448">
        <ele>49.564553</ele>
        <time>2020-06-22T10:48:01.469Z</time>
      </trkpt>
      <trkpt lat="50.57263" lon="3.48501">
        <ele>49.696112</ele>
        <time>2020-06-22T10:48:10.756Z</time>
      </trkpt>
      <trkpt lat="50.57284" lon="3.48598">
        <ele>49.934528</ele>
        <time>2020-06-22T10:48:22.468Z</time>
      </trkpt>
      <trkpt lat="50.57308" lon="3.48672">
        <ele>50.117991</ele>
        <time>2020-06-22T10:48:31.307Z</time>
      </trkpt>
      <trkpt lat="50.57351" lon="3.48791">
        <ele>50.406669</ele>
        <time>2020-06-22T10:48:46.685Z</time>
      </trkpt>
      <trkpt lat="50.57355" lon="3.4881">
        <ele>50.448695</ele>
        <time>2020-06-22T10:48:49.253Z</time>
      </trkpt>
      <trkpt lat="50.57356" lon="3.48827">
        <ele>50.485149</ele>
        <time>2020-06-22T10:48:51.511Z</time>
      </trkpt>
      <trkpt lat="50.57355" lon="3.4881">
        <ele>50.521604</ele>
        <time>2020-06-22T10:48:53.860Z</time>
      </trkpt>
      <trkpt lat="50.57338" lon="3.48512">
        <ele>53.202655</ele>
        <time>2020-06-22T10:49:41.757Z</time>
      </trkpt>
      <trkpt lat="50.57343" lon="3.48486">
        <ele>53.498225</ele>
        <time>2020-06-22T10:49:46.705Z</time>
      </trkpt>
      <trkpt lat="50.57368" lon="3.48467">
        <ele>54.114052</ele>
        <time>2020-06-22T10:49:54.646Z</time>
      </trkpt>
      <trkpt lat="50.57614" lon="3.48354">
        <ele>59.623716</ele>
        <time>2020-06-22T10:51:07.966Z</time>
      </trkpt>
      <trkpt lat="50.57828" lon="3.48274">
        <ele>63.435138</ele>
        <time>2020-06-22T10:52:06.780Z</time>
      </trkpt>
      <trkpt lat="50.57835" lon="3.48271">
        <ele>63.546033</ele>
        <time>2020-06-22T10:52:08.792Z</time>
      </trkpt>
      <trkpt lat="50.57854" lon="3.48264">
        <ele>63.83688</ele>
        <time>2020-06-22T10:52:12.609Z</time>
      </trkpt>
      <trkpt lat="50.57903" lon="3.48269">
        <ele>63.714095</ele>
        <time>2020-06-22T10:52:22.532Z</time>
      </trkpt>
      <trkpt lat="50.57955" lon="3.48264">
        <ele>63.458102</ele>
        <time>2020-06-22T10:52:31.364Z</time>
      </trkpt>
      <trkpt lat="50.58057" lon="3.48288">
        <ele>62.655848</ele>
        <time>2020-06-22T10:52:45.949Z</time>
      </trkpt>
      <trkpt lat="50.58217" lon="3.48384">
        <ele>59.141854</ele>
        <time>2020-06-22T10:53:08.191Z</time>
      </trkpt>
      <trkpt lat="50.5826" lon="3.484">
        <ele>58.148181</ele>
        <time>2020-06-22T10:53:13.808Z</time>
      </trkpt>
      <trkpt lat="50.5853" lon="3.48404">
        <ele>52.491121</ele>
        <time>2020-06-22T10:53:48.861Z</time>
      </trkpt>
      <trkpt lat="50.58543" lon="3.4841">
        <ele>52.238632</ele>
        <time>2020-06-22T10:53:50.678Z</time>
      </trkpt>
      <trkpt lat="50.5859" lon="3.48481">
        <ele>51.539359</ele>
        <time>2020-06-22T10:54:00.199Z</time>
      </trkpt>
      <trkpt lat="50.58625" lon="3.48547">
        <ele>51.193497</ele>
        <time>2020-06-22T10:54:08.753Z</time>
      </trkpt>
      <trkpt lat="50.58634" lon="3.48585">
        <ele>51.028159</ele>
        <time>2020-06-22T10:54:13.055Z</time>
      </trkpt>
      <trkpt lat="50.58649" lon="3.48728">
        <ele>50.455183</ele>
        <time>2020-06-22T10:54:28.594Z</time>
      </trkpt>
      <trkpt lat="50.58665" lon="3.48769">
        <ele>50.267701</ele>
        <time>2020-06-22T10:54:33.699Z</time>
      </trkpt>
      <trkpt lat="50.58682" lon="3.48786">
        <ele>50.146451</ele>
        <time>2020-06-22T10:54:36.950Z</time>
      </trkpt>
      <trkpt lat="50.5871" lon="3.48796">
        <ele>49.973254</ele>
        <time>2020-06-22T10:54:41.340Z</time>
      </trkpt>
      <trkpt lat="50.58803" lon="3.48807">
        <ele>49.216186</ele>
        <time>2020-06-22T10:54:55.114Z</time>
      </trkpt>
      <trkpt lat="50.58813" lon="3.48812">
        <ele>49.075585</ele>
        <time>2020-06-22T10:54:56.648Z</time>
      </trkpt>
      <trkpt lat="50.58835" lon="3.48839">
        <ele>48.71993</ele>
        <time>2020-06-22T10:55:00.591Z</time>
      </trkpt>
      <trkpt lat="50.58847" lon="3.48855">
        <ele>48.518363</ele>
        <time>2020-06-22T10:55:02.713Z</time>
      </trkpt>
      <trkpt lat="50.58859" lon="3.48834">
        <ele>48.287688</ele>
        <time>2020-06-22T10:55:06.362Z</time>
      </trkpt>
      <trkpt lat="50.58869" lon="3.48814">
        <ele>48.089734</ele>
        <time>2020-06-22T10:55:09.381Z</time>
      </trkpt>
      <trkpt lat="50.58876" lon="3.488">
        <ele>47.936718</ele>
        <time>2020-06-22T10:55:11.789Z</time>
      </trkpt>
      <trkpt lat="50.58898" lon="3.48765">
        <ele>47.538642</ele>
        <time>2020-06-22T10:55:18.026Z</time>
      </trkpt>
      <trkpt lat="50.5893" lon="3.4871">
        <ele>46.949103</ele>
        <time>2020-06-22T10:55:27.465Z</time>
      </trkpt>
      <trkpt lat="50.58945" lon="3.48719">
        <ele>46.751827</ele>
        <time>2020-06-22T10:55:30.636Z</time>
      </trkpt>
      <trkpt lat="50.58963" lon="3.48724">
        <ele>46.523672</ele>
        <time>2020-06-22T10:55:34.360Z</time>
      </trkpt>
      <trkpt lat="50.5898" lon="3.48729">
        <ele>46.312412</ele>
        <time>2020-06-22T10:55:37.883Z</time>
      </trkpt>
      <trkpt lat="50.59014" lon="3.48709">
        <ele>45.868059</ele>
        <time>2020-06-22T10:55:45.217Z</time>
      </trkpt>
      <trkpt lat="50.59022" lon="3.48704">
        <ele>45.775395</ele>
        <time>2020-06-22T10:55:46.730Z</time>
      </trkpt>
      <trkpt lat="50.59026" lon="3.48698">
        <ele>45.70684</ele>
        <time>2020-06-22T10:55:47.890Z</time>
      </trkpt>
      <trkpt lat="50.59035" lon="3.48686">
        <ele>45.563519</ele>
        <time>2020-06-22T10:55:50.291Z</time>
      </trkpt>
      <trkpt lat="50.59039" lon="3.48677">
        <ele>45.471118</ele>
        <time>2020-06-22T10:55:51.926Z</time>
      </trkpt>
      <trkpt lat="50.59042" lon="3.48665">
        <ele>45.377497</ele>
        <time>2020-06-22T10:55:53.423Z</time>
      </trkpt>
      <trkpt lat="50.59042" lon="3.48656">
        <ele>45.307109</ele>
        <time>2020-06-22T10:55:54.679Z</time>
      </trkpt>
      <trkpt lat="50.59042" lon="3.48628">
        <ele>45.08747</ele>
        <time>2020-06-22T10:55:58.483Z</time>
      </trkpt>
      <trkpt lat="50.59039" lon="3.48507">
        <ele>44.463273</ele>
        <time>2020-06-22T10:56:15.293Z</time>
      </trkpt>
      <trkpt lat="50.59042" lon="3.48498">
        <ele>44.408758</ele>
        <time>2020-06-22T10:56:16.620Z</time>
      </trkpt>
      <trkpt lat="50.59071" lon="3.48457">
        <ele>44.091473</ele>
        <time>2020-06-22T10:56:25.088Z</time>
      </trkpt>
      <trkpt lat="50.59089" lon="3.4842">
        <ele>43.847306</ele>
        <time>2020-06-22T10:56:31.527Z</time>
      </trkpt>
      <trkpt lat="50.59102" lon="3.48367">
        <ele>43.505691</ele>
        <time>2020-06-22T10:56:39.216Z</time>
      </trkpt>
      <trkpt lat="50.5911" lon="3.48351">
        <ele>43.316564</ele>
        <time>2020-06-22T10:56:41.827Z</time>
      </trkpt>
      <trkpt lat="50.59122" lon="3.48337">
        <ele>43.082527</ele>
        <time>2020-06-22T10:56:45.192Z</time>
      </trkpt>
      <trkpt lat="50.5914" lon="3.48328">
        <ele>42.799226</ele>
        <time>2020-06-22T10:56:48.910Z</time>
      </trkpt>
      <trkpt lat="50.59243" lon="3.48273">
        <ele>41.164248</ele>
        <time>2020-06-22T10:57:10.109Z</time>
      </trkpt>
      <trkpt lat="50.59287" lon="3.48208">
        <ele>40.399634</ele>
        <time>2020-06-22T10:57:21.097Z</time>
      </trkpt>
      <trkpt lat="50.59332" lon="3.48142">
        <ele>39.662475</ele>
        <time>2020-06-22T10:57:33.507Z</time>
      </trkpt>
      <trkpt lat="50.59369" lon="3.48082">
        <ele>39.030026</ele>
        <time>2020-06-22T10:57:44.836Z</time>
      </trkpt>
      <trkpt lat="50.59314" lon="3.48023">
        <ele>38.96306</ele>
        <time>2020-06-22T10:58:00.509Z</time>
      </trkpt>
      <trkpt lat="50.59304" lon="3.48014">
        <ele>39.016255</ele>
        <time>2020-06-22T10:58:04.033Z</time>
      </trkpt>
      <trkpt lat="50.59293" lon="3.48005">
        <ele>39.072478</ele>
        <time>2020-06-22T10:58:07.187Z</time>
      </trkpt>
      <trkpt lat="50.59219" lon="3.47937">
        <ele>39.451758</ele>
        <time>2020-06-22T10:58:31.367Z</time>
      </trkpt>
      <trkpt lat="50.59216" lon="3.4792">
        <ele>39.502003</ele>
        <time>2020-06-22T10:58:35.063Z</time>
      </trkpt>
      <trkpt lat="50.59222" lon="3.47886">
        <ele>39.592377</ele>
        <time>2020-06-22T10:58:41.085Z</time>
      </trkpt>
      <trkpt lat="50.59244" lon="3.47797">
        <ele>39.789141</ele>
        <time>2020-06-22T10:58:57.157Z</time>
      </trkpt>
      <trkpt lat="50.59268" lon="3.47728">
        <ele>39.950268</ele>
        <time>2020-06-22T10:59:09.294Z</time>
      </trkpt>
      <trkpt lat="50.59314" lon="3.47621">
        <ele>40.193271</ele>
        <time>2020-06-22T10:59:29.965Z</time>
      </trkpt>
      <trkpt lat="50.59327" lon="3.47572">
        <ele>40.264478</ele>
        <time>2020-06-22T10:59:38.642Z</time>
      </trkpt>
      <trkpt lat="50.59329" lon="3.47563">
        <ele>40.27769</ele>
        <time>2020-06-22T10:59:40.083Z</time>
      </trkpt>
      <trkpt lat="50.59341" lon="3.47519">
        <ele>40.341571</ele>
        <time>2020-06-22T10:59:47.957Z</time>
      </trkpt>
      <trkpt lat="50.59349" lon="3.47485">
        <ele>40.390422</ele>
        <time>2020-06-22T10:59:53.557Z</time>
      </trkpt>
      <trkpt lat="50.59356" lon="3.47475">
        <ele>40.410918</ele>
        <time>2020-06-22T10:59:56.375Z</time>
      </trkpt>
      <trkpt lat="50.59371" lon="3.47448">
        <ele>40.458281</ele>
        <time>2020-06-22T11:00:01.784Z</time>
      </trkpt>
      <trkpt lat="50.59381" lon="3.47432">
        <ele>40.488588</ele>
        <time>2020-06-22T11:00:05.777Z</time>
      </trkpt>
      <trkpt lat="50.59415" lon="3.47402">
        <ele>40.529532</ele>
        <time>2020-06-22T11:00:15.650Z</time>
      </trkpt>
      <trkpt lat="50.59515" lon="3.47314">
        <ele>40.527288</ele>
        <time>2020-06-22T11:00:44.371Z</time>
      </trkpt>
      <trkpt lat="50.59579" lon="3.47278">
        <ele>40.330503</ele>
        <time>2020-06-22T11:00:59.693Z</time>
      </trkpt>
      <trkpt lat="50.59579" lon="3.47291">
        <ele>40.255016</ele>
        <time>2020-06-22T11:01:01.108Z</time>
      </trkpt>
      <trkpt lat="50.59595" lon="3.47275">
        <ele>40.092585</ele>
        <time>2020-06-22T11:01:05.059Z</time>
      </trkpt>
      <trkpt lat="50.59637" lon="3.47245">
        <ele>39.691541</ele>
        <time>2020-06-22T11:01:14.801Z</time>
      </trkpt>
      <trkpt lat="50.59656" lon="3.47237">
        <ele>39.515181</ele>
        <time>2020-06-22T11:01:18.944Z</time>
      </trkpt>
      <trkpt lat="50.59662" lon="3.47236">
        <ele>39.458891</ele>
        <time>2020-06-22T11:01:20.296Z</time>
      </trkpt>
      <trkpt lat="50.59674" lon="3.47241">
        <ele>39.352313</ele>
        <time>2020-06-22T11:01:22.850Z</time>
      </trkpt>
      <trkpt lat="50.59694" lon="3.47157">
        <ele>38.771033</ele>
        <time>2020-06-22T11:01:34.554Z</time>
      </trkpt>
      <trkpt lat="50.59691" lon="3.47138">
        <ele>38.566548</ele>
        <time>2020-06-22T11:01:37.202Z</time>
      </trkpt>
      <trkpt lat="50.59693" lon="3.47125">
        <ele>38.436978</ele>
        <time>2020-06-22T11:01:38.828Z</time>
      </trkpt>
      <trkpt lat="50.5971" lon="3.47089">
        <ele>37.97601</ele>
        <time>2020-06-22T11:01:44.702Z</time>
      </trkpt>
      <trkpt lat="50.59713" lon="3.4708">
        <ele>37.880305</ele>
        <time>2020-06-22T11:01:45.897Z</time>
      </trkpt>
      <trkpt lat="50.59734" lon="3.46984">
        <ele>36.861329</ele>
        <time>2020-06-22T11:01:58.553Z</time>
      </trkpt>
      <trkpt lat="50.59748" lon="3.46916">
        <ele>36.13369</ele>
        <time>2020-06-22T11:02:07.328Z</time>
      </trkpt>
      <trkpt lat="50.59802" lon="3.4695">
        <ele>34.860714</ele>
        <time>2020-06-22T11:02:14.845Z</time>
      </trkpt>
      <trkpt lat="50.59859" lon="3.46986">
        <ele>33.499989</ele>
        <time>2020-06-22T11:02:22.662Z</time>
      </trkpt>
      <trkpt lat="50.59862" lon="3.46989">
        <ele>33.411555</ele>
        <time>2020-06-22T11:02:23.179Z</time>
      </trkpt>
      <trkpt lat="50.59938" lon="3.47033">
        <ele>31.67323</ele>
        <time>2020-06-22T11:02:33.587Z</time>
      </trkpt>
      <trkpt lat="50.59959" lon="3.47034">
        <ele>31.270808</ele>
        <time>2020-06-22T11:02:36.240Z</time>
      </trkpt>
      <trkpt lat="50.60084" lon="3.46996">
        <ele>28.761224</ele>
        <time>2020-06-22T11:02:53.280Z</time>
      </trkpt>
      <trkpt lat="50.60107" lon="3.47009">
        <ele>28.16892</ele>
        <time>2020-06-22T11:02:56.541Z</time>
      </trkpt>
      <trkpt lat="50.60118" lon="3.47021">
        <ele>27.796195</ele>
        <time>2020-06-22T11:02:58.365Z</time>
      </trkpt>
      <trkpt lat="50.60172" lon="3.47099">
        <ele>25.732024</ele>
        <time>2020-06-22T11:03:08.256Z</time>
      </trkpt>
      <trkpt lat="50.60256" lon="3.47185">
        <ele>22.566465</ele>
        <time>2020-06-22T11:03:19.964Z</time>
      </trkpt>
      <trkpt lat="50.60298" lon="3.47212">
        <ele>20.576951</ele>
        <time>2020-06-22T11:03:25.361Z</time>
      </trkpt>
      <trkpt lat="50.60304" lon="3.47216">
        <ele>20.277751</ele>
        <time>2020-06-22T11:03:26.111Z</time>
      </trkpt>
      <trkpt lat="50.6031" lon="3.47219">
        <ele>19.998811</ele>
        <time>2020-06-22T11:03:26.783Z</time>
      </trkpt>
      <trkpt lat="50.60354" lon="3.47232">
        <ele>18.058118</ele>
        <time>2020-06-22T11:03:32.067Z</time>
      </trkpt>
      <trkpt lat="50.60385" lon="3.47232">
        <ele>16.688848</ele>
        <time>2020-06-22T11:03:35.632Z</time>
      </trkpt>
      <trkpt lat="50.60496" lon="3.47205">
        <ele>11.950152</ele>
        <time>2020-06-22T11:03:48.451Z</time>
      </trkpt>
      <trkpt lat="50.60516" lon="3.47202">
        <ele>11.117436</ele>
        <time>2020-06-22T11:03:50.976Z</time>
      </trkpt>
      <trkpt lat="50.60535" lon="3.47205">
        <ele>10.335028</ele>
        <time>2020-06-22T11:03:53.089Z</time>
      </trkpt>
      <trkpt lat="50.60613" lon="3.47237">
        <ele>7.516038</ele>
        <time>2020-06-22T11:04:02.588Z</time>
      </trkpt>
      <trkpt lat="50.60758" lon="3.47353">
        <ele>4.31991</ele>
        <time>2020-06-22T11:04:23.435Z</time>
      </trkpt>
      <trkpt lat="50.60973" lon="3.47511">
        <ele>11.80843</ele>
        <time>2020-06-22T11:05:37.957Z</time>
      </trkpt>
      <trkpt lat="50.6098" lon="3.47517">
        <ele>12.29056</ele>
        <time>2020-06-22T11:05:42.291Z</time>
      </trkpt>
      <trkpt lat="50.61076" lon="3.47588">
        <ele>18.574571</ele>
        <time>2020-06-22T11:06:40.674Z</time>
      </trkpt>
      <trkpt lat="50.61119" lon="3.47603">
        <ele>21.32582</ele>
        <time>2020-06-22T11:07:06.080Z</time>
      </trkpt>
      <trkpt lat="50.61163" lon="3.47606">
        <ele>24.114642</ele>
        <time>2020-06-22T11:07:30.127Z</time>
      </trkpt>
      <trkpt lat="50.61212" lon="3.47601">
        <ele>27.177572</ele>
        <time>2020-06-22T11:07:52.936Z</time>
      </trkpt>
      <trkpt lat="50.6125" lon="3.47598">
        <ele>29.577493</ele>
        <time>2020-06-22T11:08:07.549Z</time>
      </trkpt>
      <trkpt lat="50.61314" lon="3.47606">
        <ele>30.774437</ele>
        <time>2020-06-22T11:08:27.947Z</time>
      </trkpt>
      <trkpt lat="50.61372" lon="3.47635">
        <ele>31.789779</ele>
        <time>2020-06-22T11:08:42.508Z</time>
      </trkpt>
      <trkpt lat="50.61462" lon="3.47684">
        <ele>32.627531</ele>
        <time>2020-06-22T11:08:59.801Z</time>
      </trkpt>
      <trkpt lat="50.61466" lon="3.47636">
        <ele>32.524411</ele>
        <time>2020-06-22T11:09:05.112Z</time>
      </trkpt>
      <trkpt lat="50.6152" lon="3.47351">
        <ele>31.45706</ele>
        <time>2020-06-22T11:09:34.794Z</time>
      </trkpt>
      <trkpt lat="50.6152" lon="3.4732">
        <ele>31.283032</ele>
        <time>2020-06-22T11:09:37.739Z</time>
      </trkpt>
      <trkpt lat="50.6153" lon="3.47319">
        <ele>31.195448</ele>
        <time>2020-06-22T11:09:39.101Z</time>
      </trkpt>
      <trkpt lat="50.61572" lon="3.47335">
        <ele>30.811938</ele>
        <time>2020-06-22T11:09:45.404Z</time>
      </trkpt>
      <trkpt lat="50.61588" lon="3.47334">
        <ele>30.669062</ele>
        <time>2020-06-22T11:09:47.752Z</time>
      </trkpt>
      <trkpt lat="50.61605" lon="3.47324">
        <ele>30.492396</ele>
        <time>2020-06-22T11:09:50.289Z</time>
      </trkpt>
      <trkpt lat="50.61623" lon="3.47297">
        <ele>30.176378</ele>
        <time>2020-06-22T11:09:53.856Z</time>
      </trkpt>
      <trkpt lat="50.61641" lon="3.47254">
        <ele>29.75321</ele>
        <time>2020-06-22T11:09:58.571Z</time>
      </trkpt>
      <trkpt lat="50.61646" lon="3.47231">
        <ele>29.557301</ele>
        <time>2020-06-22T11:10:00.671Z</time>
      </trkpt>
      <trkpt lat="50.61678" lon="3.47025">
        <ele>27.924483</ele>
        <time>2020-06-22T11:10:19.678Z</time>
      </trkpt>
      <trkpt lat="50.61682" lon="3.47002">
        <ele>27.767651</ele>
        <time>2020-06-22T11:10:21.949Z</time>
      </trkpt>
      <trkpt lat="50.61683" lon="3.46986">
        <ele>27.669645</ele>
        <time>2020-06-22T11:10:23.280Z</time>
      </trkpt>
      <trkpt lat="50.61698" lon="3.46879">
        <ele>26.964507</ele>
        <time>2020-06-22T11:10:33.366Z</time>
      </trkpt>
      <trkpt lat="50.61695" lon="3.46819">
        <ele>26.573049</ele>
        <time>2020-06-22T11:10:39.082Z</time>
      </trkpt>
      <trkpt lat="50.61704" lon="3.4682">
        <ele>26.487438</ele>
        <time>2020-06-22T11:10:40.301Z</time>
      </trkpt>
      <trkpt lat="50.61788" lon="3.46864">
        <ele>26.650549</ele>
        <time>2020-06-22T11:10:55.576Z</time>
      </trkpt>
      <trkpt lat="50.61843" lon="3.46944">
        <ele>26.856858</ele>
        <time>2020-06-22T11:11:10.693Z</time>
      </trkpt>
      <trkpt lat="50.61859" lon="3.46943">
        <ele>26.899312</ele>
        <time>2020-06-22T11:11:14.123Z</time>
      </trkpt>
      <trkpt lat="50.61859" lon="3.46946">
        <ele>26.90424</ele>
        <time>2020-06-22T11:11:14.734Z</time>
      </trkpt>
      <trkpt lat="50.6187" lon="3.46956">
        <ele>27.086907</ele>
        <time>2020-06-22T11:11:17.713Z</time>
      </trkpt>
      <trkpt lat="50.61872" lon="3.46955">
        <ele>27.149281</ele>
        <time>2020-06-22T11:11:18.453Z</time>
      </trkpt>
      <trkpt lat="50.61875" lon="3.46951">
        <ele>27.219179</ele>
        <time>2020-06-22T11:11:19.038Z</time>
      </trkpt>
      <trkpt lat="50.61874" lon="3.46933">
        <ele>27.476317</ele>
        <time>2020-06-22T11:11:21.718Z</time>
      </trkpt>
      <trkpt lat="50.61872" lon="3.4693">
        <ele>27.544279</ele>
        <time>2020-06-22T11:11:22.363Z</time>
      </trkpt>
      <trkpt lat="50.61874" lon="3.46919">
        <ele>27.720966</ele>
        <time>2020-06-22T11:11:24.683Z</time>
      </trkpt>
      <trkpt lat="50.61882" lon="3.46906">
        <ele>27.968362</ele>
        <time>2020-06-22T11:11:27.262Z</time>
      </trkpt>
      <trkpt lat="50.6192" lon="3.46906">
        <ele>28.824607</ele>
        <time>2020-06-22T11:11:37.771Z</time>
      </trkpt>
      <trkpt lat="50.61939" lon="3.46886">
        <ele>29.336377</ele>
        <time>2020-06-22T11:11:44.847Z</time>
      </trkpt>
      <trkpt lat="50.61966" lon="3.46753">
        <ele>31.545864</ele>
        <time>2020-06-22T11:12:13.109Z</time>
      </trkpt>
      <trkpt lat="50.62004" lon="3.46748">
        <ele>32.891905</ele>
        <time>2020-06-22T11:12:25.951Z</time>
      </trkpt>
      <trkpt lat="50.62098" lon="3.46721">
        <ele>36.239626</ele>
        <time>2020-06-22T11:12:59.899Z</time>
      </trkpt>
      <trkpt lat="50.62169" lon="3.46724">
        <ele>38.718424</ele>
        <time>2020-06-22T11:13:25.487Z</time>
      </trkpt>
      <trkpt lat="50.62205" lon="3.46737">
        <ele>40.052975</ele>
        <time>2020-06-22T11:13:38.558Z</time>
      </trkpt>
      <trkpt lat="50.62296" lon="3.468">
        <ele>43.553414</ele>
        <time>2020-06-22T11:14:12.744Z</time>
      </trkpt>
      <trkpt lat="50.62367" lon="3.46963">
        <ele>47.515541</ele>
        <time>2020-06-22T11:14:54.903Z</time>
      </trkpt>
      <trkpt lat="50.62395" lon="3.47004">
        <ele>48.696571</ele>
        <time>2020-06-22T11:15:07.146Z</time>
      </trkpt>
      <trkpt lat="50.6252" lon="3.47058">
        <ele>51.401065</ele>
        <time>2020-06-22T11:15:46.028Z</time>
      </trkpt>
      <trkpt lat="50.62553" lon="3.47075">
        <ele>52.068265</ele>
        <time>2020-06-22T11:15:54.724Z</time>
      </trkpt>
      <trkpt lat="50.62606" lon="3.47097">
        <ele>52.59398</ele>
        <time>2020-06-22T11:16:06.846Z</time>
      </trkpt>
      <trkpt lat="50.62837" lon="3.47257">
        <ele>50.360255</ele>
        <time>2020-06-22T11:16:44.476Z</time>
      </trkpt>
      <trkpt lat="50.62912" lon="3.47344">
        <ele>48.957252</ele>
        <time>2020-06-22T11:16:56.644Z</time>
      </trkpt>
      <trkpt lat="50.62937" lon="3.47366">
        <ele>48.436288</ele>
        <time>2020-06-22T11:17:00.314Z</time>
      </trkpt>
      <trkpt lat="50.62972" lon="3.47378">
        <ele>47.783694</ele>
        <time>2020-06-22T11:17:04.897Z</time>
      </trkpt>
      <trkpt lat="50.63104" lon="3.47372">
        <ele>45.668415</ele>
        <time>2020-06-22T11:17:22.821Z</time>
      </trkpt>
      <trkpt lat="50.63155" lon="3.47359">
        <ele>45.416371</ele>
        <time>2020-06-22T11:17:30.615Z</time>
      </trkpt>
      <trkpt lat="50.63333" lon="3.47252">
        <ele>45.461636</ele>
        <time>2020-06-22T11:18:05.344Z</time>
      </trkpt>
      <trkpt lat="50.63361" lon="3.47264">
        <ele>45.653864</ele>
        <time>2020-06-22T11:18:11.667Z</time>
      </trkpt>
      <trkpt lat="50.63544" lon="3.47492">
        <ele>48.591477</ele>
        <time>2020-06-22T11:19:07.766Z</time>
      </trkpt>
      <trkpt lat="50.63567" lon="3.47498">
        <ele>49.066605</ele>
        <time>2020-06-22T11:19:14.083Z</time>
      </trkpt>
      <trkpt lat="50.63834" lon="3.47456">
        <ele>56.646157</ele>
        <time>2020-06-22T11:20:38.949Z</time>
      </trkpt>
      <trkpt lat="50.63837" lon="3.47455">
        <ele>56.73364</ele>
        <time>2020-06-22T11:20:39.868Z</time>
      </trkpt>
      <trkpt lat="50.63873" lon="3.47451">
        <ele>57.854245</ele>
        <time>2020-06-22T11:20:51.907Z</time>
      </trkpt>
      <trkpt lat="50.63999" lon="3.47435">
        <ele>61.598126</ele>
        <time>2020-06-22T11:21:35.613Z</time>
      </trkpt>
      <trkpt lat="50.64087" lon="3.47424">
        <ele>64.126523</ele>
        <time>2020-06-22T11:22:02.006Z</time>
      </trkpt>
      <trkpt lat="50.64092" lon="3.47422">
        <ele>64.270325</ele>
        <time>2020-06-22T11:22:03.795Z</time>
      </trkpt>
      <trkpt lat="50.64102" lon="3.47418">
        <ele>64.359272</ele>
        <time>2020-06-22T11:22:06.557Z</time>
      </trkpt>
      <trkpt lat="50.64145" lon="3.47375">
        <ele>64.712793</ele>
        <time>2020-06-22T11:22:19.656Z</time>
      </trkpt>
      <trkpt lat="50.64203" lon="3.47276">
        <ele>65.310539</ele>
        <time>2020-06-22T11:22:37.163Z</time>
      </trkpt>
      <trkpt lat="50.64256" lon="3.47201">
        <ele>65.042123</ele>
        <time>2020-06-22T11:22:47.770Z</time>
      </trkpt>
      <trkpt lat="50.64257" lon="3.47199">
        <ele>65.008416</ele>
        <time>2020-06-22T11:22:48.059Z</time>
      </trkpt>
      <trkpt lat="50.64292" lon="3.47148">
        <ele>64.365328</ele>
        <time>2020-06-22T11:22:54.814Z</time>
      </trkpt>
      <trkpt lat="50.64375" lon="3.46964">
        <ele>62.590611</ele>
        <time>2020-06-22T11:23:14.230Z</time>
      </trkpt>
      <trkpt lat="50.64393" lon="3.46902">
        <ele>62.150439</ele>
        <time>2020-06-22T11:23:20.375Z</time>
      </trkpt>
      <trkpt lat="50.64394" lon="3.46898">
        <ele>62.121374</ele>
        <time>2020-06-22T11:23:20.785Z</time>
      </trkpt>
      <trkpt lat="50.64459" lon="3.4661">
        <ele>60.944407</ele>
        <time>2020-06-22T11:23:51.547Z</time>
      </trkpt>
      <trkpt lat="50.64537" lon="3.46302">
        <ele>60.725552</ele>
        <time>2020-06-22T11:24:29.811Z</time>
      </trkpt>
      <trkpt lat="50.64791" lon="3.45877">
        <ele>59.824536</ele>
        <time>2020-06-22T11:25:32.991Z</time>
      </trkpt>
      <trkpt lat="50.64868" lon="3.45742">
        <ele>58.329462</ele>
        <time>2020-06-22T11:25:49.409Z</time>
      </trkpt>
      <trkpt lat="50.64911" lon="3.45649">
        <ele>57.166528</ele>
        <time>2020-06-22T11:25:59.056Z</time>
      </trkpt>
      <trkpt lat="50.64921" lon="3.45607">
        <ele>56.675671</ele>
        <time>2020-06-22T11:26:02.740Z</time>
      </trkpt>
      <trkpt lat="50.64923" lon="3.456">
        <ele>56.56853</ele>
        <time>2020-06-22T11:26:03.398Z</time>
      </trkpt>
      <trkpt lat="50.64942" lon="3.455">
        <ele>55.137367</ele>
        <time>2020-06-22T11:26:12.094Z</time>
      </trkpt>
      <trkpt lat="50.64956" lon="3.45423">
        <ele>54.042829</ele>
        <time>2020-06-22T11:26:18.734Z</time>
      </trkpt>
      <trkpt lat="50.64968" lon="3.45377">
        <ele>53.367918</ele>
        <time>2020-06-22T11:26:22.762Z</time>
      </trkpt>
      <trkpt lat="50.65029" lon="3.45234">
        <ele>50.727792</ele>
        <time>2020-06-22T11:26:36.927Z</time>
      </trkpt>
      <trkpt lat="50.65049" lon="3.45189">
        <ele>49.876605</ele>
        <time>2020-06-22T11:26:41.348Z</time>
      </trkpt>
      <trkpt lat="50.65076" lon="3.45148">
        <ele>48.948724</ele>
        <time>2020-06-22T11:26:46.072Z</time>
      </trkpt>
      <trkpt lat="50.65093" lon="3.45133">
        <ele>48.455671</ele>
        <time>2020-06-22T11:26:48.589Z</time>
      </trkpt>
      <trkpt lat="50.65104" lon="3.45124">
        <ele>48.100793</ele>
        <time>2020-06-22T11:26:50.139Z</time>
      </trkpt>
      <trkpt lat="50.65111" lon="3.45119">
        <ele>47.901574</ele>
        <time>2020-06-22T11:26:50.955Z</time>
      </trkpt>
      <trkpt lat="50.65163" lon="3.45063">
        <ele>46.116493</ele>
        <time>2020-06-22T11:26:58.836Z</time>
      </trkpt>
      <trkpt lat="50.65194" lon="3.45042">
        <ele>45.156323</ele>
        <time>2020-06-22T11:27:03.082Z</time>
      </trkpt>
      <trkpt lat="50.65228" lon="3.4503">
        <ele>44.174519</ele>
        <time>2020-06-22T11:27:07.352Z</time>
      </trkpt>
      <trkpt lat="50.6529" lon="3.45037">
        <ele>42.396204</ele>
        <time>2020-06-22T11:27:15.014Z</time>
      </trkpt>
      <trkpt lat="50.65333" lon="3.45004">
        <ele>41.047416</ele>
        <time>2020-06-22T11:27:20.886Z</time>
      </trkpt>
      <trkpt lat="50.65374" lon="3.44965">
        <ele>39.696134</ele>
        <time>2020-06-22T11:27:26.817Z</time>
      </trkpt>
      <trkpt lat="50.65382" lon="3.44958">
        <ele>39.441482</ele>
        <time>2020-06-22T11:27:27.895Z</time>
      </trkpt>
      <trkpt lat="50.65387" lon="3.44944">
        <ele>39.167277</ele>
        <time>2020-06-22T11:27:29.179Z</time>
      </trkpt>
      <trkpt lat="50.65397" lon="3.44915">
        <ele>38.565615</ele>
        <time>2020-06-22T11:27:31.874Z</time>
      </trkpt>
      <trkpt lat="50.65404" lon="3.4488">
        <ele>38.181047</ele>
        <time>2020-06-22T11:27:34.958Z</time>
      </trkpt>
      <trkpt lat="50.65406" lon="3.44859">
        <ele>38.03603</ele>
        <time>2020-06-22T11:27:36.682Z</time>
      </trkpt>
      <trkpt lat="50.65403" lon="3.44837">
        <ele>37.882392</ele>
        <time>2020-06-22T11:27:38.611Z</time>
      </trkpt>
      <trkpt lat="50.65381" lon="3.44753">
        <ele>37.261794</ele>
        <time>2020-06-22T11:27:46.413Z</time>
      </trkpt>
      <trkpt lat="50.65375" lon="3.44729">
        <ele>37.083697</ele>
        <time>2020-06-22T11:27:48.837Z</time>
      </trkpt>
      <trkpt lat="50.65371" lon="3.44714">
        <ele>36.968546</ele>
        <time>2020-06-22T11:27:50.467Z</time>
      </trkpt>
      <trkpt lat="50.65336" lon="3.44581">
        <ele>36.96143</ele>
        <time>2020-06-22T11:28:08.196Z</time>
      </trkpt>
      <trkpt lat="50.65335" lon="3.44515">
        <ele>37.544353</ele>
        <time>2020-06-22T11:28:18.334Z</time>
      </trkpt>
      <trkpt lat="50.65315" lon="3.44445">
        <ele>38.22722</ele>
        <time>2020-06-22T11:28:31.251Z</time>
      </trkpt>
      <trkpt lat="50.65317" lon="3.44432">
        <ele>38.345572</ele>
        <time>2020-06-22T11:28:33.578Z</time>
      </trkpt>
      <trkpt lat="50.6532" lon="3.44422">
        <ele>38.451688</ele>
        <time>2020-06-22T11:28:35.615Z</time>
      </trkpt>
      <trkpt lat="50.65411" lon="3.4435">
        <ele>40.390793</ele>
        <time>2020-06-22T11:29:03.654Z</time>
      </trkpt>
      <trkpt lat="50.65498" lon="3.44194">
        <ele>43.352815</ele>
        <time>2020-06-22T11:29:41.848Z</time>
      </trkpt>
      <trkpt lat="50.65509" lon="3.44161">
        <ele>43.94332</ele>
        <time>2020-06-22T11:29:48.143Z</time>
      </trkpt>
      <trkpt lat="50.65513" lon="3.4415">
        <ele>44.157708</ele>
        <time>2020-06-22T11:29:50.671Z</time>
      </trkpt>
      <trkpt lat="50.65571" lon="3.43951">
        <ele>47.756041</ele>
        <time>2020-06-22T11:30:32.494Z</time>
      </trkpt>
      <trkpt lat="50.656" lon="3.4382">
        <ele>50.832209</ele>
        <time>2020-06-22T11:31:02.336Z</time>
      </trkpt>
      <trkpt lat="50.65616" lon="3.43725">
        <ele>53.029724</ele>
        <time>2020-06-22T11:31:25.883Z</time>
      </trkpt>
      <trkpt lat="50.6563" lon="3.43572">
        <ele>55.633346</ele>
        <time>2020-06-22T11:32:00.362Z</time>
      </trkpt>
      <trkpt lat="50.65633" lon="3.43469">
        <ele>57.225626</ele>
        <time>2020-06-22T11:32:18.872Z</time>
      </trkpt>
      <trkpt lat="50.65671" lon="3.43464">
        <ele>58.124481</ele>
        <time>2020-06-22T11:32:27.173Z</time>
      </trkpt>
      <trkpt lat="50.65701" lon="3.43459">
        <ele>58.157178</ele>
        <time>2020-06-22T11:32:33.493Z</time>
      </trkpt>
      <trkpt lat="50.65779" lon="3.43498">
        <ele>58.242982</ele>
        <time>2020-06-22T11:32:48.328Z</time>
      </trkpt>
      <trkpt lat="50.658" lon="3.43509">
        <ele>58.266879</ele>
        <time>2020-06-22T11:32:51.572Z</time>
      </trkpt>
      <trkpt lat="50.65856" lon="3.43381">
        <ele>58.474449</ele>
        <time>2020-06-22T11:33:08.260Z</time>
      </trkpt>
      <trkpt lat="50.65884" lon="3.43243">
        <ele>58.7428</ele>
        <time>2020-06-22T11:33:26.595Z</time>
      </trkpt>
      <trkpt lat="50.65891" lon="3.43209">
        <ele>58.809422</ele>
        <time>2020-06-22T11:33:31.419Z</time>
      </trkpt>
      <trkpt lat="50.65893" lon="3.43186">
        <ele>58.881723</ele>
        <time>2020-06-22T11:33:34.542Z</time>
      </trkpt>
      <trkpt lat="50.65889" lon="3.43161">
        <ele>59.070291</ele>
        <time>2020-06-22T11:33:38.038Z</time>
      </trkpt>
      <trkpt lat="50.65858" lon="3.43129">
        <ele>59.498718</ele>
        <time>2020-06-22T11:33:45.980Z</time>
      </trkpt>
      <trkpt lat="50.65849" lon="3.43116">
        <ele>59.635366</ele>
        <time>2020-06-22T11:33:48.653Z</time>
      </trkpt>
      <trkpt lat="50.65845" lon="3.43095">
        <ele>59.794396</ele>
        <time>2020-06-22T11:33:51.725Z</time>
      </trkpt>
      <trkpt lat="50.65849" lon="3.42987">
        <ele>60.573622</ele>
        <time>2020-06-22T11:34:07.780Z</time>
      </trkpt>
      <trkpt lat="50.65837" lon="3.42872">
        <ele>62.208949</ele>
        <time>2020-06-22T11:34:27.155Z</time>
      </trkpt>
      <trkpt lat="50.6584" lon="3.4284">
        <ele>62.801827</ele>
        <time>2020-06-22T11:34:33.790Z</time>
      </trkpt>
      <trkpt lat="50.65855" lon="3.42781">
        <ele>63.957582</ele>
        <time>2020-06-22T11:34:46.991Z</time>
      </trkpt>
      <trkpt lat="50.65857" lon="3.42659">
        <ele>66.218802</ele>
        <time>2020-06-22T11:35:13.614Z</time>
      </trkpt>
      <trkpt lat="50.65857" lon="3.42643">
        <ele>66.594418</ele>
        <time>2020-06-22T11:35:17.376Z</time>
      </trkpt>
      <trkpt lat="50.65855" lon="3.42604">
        <ele>67.493104</ele>
        <time>2020-06-22T11:35:26.071Z</time>
      </trkpt>
      <trkpt lat="50.65859" lon="3.42572">
        <ele>68.233964</ele>
        <time>2020-06-22T11:35:34.790Z</time>
      </trkpt>
      <trkpt lat="50.65913" lon="3.42417">
        <ele>72.299148</ele>
        <time>2020-06-22T11:36:15.786Z</time>
      </trkpt>
      <trkpt lat="50.65923" lon="3.42397">
        <ele>72.669562</ele>
        <time>2020-06-22T11:36:20.380Z</time>
      </trkpt>
      <trkpt lat="50.65936" lon="3.42386">
        <ele>72.787772</ele>
        <time>2020-06-22T11:36:25.334Z</time>
      </trkpt>
      <trkpt lat="50.65948" lon="3.42378">
        <ele>72.887307</ele>
        <time>2020-06-22T11:36:28.300Z</time>
      </trkpt>
      <trkpt lat="50.65983" lon="3.42289">
        <ele>73.4051</ele>
        <time>2020-06-22T11:36:43.912Z</time>
      </trkpt>
      <trkpt lat="50.66001" lon="3.42204">
        <ele>73.849487</ele>
        <time>2020-06-22T11:36:53.956Z</time>
      </trkpt>
      <trkpt lat="50.66045" lon="3.42089">
        <ele>72.931005</ele>
        <time>2020-06-22T11:37:05.577Z</time>
      </trkpt>
      <trkpt lat="50.66052" lon="3.42056">
        <ele>72.557611</ele>
        <time>2020-06-22T11:37:08.429Z</time>
      </trkpt>
      <trkpt lat="50.66056" lon="3.41981">
        <ele>71.740353</ele>
        <time>2020-06-22T11:37:14.754Z</time>
      </trkpt>
      <trkpt lat="50.66065" lon="3.41921">
        <ele>71.079236</ele>
        <time>2020-06-22T11:37:19.960Z</time>
      </trkpt>
      <trkpt lat="50.66078" lon="3.41847">
        <ele>71.004115</ele>
        <time>2020-06-22T11:37:26.663Z</time>
      </trkpt>
      <trkpt lat="50.66089" lon="3.41789">
        <ele>71.048532</ele>
        <time>2020-06-22T11:37:32.091Z</time>
      </trkpt>
      <trkpt lat="50.66111" lon="3.41619">
        <ele>71.703005</ele>
        <time>2020-06-22T11:37:56.767Z</time>
      </trkpt>
      <trkpt lat="50.66113" lon="3.41583">
        <ele>72.950091</ele>
        <time>2020-06-22T11:38:04.589Z</time>
      </trkpt>
      <trkpt lat="50.66109" lon="3.41556">
        <ele>73.927069</ele>
        <time>2020-06-22T11:38:11.436Z</time>
      </trkpt>
      <trkpt lat="50.66106" lon="3.4154">
        <ele>74.523513</ele>
        <time>2020-06-22T11:38:15.478Z</time>
      </trkpt>
      <trkpt lat="50.6607" lon="3.4154">
        <ele>76.464403</ele>
        <time>2020-06-22T11:38:30.699Z</time>
      </trkpt>
      <trkpt lat="50.65894" lon="3.41547">
        <ele>87.592337</ele>
        <time>2020-06-22T11:40:07.428Z</time>
      </trkpt>
      <trkpt lat="50.65817" lon="3.41541">
        <ele>93.047149</ele>
        <time>2020-06-22T11:40:47.592Z</time>
      </trkpt>
      <trkpt lat="50.65738" lon="3.41516">
        <ele>96.22914</ele>
        <time>2020-06-22T11:41:20.452Z</time>
      </trkpt>
      <trkpt lat="50.65703" lon="3.41515">
        <ele>97.483862</ele>
        <time>2020-06-22T11:41:31.987Z</time>
      </trkpt>
      <trkpt lat="50.65601" lon="3.41528">
        <ele>100.423572</ele>
        <time>2020-06-22T11:42:00.786Z</time>
      </trkpt>
      <trkpt lat="50.65576" lon="3.41519">
        <ele>100.669897</ele>
        <time>2020-06-22T11:42:06.866Z</time>
      </trkpt>
      <trkpt lat="50.65564" lon="3.41503">
        <ele>100.823974</ele>
        <time>2020-06-22T11:42:10.955Z</time>
      </trkpt>
      <trkpt lat="50.65556" lon="3.41479">
        <ele>100.995593</ele>
        <time>2020-06-22T11:42:15.055Z</time>
      </trkpt>
      <trkpt lat="50.65549" lon="3.41455">
        <ele>101.157358</ele>
        <time>2020-06-22T11:42:18.252Z</time>
      </trkpt>
      <trkpt lat="50.65536" lon="3.41408">
        <ele>101.476308</ele>
        <time>2020-06-22T11:42:25.008Z</time>
      </trkpt>
      <trkpt lat="50.65513" lon="3.41331">
        <ele>101.822112</ele>
        <time>2020-06-22T11:42:35.245Z</time>
      </trkpt>
      <trkpt lat="50.65503" lon="3.41277">
        <ele>101.575437</ele>
        <time>2020-06-22T11:42:41.502Z</time>
      </trkpt>
      <trkpt lat="50.65502" lon="3.41268">
        <ele>101.536968</ele>
        <time>2020-06-22T11:42:42.467Z</time>
      </trkpt>
      <trkpt lat="50.65499" lon="3.41243">
        <ele>101.424425</ele>
        <time>2020-06-22T11:42:45.042Z</time>
      </trkpt>
      <trkpt lat="50.65485" lon="3.41146">
        <ele>100.986102</ele>
        <time>2020-06-22T11:42:54.858Z</time>
      </trkpt>
      <trkpt lat="50.65473" lon="3.411">
        <ele>100.770544</ele>
        <time>2020-06-22T11:42:59.276Z</time>
      </trkpt>
      <trkpt lat="50.65356" lon="3.40805">
        <ele>96.927945</ele>
        <time>2020-06-22T11:43:28.745Z</time>
      </trkpt>
      <trkpt lat="50.65312" lon="3.40696">
        <ele>95.897301</ele>
        <time>2020-06-22T11:43:38.885Z</time>
      </trkpt>
      <trkpt lat="50.65307" lon="3.40688">
        <ele>95.804698</ele>
        <time>2020-06-22T11:43:39.767Z</time>
      </trkpt>
      <trkpt lat="50.65247" lon="3.40586">
        <ele>95.987518</ele>
        <time>2020-06-22T11:43:57.738Z</time>
      </trkpt>
      <trkpt lat="50.65237" lon="3.40567">
        <ele>96.736928</ele>
        <time>2020-06-22T11:44:02.613Z</time>
      </trkpt>
      <trkpt lat="50.65227" lon="3.40541">
        <ele>97.667774</ele>
        <time>2020-06-22T11:44:08.091Z</time>
      </trkpt>
      <trkpt lat="50.65228" lon="3.40524">
        <ele>98.182379</ele>
        <time>2020-06-22T11:44:12.017Z</time>
      </trkpt>
      <trkpt lat="50.65232" lon="3.4051">
        <ele>98.658143</ele>
        <time>2020-06-22T11:44:16.704Z</time>
      </trkpt>
      <trkpt lat="50.65239" lon="3.40499">
        <ele>99.151906</ele>
        <time>2020-06-22T11:44:21.138Z</time>
      </trkpt>
      <trkpt lat="50.65252" lon="3.40488">
        <ele>99.838896</ele>
        <time>2020-06-22T11:44:26.442Z</time>
      </trkpt>
      <trkpt lat="50.65256" lon="3.40487">
        <ele>100.064406</ele>
        <time>2020-06-22T11:44:30.679Z</time>
      </trkpt>
      <trkpt lat="50.65475" lon="3.40415">
        <ele>115.200387</ele>
        <time>2020-06-22T11:46:49.825Z</time>
      </trkpt>
      <trkpt lat="50.65478" lon="3.40403">
        <ele>115.83613</ele>
        <time>2020-06-22T11:46:56.278Z</time>
      </trkpt>
      <trkpt lat="50.65482" lon="3.40369">
        <ele>117.539575</ele>
        <time>2020-06-22T11:47:07.825Z</time>
      </trkpt>
      <trkpt lat="50.65485" lon="3.40349">
        <ele>118.207425</ele>
        <time>2020-06-22T11:47:16.134Z</time>
      </trkpt>
      <trkpt lat="50.65489" lon="3.40319">
        <ele>119.244238</ele>
        <time>2020-06-22T11:47:26.695Z</time>
      </trkpt>
      <trkpt lat="50.65495" lon="3.40271">
        <ele>120.868061</ele>
        <time>2020-06-22T11:47:44.696Z</time>
      </trkpt>
      <trkpt lat="50.65498" lon="3.40251">
        <ele>121.554182</ele>
        <time>2020-06-22T11:47:51.505Z</time>
      </trkpt>
      <trkpt lat="50.65491" lon="3.4012">
        <ele>125.955185</ele>
        <time>2020-06-22T11:48:33.064Z</time>
      </trkpt>
      <trkpt lat="50.65494" lon="3.40013">
        <ele>126.71673</ele>
        <time>2020-06-22T11:48:54.406Z</time>
      </trkpt>
      <trkpt lat="50.65493" lon="3.40003">
        <ele>126.674617</ele>
        <time>2020-06-22T11:48:55.975Z</time>
      </trkpt>
      <trkpt lat="50.65488" lon="3.39976">
        <ele>126.559993</ele>
        <time>2020-06-22T11:49:00.624Z</time>
      </trkpt>
      <trkpt lat="50.65493" lon="3.40003">
        <ele>126.445368</ele>
        <time>2020-06-22T11:49:04.648Z</time>
      </trkpt>
      <trkpt lat="50.65494" lon="3.40013">
        <ele>126.403256</ele>
        <time>2020-06-22T11:49:06.232Z</time>
      </trkpt>
      <trkpt lat="50.65491" lon="3.4012">
        <ele>125.964132</ele>
        <time>2020-06-22T11:49:19.670Z</time>
      </trkpt>
      <trkpt lat="50.65498" lon="3.40251">
        <ele>121.598926</ele>
        <time>2020-06-22T11:49:33.159Z</time>
      </trkpt>
      <trkpt lat="50.65495" lon="3.40271">
        <ele>120.775563</ele>
        <time>2020-06-22T11:49:35.219Z</time>
      </trkpt>
      <trkpt lat="50.65489" lon="3.40319">
        <ele>118.826931</ele>
        <time>2020-06-22T11:49:39.972Z</time>
      </trkpt>
      <trkpt lat="50.65485" lon="3.40349">
        <ele>117.582728</ele>
        <time>2020-06-22T11:49:43.076Z</time>
      </trkpt>
      <trkpt lat="50.65482" lon="3.40369">
        <ele>116.785471</ele>
        <time>2020-06-22T11:49:44.972Z</time>
      </trkpt>
      <trkpt lat="50.65478" lon="3.40403">
        <ele>115.39751</ele>
        <time>2020-06-22T11:49:48.447Z</time>
      </trkpt>
      <trkpt lat="50.65475" lon="3.40415">
        <ele>114.879508</ele>
        <time>2020-06-22T11:49:49.633Z</time>
      </trkpt>
      <trkpt lat="50.65256" lon="3.40487">
        <ele>95.078409</ele>
        <time>2020-06-22T11:50:22.646Z</time>
      </trkpt>
      <trkpt lat="50.65252" lon="3.40488">
        <ele>94.695757</ele>
        <time>2020-06-22T11:50:23.278Z</time>
      </trkpt>
      <trkpt lat="50.65223" lon="3.40496">
        <ele>92.31871</ele>
        <time>2020-06-22T11:50:27.816Z</time>
      </trkpt>
      <trkpt lat="50.65217" lon="3.40497">
        <ele>91.803396</ele>
        <time>2020-06-22T11:50:28.693Z</time>
      </trkpt>
      <trkpt lat="50.65209" lon="3.40498">
        <ele>91.198365</ele>
        <time>2020-06-22T11:50:29.824Z</time>
      </trkpt>
      <trkpt lat="50.65194" lon="3.40495">
        <ele>89.969072</ele>
        <time>2020-06-22T11:50:32.230Z</time>
      </trkpt>
      <trkpt lat="50.65181" lon="3.4049">
        <ele>88.880239</ele>
        <time>2020-06-22T11:50:34.162Z</time>
      </trkpt>
      <trkpt lat="50.65171" lon="3.40485">
        <ele>88.01148</ele>
        <time>2020-06-22T11:50:35.327Z</time>
      </trkpt>
      <trkpt lat="50.65163" lon="3.40476">
        <ele>87.210241</ele>
        <time>2020-06-22T11:50:36.420Z</time>
      </trkpt>
      <trkpt lat="50.65102" lon="3.40409">
        <ele>81.593518</ele>
        <time>2020-06-22T11:50:44.497Z</time>
      </trkpt>
      <trkpt lat="50.65068" lon="3.4039">
        <ele>79.300923</ele>
        <time>2020-06-22T11:50:48.373Z</time>
      </trkpt>
      <trkpt lat="50.65048" lon="3.40392">
        <ele>77.981194</ele>
        <time>2020-06-22T11:50:50.619Z</time>
      </trkpt>
      <trkpt lat="50.64976" lon="3.40426">
        <ele>73.085289</ele>
        <time>2020-06-22T11:50:58.910Z</time>
      </trkpt>
      <trkpt lat="50.64952" lon="3.40438">
        <ele>71.426854</ele>
        <time>2020-06-22T11:51:01.590Z</time>
      </trkpt>
      <trkpt lat="50.64911" lon="3.40447">
        <ele>68.313421</ele>
        <time>2020-06-22T11:51:06.002Z</time>
      </trkpt>
      <trkpt lat="50.64886" lon="3.40439">
        <ele>66.326515</ele>
        <time>2020-06-22T11:51:08.808Z</time>
      </trkpt>
      <trkpt lat="50.64836" lon="3.40368">
        <ele>61.267577</ele>
        <time>2020-06-22T11:51:15.916Z</time>
      </trkpt>
      <trkpt lat="50.64815" lon="3.4035">
        <ele>59.448358</ele>
        <time>2020-06-22T11:51:18.455Z</time>
      </trkpt>
      <trkpt lat="50.64783" lon="3.40343">
        <ele>57.102659</ele>
        <time>2020-06-22T11:51:21.843Z</time>
      </trkpt>
      <trkpt lat="50.64669" lon="3.40343">
        <ele>49.099753</ele>
        <time>2020-06-22T11:51:34.200Z</time>
      </trkpt>
      <trkpt lat="50.64664" lon="3.40342">
        <ele>48.79099</ele>
        <time>2020-06-22T11:51:34.657Z</time>
      </trkpt>
      <trkpt lat="50.64629" lon="3.40334">
        <ele>46.304253</ele>
        <time>2020-06-22T11:51:38.578Z</time>
      </trkpt>
      <trkpt lat="50.64483" lon="3.40266">
        <ele>38.631518</ele>
        <time>2020-06-22T11:51:55.780Z</time>
      </trkpt>
      <trkpt lat="50.64303" lon="3.40117">
        <ele>30.435499</ele>
        <time>2020-06-22T11:52:19.878Z</time>
      </trkpt>
      <trkpt lat="50.64179" lon="3.40015">
        <ele>25.348273</ele>
        <time>2020-06-22T11:52:36.268Z</time>
      </trkpt>
      <trkpt lat="50.64132" lon="3.39975">
        <ele>23.407993</ele>
        <time>2020-06-22T11:52:42.820Z</time>
      </trkpt>
      <trkpt lat="50.64119" lon="3.39964">
        <ele>23.171849</ele>
        <time>2020-06-22T11:52:44.669Z</time>
      </trkpt>
      <trkpt lat="50.641" lon="3.39951">
        <ele>22.856589</ele>
        <time>2020-06-22T11:52:47.294Z</time>
      </trkpt>
      <trkpt lat="50.64069" lon="3.3994">
        <ele>22.367897</ele>
        <time>2020-06-22T11:52:51.465Z</time>
      </trkpt>
      <trkpt lat="50.64051" lon="3.39935">
        <ele>22.096112</ele>
        <time>2020-06-22T11:52:53.838Z</time>
      </trkpt>
      <trkpt lat="50.64015" lon="3.39927">
        <ele>21.532834</ele>
        <time>2020-06-22T11:52:59.020Z</time>
      </trkpt>
      <trkpt lat="50.63994" lon="3.39921">
        <ele>21.213604</ele>
        <time>2020-06-22T11:53:02.203Z</time>
      </trkpt>
      <trkpt lat="50.63983" lon="3.39917">
        <ele>21.035974</ele>
        <time>2020-06-22T11:53:03.960Z</time>
      </trkpt>
      <trkpt lat="50.63962" lon="3.39911">
        <ele>20.708501</ele>
        <time>2020-06-22T11:53:07.587Z</time>
      </trkpt>
      <trkpt lat="50.63947" lon="3.39903">
        <ele>20.646602</ele>
        <time>2020-06-22T11:53:10.181Z</time>
      </trkpt>
      <trkpt lat="50.63921" lon="3.39881">
        <ele>20.679584</ele>
        <time>2020-06-22T11:53:15.357Z</time>
      </trkpt>
      <trkpt lat="50.63863" lon="3.39813">
        <ele>20.762078</ele>
        <time>2020-06-22T11:53:28.797Z</time>
      </trkpt>
      <trkpt lat="50.63816" lon="3.39747">
        <ele>20.833556</ele>
        <time>2020-06-22T11:53:41.116Z</time>
      </trkpt>
      <trkpt lat="50.63797" lon="3.39722">
        <ele>20.876692</ele>
        <time>2020-06-22T11:53:46.169Z</time>
      </trkpt>
      <trkpt lat="50.63786" lon="3.39707">
        <ele>20.903953</ele>
        <time>2020-06-22T11:53:49.039Z</time>
      </trkpt>
      <trkpt lat="50.63779" lon="3.39698">
        <ele>20.919153</ele>
        <time>2020-06-22T11:53:50.680Z</time>
      </trkpt>
      <trkpt lat="50.63776" lon="3.39693">
        <ele>20.928106</ele>
        <time>2020-06-22T11:53:51.635Z</time>
      </trkpt>
      <trkpt lat="50.63754" lon="3.39678">
        <ele>20.972155</ele>
        <time>2020-06-22T11:53:56.238Z</time>
      </trkpt>
      <trkpt lat="50.63736" lon="3.39668">
        <ele>21.008199</ele>
        <time>2020-06-22T11:53:59.985Z</time>
      </trkpt>
      <trkpt lat="50.63715" lon="3.39662">
        <ele>21.046568</ele>
        <time>2020-06-22T11:54:03.903Z</time>
      </trkpt>
      <trkpt lat="50.63705" lon="3.39661">
        <ele>21.06622</ele>
        <time>2020-06-22T11:54:05.872Z</time>
      </trkpt>
      <trkpt lat="50.63642" lon="3.39658">
        <ele>21.14073</ele>
        <time>2020-06-22T11:54:17.152Z</time>
      </trkpt>
      <trkpt lat="50.63515" lon="3.39656">
        <ele>20.44177</ele>
        <time>2020-06-22T11:54:37.532Z</time>
      </trkpt>
      <trkpt lat="50.63459" lon="3.39655">
        <ele>20.108198</ele>
        <time>2020-06-22T11:54:45.733Z</time>
      </trkpt>
      <trkpt lat="50.63446" lon="3.39654">
        <ele>19.996939</ele>
        <time>2020-06-22T11:54:47.698Z</time>
      </trkpt>
      <trkpt lat="50.63419" lon="3.39652">
        <ele>19.77329</ele>
        <time>2020-06-22T11:54:51.598Z</time>
      </trkpt>
      <trkpt lat="50.63369" lon="3.39634">
        <ele>19.346605</ele>
        <time>2020-06-22T11:54:59.159Z</time>
      </trkpt>
      <trkpt lat="50.63355" lon="3.39622">
        <ele>19.20862</ele>
        <time>2020-06-22T11:55:01.564Z</time>
      </trkpt>
      <trkpt lat="50.63345" lon="3.39611">
        <ele>19.111012</ele>
        <time>2020-06-22T11:55:03.293Z</time>
      </trkpt>
      <trkpt lat="50.63174" lon="3.39412">
        <ele>18.265596</ele>
        <time>2020-06-22T11:55:37.248Z</time>
      </trkpt>
      <trkpt lat="50.63125" lon="3.39354">
        <ele>18.724988</ele>
        <time>2020-06-22T11:55:50.246Z</time>
      </trkpt>
      <trkpt lat="50.6309" lon="3.39303">
        <ele>19.287365</ele>
        <time>2020-06-22T11:56:01.521Z</time>
      </trkpt>
      <trkpt lat="50.63078" lon="3.39263">
        <ele>19.627289</ele>
        <time>2020-06-22T11:56:08.494Z</time>
      </trkpt>
      <trkpt lat="50.63075" lon="3.39242">
        <ele>19.788958</ele>
        <time>2020-06-22T11:56:12.172Z</time>
      </trkpt>
      <trkpt lat="50.63074" lon="3.39211">
        <ele>20.020881</ele>
        <time>2020-06-22T11:56:17.014Z</time>
      </trkpt>
      <trkpt lat="50.63076" lon="3.39197">
        <ele>20.132928</ele>
        <time>2020-06-22T11:56:19.564Z</time>
      </trkpt>
      <trkpt lat="50.63074" lon="3.39178">
        <ele>20.272414</ele>
        <time>2020-06-22T11:56:22.865Z</time>
      </trkpt>
      <trkpt lat="50.6307" lon="3.39161">
        <ele>20.415385</ele>
        <time>2020-06-22T11:56:26.087Z</time>
      </trkpt>
      <trkpt lat="50.63063" lon="3.39153">
        <ele>20.516517</ele>
        <time>2020-06-22T11:56:28.185Z</time>
      </trkpt>
      <trkpt lat="50.63037" lon="3.39117">
        <ele>20.932273</ele>
        <time>2020-06-22T11:56:37.362Z</time>
      </trkpt>
      <trkpt lat="50.6298" lon="3.39043">
        <ele>21.800181</ele>
        <time>2020-06-22T11:56:55.294Z</time>
      </trkpt>
      <trkpt lat="50.62958" lon="3.39019">
        <ele>22.120819</ele>
        <time>2020-06-22T11:57:01.184Z</time>
      </trkpt>
      <trkpt lat="50.62906" lon="3.38981">
        <ele>22.484921</ele>
        <time>2020-06-22T11:57:12.484Z</time>
      </trkpt>
      <trkpt lat="50.62867" lon="3.38956">
        <ele>22.480663</ele>
        <time>2020-06-22T11:57:20.057Z</time>
      </trkpt>
      <trkpt lat="50.62853" lon="3.38952">
        <ele>22.479197</ele>
        <time>2020-06-22T11:57:22.480Z</time>
      </trkpt>
      <trkpt lat="50.6283" lon="3.38947">
        <ele>22.476856</ele>
        <time>2020-06-22T11:57:26.661Z</time>
      </trkpt>
      <trkpt lat="50.628" lon="3.38946">
        <ele>22.473787</ele>
        <time>2020-06-22T11:57:31.661Z</time>
      </trkpt>
      <trkpt lat="50.62772" lon="3.38945">
        <ele>22.470944</ele>
        <time>2020-06-22T11:57:36.225Z</time>
      </trkpt>
      <trkpt lat="50.62759" lon="3.38946">
        <ele>22.469693</ele>
        <time>2020-06-22T11:57:38.294Z</time>
      </trkpt>
      <trkpt lat="50.62747" lon="3.38947">
        <ele>22.464446</ele>
        <time>2020-06-22T11:57:40.220Z</time>
      </trkpt>
      <trkpt lat="50.6274" lon="3.38942">
        <ele>22.459894</ele>
        <time>2020-06-22T11:57:41.591Z</time>
      </trkpt>
      <trkpt lat="50.62716" lon="3.3896">
        <ele>22.445153</ele>
        <time>2020-06-22T11:57:46.050Z</time>
      </trkpt>
      <trkpt lat="50.62709" lon="3.3896">
        <ele>22.441227</ele>
        <time>2020-06-22T11:57:47.239Z</time>
      </trkpt>
      <trkpt lat="50.6266" lon="3.38985">
        <ele>22.412305</ele>
        <time>2020-06-22T11:57:56.406Z</time>
      </trkpt>
      <trkpt lat="50.62538" lon="3.39015">
        <ele>22.441381</ele>
        <time>2020-06-22T11:58:18.925Z</time>
      </trkpt>
      <trkpt lat="50.62482" lon="3.39036">
        <ele>22.531577</ele>
        <time>2020-06-22T11:58:29.377Z</time>
      </trkpt>
      <trkpt lat="50.62452" lon="3.39053">
        <ele>22.583092</ele>
        <time>2020-06-22T11:58:35.388Z</time>
      </trkpt>
      <trkpt lat="50.62417" lon="3.39073">
        <ele>22.642012</ele>
        <time>2020-06-22T11:58:42.380Z</time>
      </trkpt>
      <trkpt lat="50.62411" lon="3.39077">
        <ele>22.651821</ele>
        <time>2020-06-22T11:58:43.559Z</time>
      </trkpt>
      <trkpt lat="50.62392" lon="3.39087">
        <ele>22.719666</ele>
        <time>2020-06-22T11:58:47.472Z</time>
      </trkpt>
      <trkpt lat="50.62371" lon="3.39097">
        <ele>22.795187</ele>
        <time>2020-06-22T11:58:51.640Z</time>
      </trkpt>
      <trkpt lat="50.62364" lon="3.391">
        <ele>22.81987</ele>
        <time>2020-06-22T11:58:53.015Z</time>
      </trkpt>
      <trkpt lat="50.62325" lon="3.39121">
        <ele>22.964957</ele>
        <time>2020-06-22T11:59:01.144Z</time>
      </trkpt>
      <trkpt lat="50.62319" lon="3.39124">
        <ele>22.98627</ele>
        <time>2020-06-22T11:59:02.341Z</time>
      </trkpt>
      <trkpt lat="50.62127" lon="3.39214">
        <ele>23.806035</ele>
        <time>2020-06-22T11:59:42.348Z</time>
      </trkpt>
      <trkpt lat="50.62105" lon="3.39221">
        <ele>23.904038</ele>
        <time>2020-06-22T11:59:46.648Z</time>
      </trkpt>
      <trkpt lat="50.62026" lon="3.39257">
        <ele>24.207133</ele>
        <time>2020-06-22T12:00:03.172Z</time>
      </trkpt>
      <trkpt lat="50.61999" lon="3.39269">
        <ele>24.285979</ele>
        <time>2020-06-22T12:00:08.629Z</time>
      </trkpt>
      <trkpt lat="50.61953" lon="3.39285">
        <ele>24.416636</ele>
        <time>2020-06-22T12:00:17.646Z</time>
      </trkpt>
      <trkpt lat="50.61906" lon="3.39297">
        <ele>24.547618</ele>
        <time>2020-06-22T12:00:26.523Z</time>
      </trkpt>
      <trkpt lat="50.61785" lon="3.39326">
        <ele>24.344008</ele>
        <time>2020-06-22T12:00:48.612Z</time>
      </trkpt>
      <trkpt lat="50.61688" lon="3.39335">
        <ele>23.901947</ele>
        <time>2020-06-22T12:01:09.992Z</time>
      </trkpt>
      <trkpt lat="50.61654" lon="3.39345">
        <ele>23.520395</ele>
        <time>2020-06-22T12:01:17.027Z</time>
      </trkpt>
      <trkpt lat="50.61536" lon="3.39377">
        <ele>22.178107</ele>
        <time>2020-06-22T12:01:41.182Z</time>
      </trkpt>
      <trkpt lat="50.61499" lon="3.39336">
        <ele>21.856427</ele>
        <time>2020-06-22T12:01:50.464Z</time>
      </trkpt>
      <trkpt lat="50.61494" lon="3.39329">
        <ele>21.808067</ele>
        <time>2020-06-22T12:01:51.797Z</time>
      </trkpt>
      <trkpt lat="50.61475" lon="3.394">
        <ele>21.466809</ele>
        <time>2020-06-22T12:01:59.227Z</time>
      </trkpt>
      <trkpt lat="50.61451" lon="3.39492">
        <ele>21.024548</ele>
        <time>2020-06-22T12:02:09.133Z</time>
      </trkpt>
      <trkpt lat="50.61428" lon="3.39577">
        <ele>20.892376</ele>
        <time>2020-06-22T12:02:19.634Z</time>
      </trkpt>
      <trkpt lat="50.61425" lon="3.39587">
        <ele>20.891547</ele>
        <time>2020-06-22T12:02:20.897Z</time>
      </trkpt>
      <trkpt lat="50.61417" lon="3.39616">
        <ele>20.888968</ele>
        <time>2020-06-22T12:02:24.718Z</time>
      </trkpt>
      <trkpt lat="50.61409" lon="3.39644">
        <ele>20.886604</ele>
        <time>2020-06-22T12:02:28.222Z</time>
      </trkpt>
      <trkpt lat="50.614" lon="3.3968">
        <ele>20.883532</ele>
        <time>2020-06-22T12:02:32.698Z</time>
      </trkpt>
      <trkpt lat="50.61392" lon="3.3971">
        <ele>20.880882</ele>
        <time>2020-06-22T12:02:36.455Z</time>
      </trkpt>
      <trkpt lat="50.61382" lon="3.39715">
        <ele>20.879559</ele>
        <time>2020-06-22T12:02:50.553Z</time>
      </trkpt>
      <trkpt lat="50.61314" lon="3.39975">
        <ele>20.862784</ele>
        <time>2020-06-22T12:06:49.053Z</time>
      </trkpt>
      <trkpt lat="50.61282" lon="3.40095">
        <ele>21.061262</ele>
        <time>2020-06-22T12:08:39.733Z</time>
      </trkpt>
      <trkpt lat="50.6129" lon="3.401">
        <ele>21.101665</ele>
        <time>2020-06-22T12:08:51.525Z</time>
      </trkpt>
      <trkpt lat="50.61283" lon="3.40126">
        <ele>21.18461</ele>
        <time>2020-06-22T12:08:54.775Z</time>
      </trkpt>
      <trkpt lat="50.61249" lon="3.40252">
        <ele>21.583625</ele>
        <time>2020-06-22T12:09:12.892Z</time>
      </trkpt>
      <trkpt lat="50.61248" lon="3.40255">
        <ele>21.591398</ele>
        <time>2020-06-22T12:09:13.381Z</time>
      </trkpt>
      <trkpt lat="50.61245" lon="3.40259">
        <ele>21.61125</ele>
        <time>2020-06-22T12:09:14.191Z</time>
      </trkpt>
      <trkpt lat="50.61227" lon="3.40262">
        <ele>21.698515</ele>
        <time>2020-06-22T12:09:18.676Z</time>
      </trkpt>
      <trkpt lat="50.61217" lon="3.40256">
        <ele>21.754006</ele>
        <time>2020-06-22T12:09:20.891Z</time>
      </trkpt>
      <trkpt lat="50.61209" lon="3.40238">
        <ele>21.830629</ele>
        <time>2020-06-22T12:09:23.920Z</time>
      </trkpt>
      <trkpt lat="50.61186" lon="3.40189">
        <ele>22.044765</ele>
        <time>2020-06-22T12:09:32.204Z</time>
      </trkpt>
      <trkpt lat="50.6116" lon="3.40136">
        <ele>22.27685</ele>
        <time>2020-06-22T12:09:40.752Z</time>
      </trkpt>
      <trkpt lat="50.61142" lon="3.40102">
        <ele>22.429144</ele>
        <time>2020-06-22T12:09:46.159Z</time>
      </trkpt>
      <trkpt lat="50.61137" lon="3.40091">
        <ele>22.478965</ele>
        <time>2020-06-22T12:09:48.187Z</time>
      </trkpt>
      <trkpt lat="50.61131" lon="3.40081">
        <ele>22.5271</ele>
        <time>2020-06-22T12:09:49.774Z</time>
      </trkpt>
      <trkpt lat="50.61129" lon="3.40077">
        <ele>22.544918</ele>
        <time>2020-06-22T12:09:50.391Z</time>
      </trkpt>
      <trkpt lat="50.61125" lon="3.40071">
        <ele>22.573683</ele>
        <time>2020-06-22T12:09:51.389Z</time>
      </trkpt>
      <trkpt lat="50.61118" lon="3.40057">
        <ele>22.637693</ele>
        <time>2020-06-22T12:09:53.656Z</time>
      </trkpt>
      <trkpt lat="50.61111" lon="3.40044">
        <ele>22.66337</ele>
        <time>2020-06-22T12:09:55.786Z</time>
      </trkpt>
      <trkpt lat="50.6109" lon="3.40003">
        <ele>22.598051</ele>
        <time>2020-06-22T12:10:02.365Z</time>
      </trkpt>
      <trkpt lat="50.61078" lon="3.3998">
        <ele>22.561031</ele>
        <time>2020-06-22T12:10:05.734Z</time>
      </trkpt>
      <trkpt lat="50.61043" lon="3.39923">
        <ele>22.462077</ele>
        <time>2020-06-22T12:10:13.953Z</time>
      </trkpt>
      <trkpt lat="50.61038" lon="3.3993">
        <ele>22.448827</ele>
        <time>2020-06-22T12:10:15.398Z</time>
      </trkpt>
      <trkpt lat="50.60988" lon="3.39995">
        <ele>22.323141</ele>
        <time>2020-06-22T12:10:29.580Z</time>
      </trkpt>
      <trkpt lat="50.60949" lon="3.40049">
        <ele>22.239288</ele>
        <time>2020-06-22T12:10:42.071Z</time>
      </trkpt>
      <trkpt lat="50.60943" lon="3.40056">
        <ele>22.228209</ele>
        <time>2020-06-22T12:10:43.672Z</time>
      </trkpt>
      <trkpt lat="50.60884" lon="3.40136">
        <ele>22.103555</ele>
        <time>2020-06-22T12:11:02.506Z</time>
      </trkpt>
      <trkpt lat="50.60858" lon="3.40157">
        <ele>22.057162</ele>
        <time>2020-06-22T12:11:07.798Z</time>
      </trkpt>
      <trkpt lat="50.60735" lon="3.40257">
        <ele>21.804315</ele>
        <time>2020-06-22T12:11:31.123Z</time>
      </trkpt>
      <trkpt lat="50.60729" lon="3.40262">
        <ele>21.7907</ele>
        <time>2020-06-22T12:11:32.330Z</time>
      </trkpt>
      <trkpt lat="50.60722" lon="3.40266">
        <ele>21.777848</ele>
        <time>2020-06-22T12:11:33.516Z</time>
      </trkpt>
      <trkpt lat="50.60657" lon="3.40308">
        <ele>21.703543</ele>
        <time>2020-06-22T12:11:45.330Z</time>
      </trkpt>
      <trkpt lat="50.6065" lon="3.40313">
        <ele>21.704635</ele>
        <time>2020-06-22T12:11:46.788Z</time>
      </trkpt>
      <trkpt lat="50.60644" lon="3.40302">
        <ele>21.705903</ele>
        <time>2020-06-22T12:11:48.352Z</time>
      </trkpt>
      <trkpt lat="50.60637" lon="3.40295">
        <ele>21.707033</ele>
        <time>2020-06-22T12:11:49.667Z</time>
      </trkpt>
      <trkpt lat="50.60633" lon="3.40311">
        <ele>21.708512</ele>
        <time>2020-06-22T12:11:51.578Z</time>
      </trkpt>
      <trkpt lat="50.60621" lon="3.40325">
        <ele>21.710584</ele>
        <time>2020-06-22T12:11:55.249Z</time>
      </trkpt>
      <trkpt lat="50.6051" lon="3.40375">
        <ele>21.699181</ele>
        <time>2020-06-22T12:12:23.864Z</time>
      </trkpt>
      <trkpt lat="50.60455" lon="3.40403">
        <ele>21.603114</ele>
        <time>2020-06-22T12:12:38.874Z</time>
      </trkpt>
      <trkpt lat="50.60441" lon="3.4041">
        <ele>21.577515</ele>
        <time>2020-06-22T12:12:42.626Z</time>
      </trkpt>
      <trkpt lat="50.60399" lon="3.40432">
        <ele>21.504123</ele>
        <time>2020-06-22T12:12:52.863Z</time>
      </trkpt>
      <trkpt lat="50.60391" lon="3.40428">
        <ele>21.491114</ele>
        <time>2020-06-22T12:12:54.591Z</time>
      </trkpt>
      <trkpt lat="50.60372" lon="3.40416">
        <ele>21.456332</ele>
        <time>2020-06-22T12:12:59.221Z</time>
      </trkpt>
      <trkpt lat="50.60337" lon="3.40396">
        <ele>21.229761</ele>
        <time>2020-06-22T12:13:07.265Z</time>
      </trkpt>
      <trkpt lat="50.60333" lon="3.40393">
        <ele>21.184139</ele>
        <time>2020-06-22T12:13:08.169Z</time>
      </trkpt>
      <trkpt lat="50.6033" lon="3.40392">
        <ele>21.15569</ele>
        <time>2020-06-22T12:13:08.731Z</time>
      </trkpt>
      <trkpt lat="50.60305" lon="3.40376">
        <ele>20.873659</ele>
        <time>2020-06-22T12:13:14.223Z</time>
      </trkpt>
      <trkpt lat="50.60287" lon="3.40368">
        <ele>20.676549</ele>
        <time>2020-06-22T12:13:17.998Z</time>
      </trkpt>
      <trkpt lat="50.60205" lon="3.40316">
        <ele>19.741427</ele>
        <time>2020-06-22T12:13:35.636Z</time>
      </trkpt>
      <trkpt lat="50.602" lon="3.40311">
        <ele>19.674145</ele>
        <time>2020-06-22T12:13:36.962Z</time>
      </trkpt>
      <trkpt lat="50.60192" lon="3.40302">
        <ele>19.578067</ele>
        <time>2020-06-22T12:13:39.006Z</time>
      </trkpt>
      <trkpt lat="50.60179" lon="3.40292">
        <ele>19.607514</ele>
        <time>2020-06-22T12:13:41.964Z</time>
      </trkpt>
      <trkpt lat="50.60148" lon="3.40251">
        <ele>19.943485</ele>
        <time>2020-06-22T12:13:51.378Z</time>
      </trkpt>
      <trkpt lat="50.60116" lon="3.40206">
        <ele>20.296459</ele>
        <time>2020-06-22T12:14:02.721Z</time>
      </trkpt>
      <trkpt lat="50.60113" lon="3.402">
        <ele>20.337681</ele>
        <time>2020-06-22T12:14:04.311Z</time>
      </trkpt>
      <trkpt lat="50.60096" lon="3.40176">
        <ele>20.528478</ele>
        <time>2020-06-22T12:14:11.509Z</time>
      </trkpt>
      <trkpt lat="50.60088" lon="3.40163">
        <ele>20.619619</ele>
        <time>2020-06-22T12:14:15.182Z</time>
      </trkpt>
      <trkpt lat="50.60085" lon="3.40155">
        <ele>20.669097</ele>
        <time>2020-06-22T12:14:17.264Z</time>
      </trkpt>
      <trkpt lat="50.60082" lon="3.40144">
        <ele>20.730023</ele>
        <time>2020-06-22T12:14:19.446Z</time>
      </trkpt>
      <trkpt lat="50.60076" lon="3.40134">
        <ele>20.804888</ele>
        <time>2020-06-22T12:14:22.409Z</time>
      </trkpt>
      <trkpt lat="50.60026" lon="3.40058">
        <ele>22.082107</ele>
        <time>2020-06-22T12:14:47.077Z</time>
      </trkpt>
      <trkpt lat="50.60015" lon="3.40039">
        <ele>22.498157</ele>
        <time>2020-06-22T12:14:53.834Z</time>
      </trkpt>
      <trkpt lat="50.6001" lon="3.40035">
        <ele>22.628885</ele>
        <time>2020-06-22T12:14:55.922Z</time>
      </trkpt>
      <trkpt lat="50.60007" lon="3.40012">
        <ele>22.992694</ele>
        <time>2020-06-22T12:15:00.818Z</time>
      </trkpt>
      <trkpt lat="50.60012" lon="3.40001">
        <ele>23.193544</ele>
        <time>2020-06-22T12:15:03.809Z</time>
      </trkpt>
      <trkpt lat="50.60015" lon="3.39947">
        <ele>24.04383</ele>
        <time>2020-06-22T12:15:14.639Z</time>
      </trkpt>
      <trkpt lat="50.60024" lon="3.39922">
        <ele>24.482436</ele>
        <time>2020-06-22T12:15:19.505Z</time>
      </trkpt>
      <trkpt lat="50.60056" lon="3.3988">
        <ele>25.430861</ele>
        <time>2020-06-22T12:15:31.024Z</time>
      </trkpt>
      <trkpt lat="50.60059" lon="3.39872">
        <ele>25.492977</ele>
        <time>2020-06-22T12:15:33.093Z</time>
      </trkpt>
      <trkpt lat="50.60058" lon="3.3986">
        <ele>25.566038</ele>
        <time>2020-06-22T12:15:35.191Z</time>
      </trkpt>
      <trkpt lat="50.60057" lon="3.39856">
        <ele>25.595451</ele>
        <time>2020-06-22T12:15:35.806Z</time>
      </trkpt>
      <trkpt lat="50.60055" lon="3.39851">
        <ele>25.636072</ele>
        <time>2020-06-22T12:15:36.702Z</time>
      </trkpt>
      <trkpt lat="50.60051" lon="3.39847">
        <ele>25.682158</ele>
        <time>2020-06-22T12:15:37.665Z</time>
      </trkpt>
      <trkpt lat="50.60047" lon="3.39842">
        <ele>25.738948</ele>
        <time>2020-06-22T12:15:38.888Z</time>
      </trkpt>
      <trkpt lat="50.6004" lon="3.39841">
        <ele>25.810128</ele>
        <time>2020-06-22T12:15:40.635Z</time>
      </trkpt>
      <trkpt lat="50.60031" lon="3.39848">
        <ele>25.909015</ele>
        <time>2020-06-22T12:15:43.456Z</time>
      </trkpt>
      <trkpt lat="50.60028" lon="3.39852">
        <ele>25.951758</ele>
        <time>2020-06-22T12:15:44.350Z</time>
      </trkpt>
      <trkpt lat="50.60022" lon="3.39892">
        <ele>26.213493</ele>
        <time>2020-06-22T12:15:49.795Z</time>
      </trkpt>
      <trkpt lat="50.60018" lon="3.399">
        <ele>26.277802</ele>
        <time>2020-06-22T12:15:51.127Z</time>
      </trkpt>
      <trkpt lat="50.60011" lon="3.39917">
        <ele>26.409589</ele>
        <time>2020-06-22T12:15:53.454Z</time>
      </trkpt>
      <trkpt lat="50.59998" lon="3.39939">
        <ele>26.603219</ele>
        <time>2020-06-22T12:15:57.599Z</time>
      </trkpt>
      <trkpt lat="50.59981" lon="3.39944">
        <ele>26.784512</ele>
        <time>2020-06-22T12:16:00.711Z</time>
      </trkpt>
      <trkpt lat="50.59969" lon="3.3996">
        <ele>26.948745</ele>
        <time>2020-06-22T12:16:04.268Z</time>
      </trkpt>
      <trkpt lat="50.59965" lon="3.39974">
        <ele>27.042409</ele>
        <time>2020-06-22T12:16:06.186Z</time>
      </trkpt>
      <trkpt lat="50.59964" lon="3.39984">
        <ele>27.106278</ele>
        <time>2020-06-22T12:16:07.479Z</time>
      </trkpt>
      <trkpt lat="50.59964" lon="3.39987">
        <ele>27.127143</ele>
        <time>2020-06-22T12:16:07.848Z</time>
      </trkpt>
      <trkpt lat="50.59965" lon="3.39993">
        <ele>27.168623</ele>
        <time>2020-06-22T12:16:08.605Z</time>
      </trkpt>
      <trkpt lat="50.59962" lon="3.40003">
        <ele>27.248153</ele>
        <time>2020-06-22T12:16:10.184Z</time>
      </trkpt>
      <trkpt lat="50.5995" lon="3.40025">
        <ele>27.491721</ele>
        <time>2020-06-22T12:16:14.267Z</time>
      </trkpt>
      <trkpt lat="50.5994" lon="3.40035">
        <ele>27.651679</ele>
        <time>2020-06-22T12:16:16.651Z</time>
      </trkpt>
      <trkpt lat="50.59918" lon="3.40052">
        <ele>27.991931</ele>
        <time>2020-06-22T12:16:22.543Z</time>
      </trkpt>
      <trkpt lat="50.59878" lon="3.40087">
        <ele>28.605707</ele>
        <time>2020-06-22T12:16:33.198Z</time>
      </trkpt>
      <trkpt lat="50.59863" lon="3.401">
        <ele>28.840221</ele>
        <time>2020-06-22T12:16:37.600Z</time>
      </trkpt>
      <trkpt lat="50.59829" lon="3.40128">
        <ele>29.359589</ele>
        <time>2020-06-22T12:16:48.292Z</time>
      </trkpt>
      <trkpt lat="50.59792" lon="3.4014">
        <ele>29.843581</ele>
        <time>2020-06-22T12:16:58.468Z</time>
      </trkpt>
      <trkpt lat="50.5972" lon="3.40116">
        <ele>30.764931</ele>
        <time>2020-06-22T12:17:17.494Z</time>
      </trkpt>
      <trkpt lat="50.59708" lon="3.40111">
        <ele>30.919043</ele>
        <time>2020-06-22T12:17:21.380Z</time>
      </trkpt>
      <trkpt lat="50.59641" lon="3.40087">
        <ele>31.778087</ele>
        <time>2020-06-22T12:17:35.733Z</time>
      </trkpt>
      <trkpt lat="50.59558" lon="3.40056">
        <ele>32.278478</ele>
        <time>2020-06-22T12:17:50.641Z</time>
      </trkpt>
      <trkpt lat="50.59468" lon="3.40023">
        <ele>32.753918</ele>
        <time>2020-06-22T12:18:09.120Z</time>
      </trkpt>
      <trkpt lat="50.59453" lon="3.4002">
        <ele>32.911687</ele>
        <time>2020-06-22T12:18:11.812Z</time>
      </trkpt>
      <trkpt lat="50.59462" lon="3.40008">
        <ele>33.190695</ele>
        <time>2020-06-22T12:18:16.499Z</time>
      </trkpt>
      <trkpt lat="50.59526" lon="3.39972">
        <ele>34.782231</ele>
        <time>2020-06-22T12:18:40.106Z</time>
      </trkpt>
      <trkpt lat="50.59533" lon="3.39958">
        <ele>35.040671</ele>
        <time>2020-06-22T12:18:44.399Z</time>
      </trkpt>
      <trkpt lat="50.59533" lon="3.39938">
        <ele>35.331833</ele>
        <time>2020-06-22T12:18:48.587Z</time>
      </trkpt>
      <trkpt lat="50.59512" lon="3.39861">
        <ele>36.584851</ele>
        <time>2020-06-22T12:19:10.313Z</time>
      </trkpt>
      <trkpt lat="50.59503" lon="3.39828">
        <ele>37.061811</ele>
        <time>2020-06-22T12:19:19.272Z</time>
      </trkpt>
      <trkpt lat="50.59479" lon="3.39742">
        <ele>37.794263</ele>
        <time>2020-06-22T12:19:41.479Z</time>
      </trkpt>
      <trkpt lat="50.59423" lon="3.39533">
        <ele>39.001906</ele>
        <time>2020-06-22T12:20:19.352Z</time>
      </trkpt>
      <trkpt lat="50.594" lon="3.39452">
        <ele>38.544213</ele>
        <time>2020-06-22T12:20:31.218Z</time>
      </trkpt>
      <trkpt lat="50.59398" lon="3.39432">
        <ele>38.441444</ele>
        <time>2020-06-22T12:20:33.905Z</time>
      </trkpt>
      <trkpt lat="50.59396" lon="3.39413">
        <ele>38.342414</ele>
        <time>2020-06-22T12:20:36.312Z</time>
      </trkpt>
      <trkpt lat="50.59392" lon="3.39339">
        <ele>37.966195</ele>
        <time>2020-06-22T12:20:45.909Z</time>
      </trkpt>
      <trkpt lat="50.59399" lon="3.39332">
        <ele>37.898843</ele>
        <time>2020-06-22T12:20:47.650Z</time>
      </trkpt>
      <trkpt lat="50.59395" lon="3.3926">
        <ele>37.54772</ele>
        <time>2020-06-22T12:20:56.674Z</time>
      </trkpt>
      <trkpt lat="50.59394" lon="3.39239">
        <ele>37.447221</ele>
        <time>2020-06-22T12:20:59.555Z</time>
      </trkpt>
      <trkpt lat="50.59397" lon="3.39238">
        <ele>37.421484</ele>
        <time>2020-06-22T12:21:00.337Z</time>
      </trkpt>
      <trkpt lat="50.594" lon="3.39232">
        <ele>37.391615</ele>
        <time>2020-06-22T12:21:01.241Z</time>
      </trkpt>
      <trkpt lat="50.59399" lon="3.39229">
        <ele>37.374338</ele>
        <time>2020-06-22T12:21:01.745Z</time>
      </trkpt>
      <trkpt lat="50.59399" lon="3.39226">
        <ele>37.361885</ele>
        <time>2020-06-22T12:21:02.100Z</time>
      </trkpt>
      <trkpt lat="50.59397" lon="3.39222">
        <ele>37.332935</ele>
        <time>2020-06-22T12:21:02.858Z</time>
      </trkpt>
      <trkpt lat="50.59392" lon="3.3922">
        <ele>37.299305</ele>
        <time>2020-06-22T12:21:03.735Z</time>
      </trkpt>
      <trkpt lat="50.5939" lon="3.39199">
        <ele>37.196954</ele>
        <time>2020-06-22T12:21:06.731Z</time>
      </trkpt>
      <trkpt lat="50.59383" lon="3.39103">
        <ele>36.734755</ele>
        <time>2020-06-22T12:21:21.159Z</time>
      </trkpt>
      <trkpt lat="50.59396" lon="3.39064">
        <ele>36.524748</ele>
        <time>2020-06-22T12:21:27.418Z</time>
      </trkpt>
      <trkpt lat="50.59412" lon="3.39028">
        <ele>36.150101</ele>
        <time>2020-06-22T12:21:33.475Z</time>
      </trkpt>
      <trkpt lat="50.5941" lon="3.38984">
        <ele>35.629286</ele>
        <time>2020-06-22T12:21:39.208Z</time>
      </trkpt>
      <trkpt lat="50.59405" lon="3.38917">
        <ele>34.848741</ele>
        <time>2020-06-22T12:21:47.643Z</time>
      </trkpt>
      <trkpt lat="50.59389" lon="3.38926">
        <ele>34.546235</ele>
        <time>2020-06-22T12:21:49.789Z</time>
      </trkpt>
      <trkpt lat="50.59362" lon="3.38944">
        <ele>34.009897</ele>
        <time>2020-06-22T12:21:53.630Z</time>
      </trkpt>
      <trkpt lat="50.59229" lon="3.39027">
        <ele>30.756716</ele>
        <time>2020-06-22T12:22:11.577Z</time>
      </trkpt>
      <trkpt lat="50.59092" lon="3.39122">
        <ele>27.966695</ele>
        <time>2020-06-22T12:22:30.893Z</time>
      </trkpt>
      <trkpt lat="50.58909" lon="3.39304">
        <ele>27.241073</ele>
        <time>2020-06-22T12:23:06.022Z</time>
      </trkpt>
      <trkpt lat="50.58904" lon="3.39309">
        <ele>27.271104</ele>
        <time>2020-06-22T12:23:07.540Z</time>
      </trkpt>
      <trkpt lat="50.58887" lon="3.39326">
        <ele>27.372008</ele>
        <time>2020-06-22T12:23:11.958Z</time>
      </trkpt>
      <trkpt lat="50.58668" lon="3.3946">
        <ele>31.26398</ele>
        <time>2020-06-22T12:24:15.373Z</time>
      </trkpt>
      <trkpt lat="50.58533" lon="3.39506">
        <ele>34.798297</ele>
        <time>2020-06-22T12:24:57.277Z</time>
      </trkpt>
      <trkpt lat="50.58484" lon="3.39527">
        <ele>36.170276</ele>
        <time>2020-06-22T12:25:13.183Z</time>
      </trkpt>
      <trkpt lat="50.58438" lon="3.3954">
        <ele>37.599133</ele>
        <time>2020-06-22T12:25:27.614Z</time>
      </trkpt>
      <trkpt lat="50.58257" lon="3.39525">
        <ele>43.401727</ele>
        <time>2020-06-22T12:26:27.570Z</time>
      </trkpt>
      <trkpt lat="50.58256" lon="3.39525">
        <ele>43.468281</ele>
        <time>2020-06-22T12:26:29.023Z</time>
      </trkpt>
      <trkpt lat="50.57849" lon="3.39497">
        <ele>57.410894</ele>
        <time>2020-06-22T12:28:50.016Z</time>
      </trkpt>
      <trkpt lat="50.57822" lon="3.39482">
        <ele>58.347993</ele>
        <time>2020-06-22T12:28:59.601Z</time>
      </trkpt>
      <trkpt lat="50.57736" lon="3.39415">
        <ele>60.712441</ele>
        <time>2020-06-22T12:29:29.140Z</time>
      </trkpt>
      <trkpt lat="50.57696" lon="3.39395">
        <ele>61.466294</ele>
        <time>2020-06-22T12:29:40.647Z</time>
      </trkpt>
      <trkpt lat="50.57647" lon="3.39385">
        <ele>62.361907</ele>
        <time>2020-06-22T12:29:53.317Z</time>
      </trkpt>
      <trkpt lat="50.57541" lon="3.39409">
        <ele>62.897543</ele>
        <time>2020-06-22T12:30:15.068Z</time>
      </trkpt>
      <trkpt lat="50.57506" lon="3.39426">
        <ele>62.845217</ele>
        <time>2020-06-22T12:30:21.248Z</time>
      </trkpt>
      <trkpt lat="50.57486" lon="3.39435">
        <ele>62.816344</ele>
        <time>2020-06-22T12:30:24.438Z</time>
      </trkpt>
      <trkpt lat="50.57308" lon="3.39461">
        <ele>61.612607</ele>
        <time>2020-06-22T12:30:50.856Z</time>
      </trkpt>
      <trkpt lat="50.57273" lon="3.39465">
        <ele>61.298054</ele>
        <time>2020-06-22T12:30:56.154Z</time>
      </trkpt>
      <trkpt lat="50.57273" lon="3.39465">
        <ele>61.298054</ele>
        <time>2020-06-22T12:30:56.198Z</time>
      </trkpt>
      <trkpt lat="50.57273" lon="3.39465">
        <ele>61.298054</ele>
        <time>2020-06-22T12:30:56.202Z</time>
      </trkpt>
      <trkpt lat="50.57268" lon="3.39464">
        <ele>61.251156</ele>
        <time>2020-06-22T12:30:56.964Z</time>
      </trkpt>
      <trkpt lat="50.57131" lon="3.39439">
        <ele>60.327688</ele>
        <time>2020-06-22T12:31:17.881Z</time>
      </trkpt>
      <trkpt lat="50.57021" lon="3.39385">
        <ele>59.648115</ele>
        <time>2020-06-22T12:31:36.439Z</time>
      </trkpt>
      <trkpt lat="50.56984" lon="3.39373">
        <ele>59.444247</ele>
        <time>2020-06-22T12:31:42.627Z</time>
      </trkpt>
      <trkpt lat="50.56864" lon="3.39359">
        <ele>58.633651</ele>
        <time>2020-06-22T12:32:01.399Z</time>
      </trkpt>
      <trkpt lat="50.56801" lon="3.39345">
        <ele>58.018799</ele>
        <time>2020-06-22T12:32:11.026Z</time>
      </trkpt>
      <trkpt lat="50.56771" lon="3.39336">
        <ele>57.725582</ele>
        <time>2020-06-22T12:32:15.471Z</time>
      </trkpt>
      <trkpt lat="50.56646" lon="3.39303">
        <ele>55.989732</ele>
        <time>2020-06-22T12:32:33.098Z</time>
      </trkpt>
      <trkpt lat="50.56572" lon="3.39286">
        <ele>54.785134</ele>
        <time>2020-06-22T12:32:43.245Z</time>
      </trkpt>
      <trkpt lat="50.56528" lon="3.39276">
        <ele>54.073428</ele>
        <time>2020-06-22T12:32:49.174Z</time>
      </trkpt>
      <trkpt lat="50.56464" lon="3.39256">
        <ele>53.001363</ele>
        <time>2020-06-22T12:32:57.965Z</time>
      </trkpt>
      <trkpt lat="50.56122" lon="3.39126">
        <ele>47.392061</ele>
        <time>2020-06-22T12:33:46.470Z</time>
      </trkpt>
      <trkpt lat="50.5604" lon="3.39107">
        <ele>45.997093</ele>
        <time>2020-06-22T12:33:57.622Z</time>
      </trkpt>
      <trkpt lat="50.56036" lon="3.39106">
        <ele>45.926071</ele>
        <time>2020-06-22T12:33:58.194Z</time>
      </trkpt>
      <trkpt lat="50.55959" lon="3.39088">
        <ele>44.62883</ele>
        <time>2020-06-22T12:34:08.602Z</time>
      </trkpt>
      <trkpt lat="50.55904" lon="3.39075">
        <ele>43.691607</ele>
        <time>2020-06-22T12:34:16.136Z</time>
      </trkpt>
      <trkpt lat="50.55849" lon="3.39063">
        <ele>42.740866</ele>
        <time>2020-06-22T12:34:23.806Z</time>
      </trkpt>
      <trkpt lat="50.55742" lon="3.39038">
        <ele>40.916308</ele>
        <time>2020-06-22T12:34:38.527Z</time>
      </trkpt>
      <trkpt lat="50.55567" lon="3.38999">
        <ele>37.968547</ele>
        <time>2020-06-22T12:35:02.306Z</time>
      </trkpt>
      <trkpt lat="50.5537" lon="3.39003">
        <ele>35.232221</ele>
        <time>2020-06-22T12:35:29.741Z</time>
      </trkpt>
      <trkpt lat="50.55359" lon="3.39002">
        <ele>35.095925</ele>
        <time>2020-06-22T12:35:31.335Z</time>
      </trkpt>
      <trkpt lat="50.55349" lon="3.38997">
        <ele>34.965894</ele>
        <time>2020-06-22T12:35:32.863Z</time>
      </trkpt>
      <trkpt lat="50.55343" lon="3.38997">
        <ele>34.891099</ele>
        <time>2020-06-22T12:35:33.759Z</time>
      </trkpt>
      <trkpt lat="50.55355" lon="3.38973">
        <ele>34.654128</ele>
        <time>2020-06-22T12:35:36.658Z</time>
      </trkpt>
      <trkpt lat="50.55345" lon="3.38963">
        <ele>34.514698</ele>
        <time>2020-06-22T12:35:38.993Z</time>
      </trkpt>
      <trkpt lat="50.55291" lon="3.38926">
        <ele>34.061024</ele>
        <time>2020-06-22T12:35:51.683Z</time>
      </trkpt>
      <trkpt lat="50.55212" lon="3.38853">
        <ele>33.400018</ele>
        <time>2020-06-22T12:36:11.790Z</time>
      </trkpt>
      <trkpt lat="50.55128" lon="3.38703">
        <ele>32.343802</ele>
        <time>2020-06-22T12:36:39.173Z</time>
      </trkpt>
      <trkpt lat="50.55124" lon="3.38698">
        <ele>32.299469</ele>
        <time>2020-06-22T12:36:40.218Z</time>
      </trkpt>
      <trkpt lat="50.55116" lon="3.38691">
        <ele>32.221545</ele>
        <time>2020-06-22T12:36:42.168Z</time>
      </trkpt>
      <trkpt lat="50.55104" lon="3.38687">
        <ele>32.114175</ele>
        <time>2020-06-22T12:36:44.859Z</time>
      </trkpt>
      <trkpt lat="50.55064" lon="3.38684">
        <ele>31.767354</ele>
        <time>2020-06-22T12:36:53.100Z</time>
      </trkpt>
      <trkpt lat="50.54997" lon="3.38664">
        <ele>31.207858</ele>
        <time>2020-06-22T12:37:07.118Z</time>
      </trkpt>
      <trkpt lat="50.54991" lon="3.38664">
        <ele>31.156211</ele>
        <time>2020-06-22T12:37:08.345Z</time>
      </trkpt>
      <trkpt lat="50.54983" lon="3.38663">
        <ele>31.091637</ele>
        <time>2020-06-22T12:37:09.923Z</time>
      </trkpt>
      <trkpt lat="50.54932" lon="3.38656">
        <ele>30.6817</ele>
        <time>2020-06-22T12:37:20.710Z</time>
      </trkpt>
      <trkpt lat="50.54912" lon="3.38653">
        <ele>30.519597</ele>
        <time>2020-06-22T12:37:24.933Z</time>
      </trkpt>
      <trkpt lat="50.54912" lon="3.38653">
        <ele>30.519597</ele>
        <time>2020-06-22T12:37:24.938Z</time>
      </trkpt>
      <trkpt lat="50.54892" lon="3.38649">
        <ele>30.351596</ele>
        <time>2020-06-22T12:37:29.796Z</time>
      </trkpt>
      <trkpt lat="50.54893" lon="3.38623">
        <ele>30.220003</ele>
        <time>2020-06-22T12:37:33.290Z</time>
      </trkpt>
      <trkpt lat="50.54898" lon="3.38516">
        <ele>30.309651</ele>
        <time>2020-06-22T12:37:49.633Z</time>
      </trkpt>
      <trkpt lat="50.549" lon="3.3843">
        <ele>30.467715</ele>
        <time>2020-06-22T12:38:03.879Z</time>
      </trkpt>
      <trkpt lat="50.54902" lon="3.38388">
        <ele>30.544597</ele>
        <time>2020-06-22T12:38:11.141Z</time>
      </trkpt>
      <trkpt lat="50.54927" lon="3.38292">
        <ele>30.803392</ele>
        <time>2020-06-22T12:38:29.534Z</time>
      </trkpt>
      <trkpt lat="50.54935" lon="3.38234">
        <ele>31.007148</ele>
        <time>2020-06-22T12:38:39.863Z</time>
      </trkpt>
      <trkpt lat="50.54937" lon="3.38218">
        <ele>31.064795</ele>
        <time>2020-06-22T12:38:43.015Z</time>
      </trkpt>
      <trkpt lat="50.54946" lon="3.38123">
        <ele>31.398668</ele>
        <time>2020-06-22T12:38:59.189Z</time>
      </trkpt>
      <trkpt lat="50.54946" lon="3.38062">
        <ele>31.609218</ele>
        <time>2020-06-22T12:39:09.380Z</time>
      </trkpt>
      <trkpt lat="50.54937" lon="3.38008">
        <ele>31.69925</ele>
        <time>2020-06-22T12:39:18.539Z</time>
      </trkpt>
      <trkpt lat="50.54911" lon="3.37924">
        <ele>31.811701</ele>
        <time>2020-06-22T12:39:33.426Z</time>
      </trkpt>
      <trkpt lat="50.54902" lon="3.37898">
        <ele>31.846866</ele>
        <time>2020-06-22T12:39:37.947Z</time>
      </trkpt>
      <trkpt lat="50.54905" lon="3.37881">
        <ele>31.868929</ele>
        <time>2020-06-22T12:39:40.834Z</time>
      </trkpt>
      <trkpt lat="50.54921" lon="3.37832">
        <ele>31.934067</ele>
        <time>2020-06-22T12:39:49.223Z</time>
      </trkpt>
      <trkpt lat="50.54939" lon="3.37777">
        <ele>32.11334</ele>
        <time>2020-06-22T12:39:59.338Z</time>
      </trkpt>
      <trkpt lat="50.5494" lon="3.37746">
        <ele>32.308407</ele>
        <time>2020-06-22T12:40:04.300Z</time>
      </trkpt>
      <trkpt lat="50.54935" lon="3.37706">
        <ele>32.563236</ele>
        <time>2020-06-22T12:40:11.646Z</time>
      </trkpt>
      <trkpt lat="50.54942" lon="3.37659">
        <ele>32.86726</ele>
        <time>2020-06-22T12:40:20.387Z</time>
      </trkpt>
      <trkpt lat="50.54951" lon="3.37642">
        <ele>33.005292</ele>
        <time>2020-06-22T12:40:24.267Z</time>
      </trkpt>
      <trkpt lat="50.5491" lon="3.37578">
        <ele>33.579021</ele>
        <time>2020-06-22T12:40:41.796Z</time>
      </trkpt>
      <trkpt lat="50.54887" lon="3.37551">
        <ele>33.95468</ele>
        <time>2020-06-22T12:40:50.972Z</time>
      </trkpt>
      <trkpt lat="50.54875" lon="3.37542">
        <ele>34.22126</ele>
        <time>2020-06-22T12:40:55.618Z</time>
      </trkpt>
      <trkpt lat="50.54876" lon="3.37525">
        <ele>34.443899</ele>
        <time>2020-06-22T12:40:58.631Z</time>
      </trkpt>
      <trkpt lat="50.54871" lon="3.37486">
        <ele>34.949267</ele>
        <time>2020-06-22T12:41:05.760Z</time>
      </trkpt>
      <trkpt lat="50.54848" lon="3.37387">
        <ele>36.286629</ele>
        <time>2020-06-22T12:41:24.975Z</time>
      </trkpt>
      <trkpt lat="50.54845" lon="3.37372">
        <ele>36.485693</ele>
        <time>2020-06-22T12:41:28.273Z</time>
      </trkpt>
      <trkpt lat="50.54827" lon="3.37287">
        <ele>37.411092</ele>
        <time>2020-06-22T12:41:43.496Z</time>
      </trkpt>
      <trkpt lat="50.54822" lon="3.37263">
        <ele>37.477492</ele>
        <time>2020-06-22T12:41:48.143Z</time>
      </trkpt>
      <trkpt lat="50.54805" lon="3.37182">
        <ele>37.705119</ele>
        <time>2020-06-22T12:42:00.506Z</time>
      </trkpt>
      <trkpt lat="50.54763" lon="3.37012">
        <ele>37.917653</ele>
        <time>2020-06-22T12:42:19.350Z</time>
      </trkpt>
      <trkpt lat="50.5476" lon="3.36985">
        <ele>37.756146</ele>
        <time>2020-06-22T12:42:21.584Z</time>
      </trkpt>
      <trkpt lat="50.54755" lon="3.36918">
        <ele>37.346449</ele>
        <time>2020-06-22T12:42:27.878Z</time>
      </trkpt>
      <trkpt lat="50.54753" lon="3.36816">
        <ele>36.736329</ele>
        <time>2020-06-22T12:42:36.966Z</time>
      </trkpt>
      <trkpt lat="50.54752" lon="3.36795">
        <ele>36.609212</ele>
        <time>2020-06-22T12:42:39.246Z</time>
      </trkpt>
      <trkpt lat="50.5475" lon="3.36749">
        <ele>36.426748</ele>
        <time>2020-06-22T12:42:43.505Z</time>
      </trkpt>
      <trkpt lat="50.54738" lon="3.36717">
        <ele>36.512312</ele>
        <time>2020-06-22T12:42:47.177Z</time>
      </trkpt>
      <trkpt lat="50.54734" lon="3.36706">
        <ele>36.542729</ele>
        <time>2020-06-22T12:42:48.975Z</time>
      </trkpt>
      <trkpt lat="50.54735" lon="3.36696">
        <ele>36.566386</ele>
        <time>2020-06-22T12:42:50.430Z</time>
      </trkpt>
      <trkpt lat="50.54743" lon="3.36657">
        <ele>36.662874</ele>
        <time>2020-06-22T12:42:54.878Z</time>
      </trkpt>
      <trkpt lat="50.54787" lon="3.36512">
        <ele>37.044887</ele>
        <time>2020-06-22T12:43:17.333Z</time>
      </trkpt>
      <trkpt lat="50.54791" lon="3.365">
        <ele>37.076768</ele>
        <time>2020-06-22T12:43:19.362Z</time>
      </trkpt>
      <trkpt lat="50.54792" lon="3.36496">
        <ele>37.09183</ele>
        <time>2020-06-22T12:43:20.547Z</time>
      </trkpt>
      <trkpt lat="50.54807" lon="3.36439">
        <ele>37.282573</ele>
        <time>2020-06-22T12:43:31.502Z</time>
      </trkpt>
      <trkpt lat="50.54821" lon="3.36349">
        <ele>37.57207</ele>
        <time>2020-06-22T12:43:47.372Z</time>
      </trkpt>
      <trkpt lat="50.54851" lon="3.36033">
        <ele>38.306031</ele>
        <time>2020-06-22T12:44:38.748Z</time>
      </trkpt>
      <trkpt lat="50.54867" lon="3.35956">
        <ele>38.451265</ele>
        <time>2020-06-22T12:44:52.170Z</time>
      </trkpt>
      <trkpt lat="50.54903" lon="3.35874">
        <ele>39.136633</ele>
        <time>2020-06-22T12:45:09.243Z</time>
      </trkpt>
      <trkpt lat="50.55006" lon="3.35719">
        <ele>41.042741</ele>
        <time>2020-06-22T12:45:53.041Z</time>
      </trkpt>
      <trkpt lat="50.55019" lon="3.35694">
        <ele>41.548553</ele>
        <time>2020-06-22T12:45:59.873Z</time>
      </trkpt>
      <trkpt lat="50.55141" lon="3.3542">
        <ele>47.803887</ele>
        <time>2020-06-22T12:47:20.555Z</time>
      </trkpt>
      <trkpt lat="50.55146" lon="3.35411">
        <ele>48.100594</ele>
        <time>2020-06-22T12:47:24.490Z</time>
      </trkpt>
      <trkpt lat="50.55189" lon="3.35315">
        <ele>50.910761</ele>
        <time>2020-06-22T12:47:57.334Z</time>
      </trkpt>
      <trkpt lat="50.55251" lon="3.35166">
        <ele>55.258724</ele>
        <time>2020-06-22T12:48:51.282Z</time>
      </trkpt>
      <trkpt lat="50.55263" lon="3.35091">
        <ele>57.137698</ele>
        <time>2020-06-22T12:49:10.877Z</time>
      </trkpt>
      <trkpt lat="50.55264" lon="3.3508">
        <ele>57.403669</ele>
        <time>2020-06-22T12:49:14.654Z</time>
      </trkpt>
      <trkpt lat="50.55266" lon="3.35065">
        <ele>57.764912</ele>
        <time>2020-06-22T12:49:18.076Z</time>
      </trkpt>
      <trkpt lat="50.55296" lon="3.34964">
        <ele>59.099461</ele>
        <time>2020-06-22T12:49:42.634Z</time>
      </trkpt>
      <trkpt lat="50.55305" lon="3.34916">
        <ele>59.42984</ele>
        <time>2020-06-22T12:49:52.820Z</time>
      </trkpt>
      <trkpt lat="50.55311" lon="3.34846">
        <ele>59.886631</ele>
        <time>2020-06-22T12:50:05.409Z</time>
      </trkpt>
      <trkpt lat="50.55307" lon="3.34833">
        <ele>59.978918</ele>
        <time>2020-06-22T12:50:07.343Z</time>
      </trkpt>
      <trkpt lat="50.55297" lon="3.3482">
        <ele>60.115793</ele>
        <time>2020-06-22T12:50:09.549Z</time>
      </trkpt>
      <trkpt lat="50.55228" lon="3.3475">
        <ele>60.340075</ele>
        <time>2020-06-22T12:50:23.065Z</time>
      </trkpt>
      <trkpt lat="50.55224" lon="3.3474">
        <ele>60.325169</ele>
        <time>2020-06-22T12:50:24.260Z</time>
      </trkpt>
      <trkpt lat="50.5522" lon="3.34731">
        <ele>60.311203</ele>
        <time>2020-06-22T12:50:25.349Z</time>
      </trkpt>
      <trkpt lat="50.55133" lon="3.34444">
        <ele>60.005724</ele>
        <time>2020-06-22T12:51:00.479Z</time>
      </trkpt>
      <trkpt lat="50.55127" lon="3.34428">
        <ele>59.995251</ele>
        <time>2020-06-22T12:51:02.600Z</time>
      </trkpt>
      <trkpt lat="50.55116" lon="3.34404">
        <ele>59.977519</ele>
        <time>2020-06-22T12:51:05.925Z</time>
      </trkpt>
      <trkpt lat="50.55092" lon="3.34362">
        <ele>59.944272</ele>
        <time>2020-06-22T12:51:12.077Z</time>
      </trkpt>
      <trkpt lat="50.55088" lon="3.34356">
        <ele>59.939427</ele>
        <time>2020-06-22T12:51:12.941Z</time>
      </trkpt>
      <trkpt lat="50.55072" lon="3.34329">
        <ele>59.918649</ele>
        <time>2020-06-22T12:51:17.076Z</time>
      </trkpt>
      <trkpt lat="50.55062" lon="3.34307">
        <ele>59.906905</ele>
        <time>2020-06-22T12:51:19.990Z</time>
      </trkpt>
      <trkpt lat="50.55018" lon="3.34199">
        <ele>59.851764</ele>
        <time>2020-06-22T12:51:34.294Z</time>
      </trkpt>
      <trkpt lat="50.55015" lon="3.34192">
        <ele>59.848362</ele>
        <time>2020-06-22T12:51:35.049Z</time>
      </trkpt>
      <trkpt lat="50.55013" lon="3.34185">
        <ele>59.844915</ele>
        <time>2020-06-22T12:51:36.025Z</time>
      </trkpt>
      <trkpt lat="50.55008" lon="3.34172">
        <ele>59.838364</ele>
        <time>2020-06-22T12:51:37.603Z</time>
      </trkpt>
      <trkpt lat="50.55002" lon="3.34166">
        <ele>59.833865</ele>
        <time>2020-06-22T12:51:38.750Z</time>
      </trkpt>
      <trkpt lat="50.55002" lon="3.34163">
        <ele>59.832393</ele>
        <time>2020-06-22T12:51:39.160Z</time>
      </trkpt>
      <trkpt lat="50.54999" lon="3.34157">
        <ele>59.829459</ele>
        <time>2020-06-22T12:51:39.948Z</time>
      </trkpt>
      <trkpt lat="50.54998" lon="3.34156">
        <ele>59.827985</ele>
        <time>2020-06-22T12:51:40.372Z</time>
      </trkpt>
      <trkpt lat="50.54995" lon="3.34155">
        <ele>59.826139</ele>
        <time>2020-06-22T12:51:40.804Z</time>
      </trkpt>
      <trkpt lat="50.5499" lon="3.34159">
        <ele>59.822385</ele>
        <time>2020-06-22T12:51:41.752Z</time>
      </trkpt>
      <trkpt lat="50.54988" lon="3.34162">
        <ele>59.820503</ele>
        <time>2020-06-22T12:51:42.305Z</time>
      </trkpt>
      <trkpt lat="50.54981" lon="3.34168">
        <ele>59.815326</ele>
        <time>2020-06-22T12:51:43.594Z</time>
      </trkpt>
      <trkpt lat="50.54971" lon="3.34173">
        <ele>59.807641</ele>
        <time>2020-06-22T12:51:45.575Z</time>
      </trkpt>
      <trkpt lat="50.54967" lon="3.34172">
        <ele>59.805488</ele>
        <time>2020-06-22T12:51:46.175Z</time>
      </trkpt>
      <trkpt lat="50.54965" lon="3.34171">
        <ele>59.8037</ele>
        <time>2020-06-22T12:51:46.679Z</time>
      </trkpt>
      <trkpt lat="50.5496" lon="3.34169">
        <ele>59.800033</ele>
        <time>2020-06-22T12:51:47.519Z</time>
      </trkpt>
      <trkpt lat="50.54945" lon="3.34164">
        <ele>59.814238</ele>
        <time>2020-06-22T12:51:50.318Z</time>
      </trkpt>
      <trkpt lat="50.54935" lon="3.3416">
        <ele>59.826676</ele>
        <time>2020-06-22T12:51:52.260Z</time>
      </trkpt>
      <trkpt lat="50.54931" lon="3.34158">
        <ele>59.831602</ele>
        <time>2020-06-22T12:51:53.043Z</time>
      </trkpt>
      <trkpt lat="50.54928" lon="3.34157">
        <ele>59.835175</ele>
        <time>2020-06-22T12:51:53.565Z</time>
      </trkpt>
      <trkpt lat="50.5492" lon="3.34153">
        <ele>59.845186</ele>
        <time>2020-06-22T12:51:55.078Z</time>
      </trkpt>
      <trkpt lat="50.54906" lon="3.34146">
        <ele>59.863742</ele>
        <time>2020-06-22T12:51:58.090Z</time>
      </trkpt>
      <trkpt lat="50.54888" lon="3.34137">
        <ele>59.886048</ele>
        <time>2020-06-22T12:52:01.549Z</time>
      </trkpt>
      <trkpt lat="50.54883" lon="3.34135">
        <ele>59.891555</ele>
        <time>2020-06-22T12:52:02.542Z</time>
      </trkpt>
      <trkpt lat="50.54866" lon="3.34132">
        <ele>59.912651</ele>
        <time>2020-06-22T12:52:06.022Z</time>
      </trkpt>
      <trkpt lat="50.54853" lon="3.34131">
        <ele>59.927658</ele>
        <time>2020-06-22T12:52:08.479Z</time>
      </trkpt>
      <trkpt lat="50.54846" lon="3.3413">
        <ele>59.936212</ele>
        <time>2020-06-22T12:52:09.978Z</time>
      </trkpt>
      <trkpt lat="50.54823" lon="3.34121">
        <ele>59.965398</ele>
        <time>2020-06-22T12:52:14.481Z</time>
      </trkpt>
      <trkpt lat="50.54787" lon="3.34095">
        <ele>60.012141</ele>
        <time>2020-06-22T12:52:21.494Z</time>
      </trkpt>
      <trkpt lat="50.54764" lon="3.3408">
        <ele>59.819547</ele>
        <time>2020-06-22T12:52:25.712Z</time>
      </trkpt>
      <trkpt lat="50.54744" lon="3.34067">
        <ele>59.629248</ele>
        <time>2020-06-22T12:52:29.361Z</time>
      </trkpt>
      <trkpt lat="50.54735" lon="3.34061">
        <ele>59.543419</ele>
        <time>2020-06-22T12:52:30.953Z</time>
      </trkpt>
      <trkpt lat="50.54703" lon="3.34046">
        <ele>59.26399</ele>
        <time>2020-06-22T12:52:36.064Z</time>
      </trkpt>
      <trkpt lat="50.54677" lon="3.34035">
        <ele>59.037787</ele>
        <time>2020-06-22T12:52:39.988Z</time>
      </trkpt>
      <trkpt lat="50.54658" lon="3.34114">
        <ele>58.580791</ele>
        <time>2020-06-22T12:52:50.799Z</time>
      </trkpt>
      <trkpt lat="50.54618" lon="3.3428">
        <ele>56.724987</ele>
        <time>2020-06-22T12:53:12.644Z</time>
      </trkpt>
      <trkpt lat="50.54615" lon="3.34292">
        <ele>56.592405</ele>
        <time>2020-06-22T12:53:14.018Z</time>
      </trkpt>
      <trkpt lat="50.54586" lon="3.3438">
        <ele>55.498679</ele>
        <time>2020-06-22T12:53:26.534Z</time>
      </trkpt>
      <trkpt lat="50.54495" lon="3.34501">
        <ele>53.217744</ele>
        <time>2020-06-22T12:53:49.291Z</time>
      </trkpt>
      <trkpt lat="50.54468" lon="3.34536">
        <ele>52.554877</ele>
        <time>2020-06-22T12:53:55.905Z</time>
      </trkpt>
      <trkpt lat="50.54462" lon="3.34552">
        <ele>52.325603</ele>
        <time>2020-06-22T12:53:58.209Z</time>
      </trkpt>
      <trkpt lat="50.54456" lon="3.34573">
        <ele>52.046651</ele>
        <time>2020-06-22T12:54:00.893Z</time>
      </trkpt>
      <trkpt lat="50.54447" lon="3.34692">
        <ele>50.37521</ele>
        <time>2020-06-22T12:54:15.143Z</time>
      </trkpt>
      <trkpt lat="50.54439" lon="3.34863">
        <ele>47.955879</ele>
        <time>2020-06-22T12:54:35.268Z</time>
      </trkpt>
      <trkpt lat="50.5443" lon="3.34865">
        <ele>47.782274</ele>
        <time>2020-06-22T12:54:36.964Z</time>
      </trkpt>
      <trkpt lat="50.54405" lon="3.34863">
        <ele>47.320897</ele>
        <time>2020-06-22T12:54:41.897Z</time>
      </trkpt>
      <trkpt lat="50.5438" lon="3.34867">
        <ele>46.882975</ele>
        <time>2020-06-22T12:54:46.521Z</time>
      </trkpt>
      <trkpt lat="50.54366" lon="3.34869">
        <ele>46.629742</ele>
        <time>2020-06-22T12:54:49.206Z</time>
      </trkpt>
      <trkpt lat="50.54343" lon="3.34868">
        <ele>46.20655</ele>
        <time>2020-06-22T12:54:53.773Z</time>
      </trkpt>
      <trkpt lat="50.54317" lon="3.34858">
        <ele>45.725798</ele>
        <time>2020-06-22T12:54:58.945Z</time>
      </trkpt>
      <trkpt lat="50.54202" lon="3.34778">
        <ele>43.478008</ele>
        <time>2020-06-22T12:55:23.437Z</time>
      </trkpt>
      <trkpt lat="50.54157" lon="3.34755">
        <ele>42.623467</ele>
        <time>2020-06-22T12:55:32.754Z</time>
      </trkpt>
      <trkpt lat="50.5413" lon="3.34742">
        <ele>42.130977</ele>
        <time>2020-06-22T12:55:38.011Z</time>
      </trkpt>
      <trkpt lat="50.54114" lon="3.34738">
        <ele>41.82748</ele>
        <time>2020-06-22T12:55:41.347Z</time>
      </trkpt>
      <trkpt lat="50.54104" lon="3.34745">
        <ele>41.644409</ele>
        <time>2020-06-22T12:55:43.178Z</time>
      </trkpt>
      <trkpt lat="50.54081" lon="3.34792">
        <ele>40.888845</ele>
        <time>2020-06-22T12:55:50.413Z</time>
      </trkpt>
      <trkpt lat="50.54057" lon="3.34816">
        <ele>40.310862</ele>
        <time>2020-06-22T12:55:55.696Z</time>
      </trkpt>
      <trkpt lat="50.53947" lon="3.3485">
        <ele>38.014828</ele>
        <time>2020-06-22T12:56:16.568Z</time>
      </trkpt>
      <trkpt lat="50.53914" lon="3.34857">
        <ele>37.724162</ele>
        <time>2020-06-22T12:56:23.049Z</time>
      </trkpt>
      <trkpt lat="50.53904" lon="3.34859">
        <ele>37.697376</ele>
        <time>2020-06-22T12:56:24.919Z</time>
      </trkpt>
      <trkpt lat="50.53861" lon="3.34856">
        <ele>37.585324</ele>
        <time>2020-06-22T12:56:33.750Z</time>
      </trkpt>
      <trkpt lat="50.53806" lon="3.34835">
        <ele>37.437607</ele>
        <time>2020-06-22T12:56:47.753Z</time>
      </trkpt>
      <trkpt lat="50.53798" lon="3.34835">
        <ele>37.418863</ele>
        <time>2020-06-22T12:56:49.204Z</time>
      </trkpt>
      <trkpt lat="50.53718" lon="3.34839">
        <ele>38.411027</ele>
        <time>2020-06-22T12:57:14.831Z</time>
      </trkpt>
      <trkpt lat="50.53705" lon="3.34838">
        <ele>38.751361</ele>
        <time>2020-06-22T12:57:19.115Z</time>
      </trkpt>
      <trkpt lat="50.53691" lon="3.34832">
        <ele>39.149638</ele>
        <time>2020-06-22T12:57:24.871Z</time>
      </trkpt>
      <trkpt lat="50.53679" lon="3.34822">
        <ele>39.515889</ele>
        <time>2020-06-22T12:57:30.486Z</time>
      </trkpt>
      <trkpt lat="50.53584" lon="3.34715">
        <ele>42.554785</ele>
        <time>2020-06-22T12:58:17.704Z</time>
      </trkpt>
      <trkpt lat="50.53579" lon="3.3471">
        <ele>42.667393</ele>
        <time>2020-06-22T12:58:20.931Z</time>
      </trkpt>
      <trkpt lat="50.53516" lon="3.34637">
        <ele>44.198219</ele>
        <time>2020-06-22T12:58:48.611Z</time>
      </trkpt>
      <trkpt lat="50.53464" lon="3.34801">
        <ele>45.590749</ele>
        <time>2020-06-22T12:59:22.455Z</time>
      </trkpt>
      <trkpt lat="50.53422" lon="3.34915">
        <ele>45.297887</ele>
        <time>2020-06-22T12:59:41.087Z</time>
      </trkpt>
      <trkpt lat="50.53412" lon="3.34944">
        <ele>45.222876</ele>
        <time>2020-06-22T12:59:45.642Z</time>
      </trkpt>
      <trkpt lat="50.53375" lon="3.35042">
        <ele>44.44032</ele>
        <time>2020-06-22T13:00:00.484Z</time>
      </trkpt>
      <trkpt lat="50.53387" lon="3.35062">
        <ele>44.125334</ele>
        <time>2020-06-22T13:00:03.913Z</time>
      </trkpt>
      <trkpt lat="50.53393" lon="3.35074">
        <ele>43.946828</ele>
        <time>2020-06-22T13:00:05.616Z</time>
      </trkpt>
      <trkpt lat="50.5342" lon="3.35145">
        <ele>42.987719</ele>
        <time>2020-06-22T13:00:15.787Z</time>
      </trkpt>
      <trkpt lat="50.53432" lon="3.35175">
        <ele>42.570931</ele>
        <time>2020-06-22T13:00:19.956Z</time>
      </trkpt>
      <trkpt lat="50.53436" lon="3.35185">
        <ele>42.435599</ele>
        <time>2020-06-22T13:00:21.440Z</time>
      </trkpt>
      <trkpt lat="50.53441" lon="3.35196">
        <ele>42.284584</ele>
        <time>2020-06-22T13:00:23.037Z</time>
      </trkpt>
      <trkpt lat="50.53465" lon="3.35257">
        <ele>41.385162</ele>
        <time>2020-06-22T13:00:31.452Z</time>
      </trkpt>
      <trkpt lat="50.53466" lon="3.3526">
        <ele>41.340617</ele>
        <time>2020-06-22T13:00:31.763Z</time>
      </trkpt>
      <trkpt lat="50.53536" lon="3.35435">
        <ele>38.468699</ele>
        <time>2020-06-22T13:00:56.189Z</time>
      </trkpt>
      <trkpt lat="50.53551" lon="3.35472">
        <ele>37.866674</ele>
        <time>2020-06-22T13:01:01.452Z</time>
      </trkpt>
      <trkpt lat="50.53563" lon="3.35503">
        <ele>37.664666</ele>
        <time>2020-06-22T13:01:06.024Z</time>
      </trkpt>
      <trkpt lat="50.53574" lon="3.35524">
        <ele>37.513991</ele>
        <time>2020-06-22T13:01:09.465Z</time>
      </trkpt>
      <trkpt lat="50.53589" lon="3.35555">
        <ele>37.301837</ele>
        <time>2020-06-22T13:01:14.340Z</time>
      </trkpt>
      <trkpt lat="50.53611" lon="3.35588">
        <ele>37.035771</ele>
        <time>2020-06-22T13:01:20.687Z</time>
      </trkpt>
      <trkpt lat="50.53631" lon="3.35612">
        <ele>36.812806</ele>
        <time>2020-06-22T13:01:26.093Z</time>
      </trkpt>
      <trkpt lat="50.53658" lon="3.3564">
        <ele>36.533955</ele>
        <time>2020-06-22T13:01:33.098Z</time>
      </trkpt>
      <trkpt lat="50.53675" lon="3.35659">
        <ele>36.350436</ele>
        <time>2020-06-22T13:01:37.952Z</time>
      </trkpt>
      <trkpt lat="50.54028" lon="3.36026">
        <ele>41.396358</ele>
        <time>2020-06-22T13:03:46.420Z</time>
      </trkpt>
      <trkpt lat="50.54192" lon="3.36196">
        <ele>43.781061</ele>
        <time>2020-06-22T13:04:50.345Z</time>
      </trkpt>
      <trkpt lat="50.54254" lon="3.36239">
        <ele>44.224501</ele>
        <time>2020-06-22T13:05:07.783Z</time>
      </trkpt>
      <trkpt lat="50.54276" lon="3.36251">
        <ele>44.38164</ele>
        <time>2020-06-22T13:05:13.246Z</time>
      </trkpt>
      <trkpt lat="50.54291" lon="3.36264">
        <ele>44.433294</ele>
        <time>2020-06-22T13:05:16.948Z</time>
      </trkpt>
      <trkpt lat="50.54358" lon="3.36337">
        <ele>43.501615</ele>
        <time>2020-06-22T13:05:33.654Z</time>
      </trkpt>
      <trkpt lat="50.54412" lon="3.36374">
        <ele>42.827918</ele>
        <time>2020-06-22T13:05:45.328Z</time>
      </trkpt>
      <trkpt lat="50.54441" lon="3.36393">
        <ele>42.477975</ele>
        <time>2020-06-22T13:05:51.628Z</time>
      </trkpt>
      <trkpt lat="50.54406" lon="3.36489">
        <ele>41.666885</ele>
        <time>2020-06-22T13:06:06.134Z</time>
      </trkpt>
      <trkpt lat="50.54404" lon="3.36501">
        <ele>41.578866</ele>
        <time>2020-06-22T13:06:07.687Z</time>
      </trkpt>
      <trkpt lat="50.54401" lon="3.36512">
        <ele>41.489387</ele>
        <time>2020-06-22T13:06:09.236Z</time>
      </trkpt>
      <trkpt lat="50.54395" lon="3.36585">
        <ele>40.950404</ele>
        <time>2020-06-22T13:06:18.892Z</time>
      </trkpt>
      <trkpt lat="50.54395" lon="3.36707">
        <ele>40.073555</ele>
        <time>2020-06-22T13:06:34.928Z</time>
      </trkpt>
      <trkpt lat="50.54385" lon="3.36874">
        <ele>38.903578</ele>
        <time>2020-06-22T13:06:56.966Z</time>
      </trkpt>
      <trkpt lat="50.54383" lon="3.36916">
        <ele>38.610362</ele>
        <time>2020-06-22T13:07:02.522Z</time>
      </trkpt>
      <trkpt lat="50.54374" lon="3.36991">
        <ele>38.075011</ele>
        <time>2020-06-22T13:07:12.486Z</time>
      </trkpt>
      <trkpt lat="50.54366" lon="3.37059">
        <ele>37.578964</ele>
        <time>2020-06-22T13:07:21.599Z</time>
      </trkpt>
      <trkpt lat="50.54363" lon="3.37088">
        <ele>37.37065</ele>
        <time>2020-06-22T13:07:25.243Z</time>
      </trkpt>
      <trkpt lat="50.54361" lon="3.37118">
        <ele>37.155066</ele>
        <time>2020-06-22T13:07:29.330Z</time>
      </trkpt>
      <trkpt lat="50.54361" lon="3.37125">
        <ele>37.109359</ele>
        <time>2020-06-22T13:07:30.185Z</time>
      </trkpt>
      <trkpt lat="50.54358" lon="3.37181">
        <ele>36.708119</ele>
        <time>2020-06-22T13:07:37.523Z</time>
      </trkpt>
      <trkpt lat="50.54357" lon="3.37196">
        <ele>36.599717</ele>
        <time>2020-06-22T13:07:39.358Z</time>
      </trkpt>
      <trkpt lat="50.54337" lon="3.37614">
        <ele>34.434019</ele>
        <time>2020-06-22T13:08:35.693Z</time>
      </trkpt>
      <trkpt lat="50.54337" lon="3.3762">
        <ele>34.417414</ele>
        <time>2020-06-22T13:08:36.539Z</time>
      </trkpt>
      <trkpt lat="50.54335" lon="3.37646">
        <ele>34.350111</ele>
        <time>2020-06-22T13:08:40.694Z</time>
      </trkpt>
      <trkpt lat="50.54327" lon="3.37752">
        <ele>34.074397</ele>
        <time>2020-06-22T13:08:56.833Z</time>
      </trkpt>
      <trkpt lat="50.54319" lon="3.3786">
        <ele>33.840196</ele>
        <time>2020-06-22T13:09:13.161Z</time>
      </trkpt>
      <trkpt lat="50.54302" lon="3.37865">
        <ele>33.787884</ele>
        <time>2020-06-22T13:09:17.356Z</time>
      </trkpt>
      <trkpt lat="50.5429" lon="3.37873">
        <ele>33.748899</ele>
        <time>2020-06-22T13:09:20.538Z</time>
      </trkpt>
      <trkpt lat="50.54331" lon="3.37938">
        <ele>33.576249</ele>
        <time>2020-06-22T13:09:33.840Z</time>
      </trkpt>
      <trkpt lat="50.54359" lon="3.38023">
        <ele>33.375511</ele>
        <time>2020-06-22T13:09:47.422Z</time>
      </trkpt>
      <trkpt lat="50.54445" lon="3.38086">
        <ele>32.938163</ele>
        <time>2020-06-22T13:10:08.369Z</time>
      </trkpt>
      <trkpt lat="50.54464" lon="3.3811">
        <ele>32.827059</ele>
        <time>2020-06-22T13:10:13.931Z</time>
      </trkpt>
      <trkpt lat="50.54472" lon="3.38129">
        <ele>32.763013</ele>
        <time>2020-06-22T13:10:17.128Z</time>
      </trkpt>
      <trkpt lat="50.54479" lon="3.38169">
        <ele>32.641174</ele>
        <time>2020-06-22T13:10:23.296Z</time>
      </trkpt>
      <trkpt lat="50.54478" lon="3.3833">
        <ele>32.415049</ele>
        <time>2020-06-22T13:10:47.035Z</time>
      </trkpt>
      <trkpt lat="50.54482" lon="3.38373">
        <ele>32.357633</ele>
        <time>2020-06-22T13:10:53.592Z</time>
      </trkpt>
      <trkpt lat="50.54486" lon="3.38442">
        <ele>32.26818</ele>
        <time>2020-06-22T13:11:03.967Z</time>
      </trkpt>
      <trkpt lat="50.5449" lon="3.38461">
        <ele>32.242119</ele>
        <time>2020-06-22T13:11:06.891Z</time>
      </trkpt>
      <trkpt lat="50.54499" lon="3.38471">
        <ele>32.250612</ele>
        <time>2020-06-22T13:11:09.528Z</time>
      </trkpt>
      <trkpt lat="50.54594" lon="3.38503">
        <ele>32.330306</ele>
        <time>2020-06-22T13:11:33.077Z</time>
      </trkpt>
      <trkpt lat="50.54606" lon="3.3851">
        <ele>32.340377</ele>
        <time>2020-06-22T13:11:36.136Z</time>
      </trkpt>
      <trkpt lat="50.54609" lon="3.38524">
        <ele>32.347725</ele>
        <time>2020-06-22T13:11:38.461Z</time>
      </trkpt>
      <trkpt lat="50.54604" lon="3.38709">
        <ele>32.638725</ele>
        <time>2020-06-22T13:12:09.130Z</time>
      </trkpt>
      <trkpt lat="50.54599" lon="3.38786">
        <ele>32.819435</ele>
        <time>2020-06-22T13:12:22.442Z</time>
      </trkpt>
      <trkpt lat="50.54591" lon="3.38866">
        <ele>33.010745</ele>
        <time>2020-06-22T13:12:35.746Z</time>
      </trkpt>
      <trkpt lat="50.54591" lon="3.38882">
        <ele>33.046137</ele>
        <time>2020-06-22T13:12:38.115Z</time>
      </trkpt>
      <trkpt lat="50.54594" lon="3.38895">
        <ele>33.056525</ele>
        <time>2020-06-22T13:12:40.458Z</time>
      </trkpt>
      <trkpt lat="50.54599" lon="3.38901">
        <ele>33.060804</ele>
        <time>2020-06-22T13:12:41.729Z</time>
      </trkpt>
      <trkpt lat="50.54608" lon="3.38907">
        <ele>33.066921</ele>
        <time>2020-06-22T13:12:43.450Z</time>
      </trkpt>
      <trkpt lat="50.54657" lon="3.38912">
        <ele>33.097387</ele>
        <time>2020-06-22T13:12:52.421Z</time>
      </trkpt>
      <trkpt lat="50.5468" lon="3.38915">
        <ele>33.111531</ele>
        <time>2020-06-22T13:12:56.632Z</time>
      </trkpt>
      <trkpt lat="50.54767" lon="3.38926">
        <ele>33.153648</ele>
        <time>2020-06-22T13:13:12.221Z</time>
      </trkpt>
      <trkpt lat="50.54774" lon="3.38926">
        <ele>33.133762</ele>
        <time>2020-06-22T13:13:13.189Z</time>
      </trkpt>
      <trkpt lat="50.54773" lon="3.38939">
        <ele>33.11071</ele>
        <time>2020-06-22T13:13:14.853Z</time>
      </trkpt>
      <trkpt lat="50.54767" lon="3.39079">
        <ele>32.845503</ele>
        <time>2020-06-22T13:13:30.213Z</time>
      </trkpt>
      <trkpt lat="50.5475" lon="3.39211">
        <ele>32.455542</ele>
        <time>2020-06-22T13:13:44.189Z</time>
      </trkpt>
      <trkpt lat="50.5472" lon="3.39322">
        <ele>31.419706</ele>
        <time>2020-06-22T13:13:55.361Z</time>
      </trkpt>
      <trkpt lat="50.54711" lon="3.3935">
        <ele>31.150468</ele>
        <time>2020-06-22T13:13:58.076Z</time>
      </trkpt>
      <trkpt lat="50.54695" lon="3.39388">
        <ele>30.765618</ele>
        <time>2020-06-22T13:14:02.024Z</time>
      </trkpt>
      <trkpt lat="50.54686" lon="3.39418">
        <ele>30.479735</ele>
        <time>2020-06-22T13:14:04.808Z</time>
      </trkpt>
      <trkpt lat="50.54681" lon="3.39443">
        <ele>30.248594</ele>
        <time>2020-06-22T13:14:07.070Z</time>
      </trkpt>
      <trkpt lat="50.5468" lon="3.39446">
        <ele>30.22327</ele>
        <time>2020-06-22T13:14:07.288Z</time>
      </trkpt>
      <trkpt lat="50.54673" lon="3.39479">
        <ele>29.816653</ele>
        <time>2020-06-22T13:14:10.219Z</time>
      </trkpt>
      <trkpt lat="50.54661" lon="3.39539">
        <ele>29.074481</ele>
        <time>2020-06-22T13:14:15.418Z</time>
      </trkpt>
      <trkpt lat="50.54648" lon="3.39582">
        <ele>28.508063</ele>
        <time>2020-06-22T13:14:19.392Z</time>
      </trkpt>
      <trkpt lat="50.54634" lon="3.39618">
        <ele>28.007104</ele>
        <time>2020-06-22T13:14:22.952Z</time>
      </trkpt>
      <trkpt lat="50.54629" lon="3.3963">
        <ele>27.837698</ele>
        <time>2020-06-22T13:14:24.145Z</time>
      </trkpt>
      <trkpt lat="50.54585" lon="3.39696">
        <ele>26.77583</ele>
        <time>2020-06-22T13:14:32.466Z</time>
      </trkpt>
      <trkpt lat="50.54546" lon="3.39731">
        <ele>26.368582</ele>
        <time>2020-06-22T13:14:38.880Z</time>
      </trkpt>
      <trkpt lat="50.545" lon="3.39767">
        <ele>25.904731</ele>
        <time>2020-06-22T13:14:46.447Z</time>
      </trkpt>
      <trkpt lat="50.54395" lon="3.39849">
        <ele>25.028767</ele>
        <time>2020-06-22T13:15:05.110Z</time>
      </trkpt>
      <trkpt lat="50.54321" lon="3.39905">
        <ele>24.657849</ele>
        <time>2020-06-22T13:15:18.214Z</time>
      </trkpt>
      <trkpt lat="50.54278" lon="3.39927">
        <ele>24.451285</ele>
        <time>2020-06-22T13:15:25.500Z</time>
      </trkpt>
      <trkpt lat="50.54213" lon="3.39948">
        <ele>24.360238</ele>
        <time>2020-06-22T13:15:36.494Z</time>
      </trkpt>
      <trkpt lat="50.5414" lon="3.3997">
        <ele>24.30407</ele>
        <time>2020-06-22T13:15:49.704Z</time>
      </trkpt>
      <trkpt lat="50.54121" lon="3.39977">
        <ele>24.289149</ele>
        <time>2020-06-22T13:15:52.905Z</time>
      </trkpt>
      <trkpt lat="50.54105" lon="3.39994">
        <ele>24.274256</ele>
        <time>2020-06-22T13:15:56.813Z</time>
      </trkpt>
      <trkpt lat="50.54066" lon="3.40049">
        <ele>24.303336</ele>
        <time>2020-06-22T13:16:06.308Z</time>
      </trkpt>
      <trkpt lat="50.54061" lon="3.40057">
        <ele>24.310706</ele>
        <time>2020-06-22T13:16:08.230Z</time>
      </trkpt>
      <trkpt lat="50.54023" lon="3.40112">
        <ele>24.358149</ele>
        <time>2020-06-22T13:16:17.777Z</time>
      </trkpt>
      <trkpt lat="50.53952" lon="3.40213">
        <ele>24.386715</ele>
        <time>2020-06-22T13:16:35.143Z</time>
      </trkpt>
      <trkpt lat="50.53938" lon="3.40242">
        <ele>24.318519</ele>
        <time>2020-06-22T13:16:38.797Z</time>
      </trkpt>
      <trkpt lat="50.53928" lon="3.40312">
        <ele>24.181936</ele>
        <time>2020-06-22T13:16:46.276Z</time>
      </trkpt>
      <trkpt lat="50.53917" lon="3.40379">
        <ele>24.052</ele>
        <time>2020-06-22T13:16:53.399Z</time>
      </trkpt>
      <trkpt lat="50.53912" lon="3.40411">
        <ele>23.990835</ele>
        <time>2020-06-22T13:16:56.732Z</time>
      </trkpt>
      <trkpt lat="50.53916" lon="3.40439">
        <ele>23.936739</ele>
        <time>2020-06-22T13:16:59.758Z</time>
      </trkpt>
      <trkpt lat="50.53934" lon="3.40545">
        <ele>23.825183</ele>
        <time>2020-06-22T13:17:11.528Z</time>
      </trkpt>
      <trkpt lat="50.53969" lon="3.40683">
        <ele>23.702834</ele>
        <time>2020-06-22T13:17:28.102Z</time>
      </trkpt>
      <trkpt lat="50.54025" lon="3.41041">
        <ele>23.269365</ele>
        <time>2020-06-22T13:18:08.964Z</time>
      </trkpt>
      <trkpt lat="50.54037" lon="3.41207">
        <ele>22.547983</ele>
        <time>2020-06-22T13:18:25.299Z</time>
      </trkpt>
      <trkpt lat="50.54043" lon="3.41311">
        <ele>22.034384</ele>
        <time>2020-06-22T13:18:35.081Z</time>
      </trkpt>
      <trkpt lat="50.54045" lon="3.41319">
        <ele>21.981502</ele>
        <time>2020-06-22T13:18:35.840Z</time>
      </trkpt>
      <trkpt lat="50.54048" lon="3.41329">
        <ele>21.906515</ele>
        <time>2020-06-22T13:18:36.940Z</time>
      </trkpt>
      <trkpt lat="50.54052" lon="3.41346">
        <ele>21.789105</ele>
        <time>2020-06-22T13:18:38.553Z</time>
      </trkpt>
      <trkpt lat="50.54141" lon="3.41601">
        <ele>20.086956</ele>
        <time>2020-06-22T13:19:05.650Z</time>
      </trkpt>
      <trkpt lat="50.54158" lon="3.41681">
        <ele>19.729984</ele>
        <time>2020-06-22T13:19:13.874Z</time>
      </trkpt>
      <trkpt lat="50.5418" lon="3.41882">
        <ele>19.046416</ele>
        <time>2020-06-22T13:19:34.980Z</time>
      </trkpt>
      <trkpt lat="50.54187" lon="3.41949">
        <ele>18.912726</ele>
        <time>2020-06-22T13:19:42.114Z</time>
      </trkpt>
      <trkpt lat="50.54202" lon="3.42085">
        <ele>18.649146</ele>
        <time>2020-06-22T13:19:56.651Z</time>
      </trkpt>
      <trkpt lat="50.5421" lon="3.42175">
        <ele>18.667553</ele>
        <time>2020-06-22T13:20:06.768Z</time>
      </trkpt>
      <trkpt lat="50.54211" lon="3.42191">
        <ele>18.670853</ele>
        <time>2020-06-22T13:20:08.526Z</time>
      </trkpt>
      <trkpt lat="50.54199" lon="3.422">
        <ele>18.675083</ele>
        <time>2020-06-22T13:20:11.808Z</time>
      </trkpt>
      <trkpt lat="50.54162" lon="3.42227">
        <ele>18.68819</ele>
        <time>2020-06-22T13:20:21.945Z</time>
      </trkpt>
      <trkpt lat="50.54128" lon="3.42236">
        <ele>18.699259</ele>
        <time>2020-06-22T13:20:30.689Z</time>
      </trkpt>
      <trkpt lat="50.54079" lon="3.4223">
        <ele>18.861754</ele>
        <time>2020-06-22T13:20:43.185Z</time>
      </trkpt>
      <trkpt lat="50.54074" lon="3.4223">
        <ele>18.885619</ele>
        <time>2020-06-22T13:20:44.240Z</time>
      </trkpt>
      <trkpt lat="50.54068" lon="3.42229">
        <ele>18.917626</ele>
        <time>2020-06-22T13:20:45.918Z</time>
      </trkpt>
      <trkpt lat="50.54054" lon="3.42229">
        <ele>18.997152</ele>
        <time>2020-06-22T13:20:49.963Z</time>
      </trkpt>
      <trkpt lat="50.54024" lon="3.4224">
        <ele>19.161675</ele>
        <time>2020-06-22T13:20:58.076Z</time>
      </trkpt>
      <trkpt lat="50.53997" lon="3.42265">
        <ele>19.330535</ele>
        <time>2020-06-22T13:21:06.575Z</time>
      </trkpt>
      <trkpt lat="50.53985" lon="3.4228">
        <ele>19.413657</ele>
        <time>2020-06-22T13:21:10.950Z</time>
      </trkpt>
      <trkpt lat="50.5398" lon="3.423">
        <ele>19.48607</ele>
        <time>2020-06-22T13:21:14.551Z</time>
      </trkpt>
      <trkpt lat="50.53968" lon="3.42348">
        <ele>19.664733</ele>
        <time>2020-06-22T13:21:23.738Z</time>
      </trkpt>
      <trkpt lat="50.53965" lon="3.42346">
        <ele>19.685477</ele>
        <time>2020-06-22T13:21:24.687Z</time>
      </trkpt>
      <trkpt lat="50.53907" lon="3.42331">
        <ele>20.042881</ele>
        <time>2020-06-22T13:21:36.877Z</time>
      </trkpt>
      <trkpt lat="50.53826" lon="3.42315">
        <ele>20.546919</ele>
        <time>2020-06-22T13:21:53.399Z</time>
      </trkpt>
      <trkpt lat="50.53725" lon="3.42291">
        <ele>21.269832</ele>
        <time>2020-06-22T13:22:14.503Z</time>
      </trkpt>
      <trkpt lat="50.53576" lon="3.42263">
        <ele>22.621371</ele>
        <time>2020-06-22T13:22:47.150Z</time>
      </trkpt>
      <trkpt lat="50.53478" lon="3.42237">
        <ele>23.929737</ele>
        <time>2020-06-22T13:23:11.062Z</time>
      </trkpt>
      <trkpt lat="50.53348" lon="3.42209">
        <ele>25.782433</ele>
        <time>2020-06-22T13:23:45.466Z</time>
      </trkpt>
      <trkpt lat="50.53342" lon="3.42208">
        <ele>25.872724</ele>
        <time>2020-06-22T13:23:47.729Z</time>
      </trkpt>
      <trkpt lat="50.53268" lon="3.42193">
        <ele>26.973558</ele>
        <time>2020-06-22T13:24:06.368Z</time>
      </trkpt>
      <trkpt lat="50.53265" lon="3.42192">
        <ele>27.017975</ele>
        <time>2020-06-22T13:24:07.035Z</time>
      </trkpt>
      <trkpt lat="50.53254" lon="3.42189">
        <ele>27.174717</ele>
        <time>2020-06-22T13:24:10.067Z</time>
      </trkpt>
      <trkpt lat="50.5289" lon="3.42111">
        <ele>28.332907</ele>
        <time>2020-06-22T13:25:43.789Z</time>
      </trkpt>
      <trkpt lat="50.52836" lon="3.42099">
        <ele>28.362723</ele>
        <time>2020-06-22T13:25:56.946Z</time>
      </trkpt>
      <trkpt lat="50.52752" lon="3.4208">
        <ele>28.408794</ele>
        <time>2020-06-22T13:26:17.728Z</time>
      </trkpt>
      <trkpt lat="50.52597" lon="3.42045">
        <ele>28.337642</ele>
        <time>2020-06-22T13:26:56.317Z</time>
      </trkpt>
      <trkpt lat="50.52521" lon="3.42029">
        <ele>28.169876</ele>
        <time>2020-06-22T13:27:13.694Z</time>
      </trkpt>
      <trkpt lat="50.52437" lon="3.42011">
        <ele>27.613599</ele>
        <time>2020-06-22T13:27:32.483Z</time>
      </trkpt>
      <trkpt lat="50.52365" lon="3.41989">
        <ele>27.13524</ele>
        <time>2020-06-22T13:27:48.295Z</time>
      </trkpt>
      <trkpt lat="50.52273" lon="3.41971">
        <ele>26.03949</ele>
        <time>2020-06-22T13:28:07.419Z</time>
      </trkpt>
      <trkpt lat="50.52246" lon="3.41966">
        <ele>25.717195</ele>
        <time>2020-06-22T13:28:12.941Z</time>
      </trkpt>
      <trkpt lat="50.52169" lon="3.4195">
        <ele>24.831957</ele>
        <time>2020-06-22T13:28:28.303Z</time>
      </trkpt>
      <trkpt lat="50.52105" lon="3.41935">
        <ele>24.219574</ele>
        <time>2020-06-22T13:28:41.480Z</time>
      </trkpt>
      <trkpt lat="50.52093" lon="3.41932">
        <ele>24.105402</ele>
        <time>2020-06-22T13:28:43.746Z</time>
      </trkpt>
      <trkpt lat="50.52079" lon="3.41929">
        <ele>23.973343</ele>
        <time>2020-06-22T13:28:46.724Z</time>
      </trkpt>
      <trkpt lat="50.52048" lon="3.41921">
        <ele>23.679481</ele>
        <time>2020-06-22T13:28:53.130Z</time>
      </trkpt>
      <trkpt lat="50.52017" lon="3.41913">
        <ele>23.381377</ele>
        <time>2020-06-22T13:29:00.169Z</time>
      </trkpt>
      <trkpt lat="50.51906" lon="3.41912">
        <ele>23.701707</ele>
        <time>2020-06-22T13:29:28.411Z</time>
      </trkpt>
      <trkpt lat="50.51886" lon="3.41916">
        <ele>23.783452</ele>
        <time>2020-06-22T13:29:33.709Z</time>
      </trkpt>
      <trkpt lat="50.5188" lon="3.41917">
        <ele>23.808503</ele>
        <time>2020-06-22T13:29:35.317Z</time>
      </trkpt>
      <trkpt lat="50.51872" lon="3.41918">
        <ele>23.84326</ele>
        <time>2020-06-22T13:29:37.922Z</time>
      </trkpt>
      <trkpt lat="50.51736" lon="3.41927">
        <ele>24.74686</ele>
        <time>2020-06-22T13:30:17.265Z</time>
      </trkpt>
      <trkpt lat="50.51727" lon="3.41926">
        <ele>24.82045</ele>
        <time>2020-06-22T13:30:20.186Z</time>
      </trkpt>
      <trkpt lat="50.51713" lon="3.41925">
        <ele>24.928047</ele>
        <time>2020-06-22T13:30:24.142Z</time>
      </trkpt>
      <trkpt lat="50.5151" lon="3.41926">
        <ele>25.660115</ele>
        <time>2020-06-22T13:31:17.265Z</time>
      </trkpt>
      <trkpt lat="50.51487" lon="3.41945">
        <ele>25.700139</ele>
        <time>2020-06-22T13:31:23.275Z</time>
      </trkpt>
      <trkpt lat="50.51481" lon="3.4195">
        <ele>25.709428</ele>
        <time>2020-06-22T13:31:24.618Z</time>
      </trkpt>
      <trkpt lat="50.51465" lon="3.41959">
        <ele>25.663705</ele>
        <time>2020-06-22T13:31:28.525Z</time>
      </trkpt>
      <trkpt lat="50.51437" lon="3.4197">
        <ele>25.427375</ele>
        <time>2020-06-22T13:31:34.969Z</time>
      </trkpt>
      <trkpt lat="50.51422" lon="3.41972">
        <ele>25.308581</ele>
        <time>2020-06-22T13:31:38.125Z</time>
      </trkpt>
      <trkpt lat="50.51384" lon="3.41976">
        <ele>24.993855</ele>
        <time>2020-06-22T13:31:46.391Z</time>
      </trkpt>
      <trkpt lat="50.51309" lon="3.41999">
        <ele>24.373966</ele>
        <time>2020-06-22T13:32:02.159Z</time>
      </trkpt>
      <trkpt lat="50.51218" lon="3.42052">
        <ele>23.480477</ele>
        <time>2020-06-22T13:32:22.361Z</time>
      </trkpt>
      <trkpt lat="50.51129" lon="3.42133">
        <ele>22.535404</ele>
        <time>2020-06-22T13:32:43.909Z</time>
      </trkpt>
      <trkpt lat="50.51068" lon="3.42217">
        <ele>21.934768</ele>
        <time>2020-06-22T13:33:01.255Z</time>
      </trkpt>
      <trkpt lat="50.5106" lon="3.42232">
        <ele>21.842331</ele>
        <time>2020-06-22T13:33:03.873Z</time>
      </trkpt>
      <trkpt lat="50.51046" lon="3.4226">
        <ele>21.67416</ele>
        <time>2020-06-22T13:33:08.813Z</time>
      </trkpt>
      <trkpt lat="50.5105" lon="3.42275">
        <ele>21.599757</ele>
        <time>2020-06-22T13:33:11.001Z</time>
      </trkpt>
      <trkpt lat="50.51038" lon="3.42282">
        <ele>21.506403</ele>
        <time>2020-06-22T13:33:12.892Z</time>
      </trkpt>
      <trkpt lat="50.51025" lon="3.42289">
        <ele>21.404252</ele>
        <time>2020-06-22T13:33:15.094Z</time>
      </trkpt>
      <trkpt lat="50.51021" lon="3.42292">
        <ele>21.371644</ele>
        <time>2020-06-22T13:33:15.779Z</time>
      </trkpt>
      <trkpt lat="50.51002" lon="3.42307">
        <ele>21.223639</ele>
        <time>2020-06-22T13:33:19.130Z</time>
      </trkpt>
      <trkpt lat="50.50987" lon="3.42321">
        <ele>21.145973</ele>
        <time>2020-06-22T13:33:21.838Z</time>
      </trkpt>
      <trkpt lat="50.50984" lon="3.42324">
        <ele>21.129111</ele>
        <time>2020-06-22T13:33:22.357Z</time>
      </trkpt>
      <trkpt lat="50.50931" lon="3.42378">
        <ele>20.832945</ele>
        <time>2020-06-22T13:33:32.530Z</time>
      </trkpt>
      <trkpt lat="50.50893" lon="3.42426">
        <ele>20.603073</ele>
        <time>2020-06-22T13:33:40.334Z</time>
      </trkpt>
      <trkpt lat="50.50761" lon="3.42624">
        <ele>19.833408</ele>
        <time>2020-06-22T13:34:10.523Z</time>
      </trkpt>
      <trkpt lat="50.50684" lon="3.42741">
        <ele>19.214398</ele>
        <time>2020-06-22T13:34:26.994Z</time>
      </trkpt>
      <trkpt lat="50.50652" lon="3.4279">
        <ele>18.911626</ele>
        <time>2020-06-22T13:34:33.751Z</time>
      </trkpt>
      <trkpt lat="50.50633" lon="3.42818">
        <ele>18.735446</ele>
        <time>2020-06-22T13:34:37.569Z</time>
      </trkpt>
      <trkpt lat="50.50538" lon="3.42968">
        <ele>18.443836</ele>
        <time>2020-06-22T13:34:59.204Z</time>
      </trkpt>
      <trkpt lat="50.50529" lon="3.42984">
        <ele>18.443022</ele>
        <time>2020-06-22T13:35:01.498Z</time>
      </trkpt>
      <trkpt lat="50.50526" lon="3.42988">
        <ele>18.442794</ele>
        <time>2020-06-22T13:35:02.232Z</time>
      </trkpt>
      <trkpt lat="50.50524" lon="3.42992">
        <ele>18.442593</ele>
        <time>2020-06-22T13:35:02.885Z</time>
      </trkpt>
      <trkpt lat="50.50517" lon="3.43003">
        <ele>18.441998</ele>
        <time>2020-06-22T13:35:05.182Z</time>
      </trkpt>
      <trkpt lat="50.50469" lon="3.43071">
        <ele>18.510905</ele>
        <time>2020-06-22T13:35:18.328Z</time>
      </trkpt>
      <trkpt lat="50.50408" lon="3.43153">
        <ele>19.240992</ele>
        <time>2020-06-22T13:35:36.042Z</time>
      </trkpt>
      <trkpt lat="50.50394" lon="3.43172">
        <ele>19.4063</ele>
        <time>2020-06-22T13:35:40.061Z</time>
      </trkpt>
      <trkpt lat="50.50386" lon="3.43182">
        <ele>19.502781</ele>
        <time>2020-06-22T13:35:42.496Z</time>
      </trkpt>
      <trkpt lat="50.50382" lon="3.43186">
        <ele>19.546804</ele>
        <time>2020-06-22T13:35:43.645Z</time>
      </trkpt>
      <trkpt lat="50.50371" lon="3.43197">
        <ele>19.667456</ele>
        <time>2020-06-22T13:35:46.584Z</time>
      </trkpt>
      <trkpt lat="50.50362" lon="3.43201">
        <ele>19.750873</ele>
        <time>2020-06-22T13:35:48.686Z</time>
      </trkpt>
      <trkpt lat="50.5035" lon="3.43201">
        <ele>19.853977</ele>
        <time>2020-06-22T13:35:51.292Z</time>
      </trkpt>
      <trkpt lat="50.50342" lon="3.432">
        <ele>19.928827</ele>
        <time>2020-06-22T13:35:53.171Z</time>
      </trkpt>
      <trkpt lat="50.50333" lon="3.43203">
        <ele>20.012828</ele>
        <time>2020-06-22T13:35:55.209Z</time>
      </trkpt>
      <trkpt lat="50.50323" lon="3.43205">
        <ele>20.128798</ele>
        <time>2020-06-22T13:35:57.595Z</time>
      </trkpt>
      <trkpt lat="50.50298" lon="3.43213">
        <ele>20.526575</ele>
        <time>2020-06-22T13:36:03.219Z</time>
      </trkpt>
      <trkpt lat="50.50291" lon="3.43215">
        <ele>20.63757</ele>
        <time>2020-06-22T13:36:04.802Z</time>
      </trkpt>
      <trkpt lat="50.50228" lon="3.43245">
        <ele>21.681605</ele>
        <time>2020-06-22T13:36:20.754Z</time>
      </trkpt>
      <trkpt lat="50.50189" lon="3.43258">
        <ele>22.317771</ele>
        <time>2020-06-22T13:36:31.453Z</time>
      </trkpt>
      <trkpt lat="50.50145" lon="3.43263">
        <ele>23.0546</ele>
        <time>2020-06-22T13:36:44.009Z</time>
      </trkpt>
      <trkpt lat="50.50139" lon="3.43264">
        <ele>23.197601</ele>
        <time>2020-06-22T13:36:46.031Z</time>
      </trkpt>
      <trkpt lat="50.50109" lon="3.43266">
        <ele>23.860167</ele>
        <time>2020-06-22T13:36:54.389Z</time>
      </trkpt>
      <trkpt lat="50.50048" lon="3.43272">
        <ele>25.256346</ele>
        <time>2020-06-22T13:37:12.339Z</time>
      </trkpt>
      <trkpt lat="50.50006" lon="3.43277">
        <ele>26.207697</ele>
        <time>2020-06-22T13:37:24.474Z</time>
      </trkpt>
      <trkpt lat="50.49958" lon="3.43293">
        <ele>27.180981</ele>
        <time>2020-06-22T13:37:38.712Z</time>
      </trkpt>
      <trkpt lat="50.49883" lon="3.4333">
        <ele>28.21292</ele>
        <time>2020-06-22T13:37:59.278Z</time>
      </trkpt>
      <trkpt lat="50.49839" lon="3.43364">
        <ele>28.850119</ele>
        <time>2020-06-22T13:38:09.983Z</time>
      </trkpt>
      <trkpt lat="50.4983" lon="3.43372">
        <ele>28.99182</ele>
        <time>2020-06-22T13:38:12.301Z</time>
      </trkpt>
      <trkpt lat="50.49777" lon="3.43415">
        <ele>29.297155</ele>
        <time>2020-06-22T13:38:24.291Z</time>
      </trkpt>
      <trkpt lat="50.49769" lon="3.43422">
        <ele>29.281242</ele>
        <time>2020-06-22T13:38:25.990Z</time>
      </trkpt>
      <trkpt lat="50.49756" lon="3.43431">
        <ele>29.255915</ele>
        <time>2020-06-22T13:38:28.764Z</time>
      </trkpt>
      <trkpt lat="50.49734" lon="3.43444">
        <ele>29.215875</ele>
        <time>2020-06-22T13:38:34.086Z</time>
      </trkpt>
      <trkpt lat="50.49652" lon="3.43489">
        <ele>29.064925</ele>
        <time>2020-06-22T13:38:53.561Z</time>
      </trkpt>
      <trkpt lat="50.49635" lon="3.435">
        <ele>29.01735</ele>
        <time>2020-06-22T13:38:57.620Z</time>
      </trkpt>
      <trkpt lat="50.49576" lon="3.43539">
        <ele>28.692759</ele>
        <time>2020-06-22T13:39:11.497Z</time>
      </trkpt>
      <trkpt lat="50.4956" lon="3.43546">
        <ele>28.606982</ele>
        <time>2020-06-22T13:39:14.170Z</time>
      </trkpt>
      <trkpt lat="50.49477" lon="3.43565">
        <ele>28.179634</ele>
        <time>2020-06-22T13:39:27.329Z</time>
      </trkpt>
      <trkpt lat="50.4929" lon="3.43541">
        <ele>27.64825</ele>
        <time>2020-06-22T13:39:59.189Z</time>
      </trkpt>
      <trkpt lat="50.49267" lon="3.43542">
        <ele>27.503877</ele>
        <time>2020-06-22T13:40:02.805Z</time>
      </trkpt>
      <trkpt lat="50.49218" lon="3.43548">
        <ele>27.150278</ele>
        <time>2020-06-22T13:40:10.714Z</time>
      </trkpt>
      <trkpt lat="50.49186" lon="3.4355">
        <ele>26.923846</ele>
        <time>2020-06-22T13:40:15.652Z</time>
      </trkpt>
      <trkpt lat="50.49169" lon="3.4355">
        <ele>26.799662</ele>
        <time>2020-06-22T13:40:18.303Z</time>
      </trkpt>
      <trkpt lat="50.4915" lon="3.43547">
        <ele>26.66067</ele>
        <time>2020-06-22T13:40:21.293Z</time>
      </trkpt>
      <trkpt lat="50.49135" lon="3.43542">
        <ele>26.556881</ele>
        <time>2020-06-22T13:40:23.461Z</time>
      </trkpt>
      <trkpt lat="50.49092" lon="3.43524">
        <ele>26.084506</ele>
        <time>2020-06-22T13:40:29.856Z</time>
      </trkpt>
      <trkpt lat="50.49043" lon="3.43502">
        <ele>25.245873</ele>
        <time>2020-06-22T13:40:36.946Z</time>
      </trkpt>
      <trkpt lat="50.48999" lon="3.43482">
        <ele>24.497436</ele>
        <time>2020-06-22T13:40:43.088Z</time>
      </trkpt>
      <trkpt lat="50.48969" lon="3.43467">
        <ele>23.99088</ele>
        <time>2020-06-22T13:40:47.127Z</time>
      </trkpt>
      <trkpt lat="50.48913" lon="3.43426">
        <ele>23.091113</ele>
        <time>2020-06-22T13:40:55.507Z</time>
      </trkpt>
      <trkpt lat="50.4889" lon="3.43412">
        <ele>22.79668</ele>
        <time>2020-06-22T13:40:58.873Z</time>
      </trkpt>
      <trkpt lat="50.48866" lon="3.43401">
        <ele>22.500859</ele>
        <time>2020-06-22T13:41:02.304Z</time>
      </trkpt>
      <trkpt lat="50.48835" lon="3.43392">
        <ele>22.132914</ele>
        <time>2020-06-22T13:41:06.566Z</time>
      </trkpt>
      <trkpt lat="50.48831" lon="3.43417">
        <ele>21.930714</ele>
        <time>2020-06-22T13:41:09.068Z</time>
      </trkpt>
      <trkpt lat="50.48796" lon="3.43477">
        <ele>21.318097</ele>
        <time>2020-06-22T13:41:17.008Z</time>
      </trkpt>
      <trkpt lat="50.48777" lon="3.43508">
        <ele>21.330232</ele>
        <time>2020-06-22T13:41:21.757Z</time>
      </trkpt>
      <trkpt lat="50.48772" lon="3.4353">
        <ele>21.365308</ele>
        <time>2020-06-22T13:41:24.469Z</time>
      </trkpt>
      <trkpt lat="50.48774" lon="3.4355">
        <ele>21.396919</ele>
        <time>2020-06-22T13:41:27.153Z</time>
      </trkpt>
      <trkpt lat="50.48786" lon="3.43584">
        <ele>21.456661</ele>
        <time>2020-06-22T13:41:31.786Z</time>
      </trkpt>
      <trkpt lat="50.48793" lon="3.43602">
        <ele>21.489203</ele>
        <time>2020-06-22T13:41:34.709Z</time>
      </trkpt>
      <trkpt lat="50.488" lon="3.4362">
        <ele>21.52149</ele>
        <time>2020-06-22T13:41:37.331Z</time>
      </trkpt>
      <trkpt lat="50.48851" lon="3.4374">
        <ele>21.689345</ele>
        <time>2020-06-22T13:41:55.860Z</time>
      </trkpt>
      <trkpt lat="50.48863" lon="3.43769">
        <ele>21.661604</ele>
        <time>2020-06-22T13:41:59.963Z</time>
      </trkpt>
      <trkpt lat="50.48882" lon="3.43799">
        <ele>21.627701</ele>
        <time>2020-06-22T13:42:05.099Z</time>
      </trkpt>
      <trkpt lat="50.48907" lon="3.43837">
        <ele>21.583673</ele>
        <time>2020-06-22T13:42:11.443Z</time>
      </trkpt>
      <trkpt lat="50.48918" lon="3.43854">
        <ele>21.563304</ele>
        <time>2020-06-22T13:42:14.209Z</time>
      </trkpt>
      <trkpt lat="50.48944" lon="3.43891">
        <ele>21.519918</ele>
        <time>2020-06-22T13:42:19.796Z</time>
      </trkpt>
      <trkpt lat="50.48953" lon="3.43902">
        <ele>21.50482</ele>
        <time>2020-06-22T13:42:21.657Z</time>
      </trkpt>
      <trkpt lat="50.48981" lon="3.43937">
        <ele>21.320554</ele>
        <time>2020-06-22T13:42:27.054Z</time>
      </trkpt>
      <trkpt lat="50.48998" lon="3.43966">
        <ele>21.082572</ele>
        <time>2020-06-22T13:42:30.746Z</time>
      </trkpt>
      <trkpt lat="50.49034" lon="3.44057">
        <ele>20.430536</ele>
        <time>2020-06-22T13:42:40.668Z</time>
      </trkpt>
      <trkpt lat="50.49043" lon="3.44079">
        <ele>20.27088</ele>
        <time>2020-06-22T13:42:43.075Z</time>
      </trkpt>
      <trkpt lat="50.49109" lon="3.44183">
        <ele>19.513605</ele>
        <time>2020-06-22T13:42:56.709Z</time>
      </trkpt>
      <trkpt lat="50.49138" lon="3.44236">
        <ele>19.239376</ele>
        <time>2020-06-22T13:43:03.512Z</time>
      </trkpt>
      <trkpt lat="50.49167" lon="3.44324">
        <ele>18.855558</ele>
        <time>2020-06-22T13:43:13.638Z</time>
      </trkpt>
      <trkpt lat="50.49219" lon="3.44434">
        <ele>18.573392</ele>
        <time>2020-06-22T13:43:28.558Z</time>
      </trkpt>
      <trkpt lat="50.49227" lon="3.44464">
        <ele>18.541381</ele>
        <time>2020-06-22T13:43:32.256Z</time>
      </trkpt>
      <trkpt lat="50.49237" lon="3.44565">
        <ele>18.44355</ele>
        <time>2020-06-22T13:43:43.564Z</time>
      </trkpt>
      <trkpt lat="50.49254" lon="3.44618">
        <ele>18.386309</ele>
        <time>2020-06-22T13:43:50.083Z</time>
      </trkpt>
      <trkpt lat="50.49286" lon="3.44688">
        <ele>18.246334</ele>
        <time>2020-06-22T13:43:59.181Z</time>
      </trkpt>
      <trkpt lat="50.49301" lon="3.44709">
        <ele>18.193883</ele>
        <time>2020-06-22T13:44:02.520Z</time>
      </trkpt>
      <trkpt lat="50.49336" lon="3.44729">
        <ele>18.096277</ele>
        <time>2020-06-22T13:44:08.557Z</time>
      </trkpt>
      <trkpt lat="50.4934" lon="3.44731">
        <ele>18.085938</ele>
        <time>2020-06-22T13:44:09.152Z</time>
      </trkpt>
      <trkpt lat="50.49353" lon="3.4475">
        <ele>18.040201</ele>
        <time>2020-06-22T13:44:11.987Z</time>
      </trkpt>
      <trkpt lat="50.49359" lon="3.44758">
        <ele>18.018487</ele>
        <time>2020-06-22T13:44:13.409Z</time>
      </trkpt>
      <trkpt lat="50.49366" lon="3.44748">
        <ele>17.995686</ele>
        <time>2020-06-22T13:44:14.854Z</time>
      </trkpt>
      <trkpt lat="50.49368" lon="3.44744">
        <ele>17.98713</ele>
        <time>2020-06-22T13:44:15.410Z</time>
      </trkpt>
      <trkpt lat="50.4942" lon="3.44663">
        <ele>17.993602</ele>
        <time>2020-06-22T13:44:28.656Z</time>
      </trkpt>
      <trkpt lat="50.49426" lon="3.44654">
        <ele>18.007083</ele>
        <time>2020-06-22T13:44:29.987Z</time>
      </trkpt>
      <trkpt lat="50.49477" lon="3.44573">
        <ele>18.124739</ele>
        <time>2020-06-22T13:44:44.071Z</time>
      </trkpt>
      <trkpt lat="50.49491" lon="3.44561">
        <ele>18.150592</ele>
        <time>2020-06-22T13:44:47.556Z</time>
      </trkpt>
      <trkpt lat="50.49544" lon="3.44521">
        <ele>18.126328</ele>
        <time>2020-06-22T13:44:58.458Z</time>
      </trkpt>
      <trkpt lat="50.49562" lon="3.44503">
        <ele>18.046766</ele>
        <time>2020-06-22T13:45:02.433Z</time>
      </trkpt>
      <trkpt lat="50.4959" lon="3.44475">
        <ele>17.925356</ele>
        <time>2020-06-22T13:45:08.034Z</time>
      </trkpt>
      <trkpt lat="50.49648" lon="3.44404">
        <ele>17.651349</ele>
        <time>2020-06-22T13:45:19.711Z</time>
      </trkpt>
      <trkpt lat="50.49663" lon="3.44393">
        <ele>17.590786</ele>
        <time>2020-06-22T13:45:22.149Z</time>
      </trkpt>
      <trkpt lat="50.49669" lon="3.44396">
        <ele>17.568586</ele>
        <time>2020-06-22T13:45:23.068Z</time>
      </trkpt>
      <trkpt lat="50.49672" lon="3.44401">
        <ele>17.551863</ele>
        <time>2020-06-22T13:45:23.750Z</time>
      </trkpt>
      <trkpt lat="50.49674" lon="3.44405">
        <ele>17.535296</ele>
        <time>2020-06-22T13:45:24.147Z</time>
      </trkpt>
      <trkpt lat="50.49687" lon="3.44433">
        <ele>17.320677</ele>
        <time>2020-06-22T13:45:27.458Z</time>
      </trkpt>
      <trkpt lat="50.49735" lon="3.44569">
        <ele>16.356202</ele>
        <time>2020-06-22T13:45:41.605Z</time>
      </trkpt>
      <trkpt lat="50.49754" lon="3.44626">
        <ele>15.957108</ele>
        <time>2020-06-22T13:45:47.677Z</time>
      </trkpt>
      <trkpt lat="50.49776" lon="3.4469">
        <ele>15.791705</ele>
        <time>2020-06-22T13:45:55.072Z</time>
      </trkpt>
      <trkpt lat="50.49798" lon="3.44759">
        <ele>15.791684</ele>
        <time>2020-06-22T13:46:03.202Z</time>
      </trkpt>
      <trkpt lat="50.49799" lon="3.44762">
        <ele>15.791683</ele>
        <time>2020-06-22T13:46:03.668Z</time>
      </trkpt>
      <trkpt lat="50.49844" lon="3.44889">
        <ele>15.791644</ele>
        <time>2020-06-22T13:46:21.008Z</time>
      </trkpt>
      <trkpt lat="50.49851" lon="3.44909">
        <ele>15.856042</ele>
        <time>2020-06-22T13:46:24.301Z</time>
      </trkpt>
      <trkpt lat="50.49853" lon="3.44914">
        <ele>15.885715</ele>
        <time>2020-06-22T13:46:25.053Z</time>
      </trkpt>
      <trkpt lat="50.49864" lon="3.44939">
        <ele>16.042362</ele>
        <time>2020-06-22T13:46:29.296Z</time>
      </trkpt>
      <trkpt lat="50.49867" lon="3.44946">
        <ele>16.085454</ele>
        <time>2020-06-22T13:46:30.527Z</time>
      </trkpt>
      <trkpt lat="50.49874" lon="3.44964">
        <ele>16.195133</ele>
        <time>2020-06-22T13:46:33.742Z</time>
      </trkpt>
      <trkpt lat="50.49935" lon="3.45106">
        <ele>17.076267</ele>
        <time>2020-06-22T13:46:58.654Z</time>
      </trkpt>
      <trkpt lat="50.49943" lon="3.45125">
        <ele>17.197299</ele>
        <time>2020-06-22T13:47:01.871Z</time>
      </trkpt>
      <trkpt lat="50.49958" lon="3.45159">
        <ele>17.27556</ele>
        <time>2020-06-22T13:47:06.708Z</time>
      </trkpt>
      <trkpt lat="50.49974" lon="3.45177">
        <ele>17.302113</ele>
        <time>2020-06-22T13:47:10.712Z</time>
      </trkpt>
      <trkpt lat="50.49999" lon="3.45188">
        <ele>17.335339</ele>
        <time>2020-06-22T13:47:14.978Z</time>
      </trkpt>
      <trkpt lat="50.50005" lon="3.45189">
        <ele>17.343777</ele>
        <time>2020-06-22T13:47:16.290Z</time>
      </trkpt>
      <trkpt lat="50.50044" lon="3.45199">
        <ele>17.396284</ele>
        <time>2020-06-22T13:47:23.716Z</time>
      </trkpt>
      <trkpt lat="50.50051" lon="3.45202">
        <ele>17.405595</ele>
        <time>2020-06-22T13:47:24.785Z</time>
      </trkpt>
      <trkpt lat="50.50052" lon="3.45203">
        <ele>17.407798</ele>
        <time>2020-06-22T13:47:25.064Z</time>
      </trkpt>
      <trkpt lat="50.50082" lon="3.45221">
        <ele>17.449669</ele>
        <time>2020-06-22T13:47:31.209Z</time>
      </trkpt>
      <trkpt lat="50.50084" lon="3.45223">
        <ele>17.45365</ele>
        <time>2020-06-22T13:47:31.586Z</time>
      </trkpt>
      <trkpt lat="50.50092" lon="3.45227">
        <ele>17.464882</ele>
        <time>2020-06-22T13:47:33.115Z</time>
      </trkpt>
      <trkpt lat="50.5013" lon="3.45249">
        <ele>17.488077</ele>
        <time>2020-06-22T13:47:39.733Z</time>
      </trkpt>
      <trkpt lat="50.50142" lon="3.45258">
        <ele>17.488077</ele>
        <time>2020-06-22T13:47:42.141Z</time>
      </trkpt>
      <trkpt lat="50.50193" lon="3.45294">
        <ele>17.488077</ele>
        <time>2020-06-22T13:47:51.091Z</time>
      </trkpt>
      <trkpt lat="50.50229" lon="3.45322">
        <ele>17.488077</ele>
        <time>2020-06-22T13:47:57.904Z</time>
      </trkpt>
      <trkpt lat="50.5031" lon="3.45386">
        <ele>17.488077</ele>
        <time>2020-06-22T13:48:16.687Z</time>
      </trkpt>
      <trkpt lat="50.50318" lon="3.45393">
        <ele>17.488077</ele>
        <time>2020-06-22T13:48:18.472Z</time>
      </trkpt>
    </trkseg>
  </trk>
</gpx>